<?xml version="1.0" encoding="UTF-8" standalone="no" ?>
<gpx xmlns="http://www.topografix.com/GPX/1/1" xmlns:xsi="http://www.w3.org/2001/XMLSchema-instance" xsi:schemaLocation="http://www.topografix.com/GPX/1/1 http://www.topografix.com/GPX/1/1/gpx.xsd" version="1.1" creator="VisuGPX - https://www.visugpx.com">
  <metadata>
    <name>2019-05-20 12:25:49</name>
    <desc><![CDATA[

]]></desc>
  </metadata>
  <trk>
    <name><![CDATA[2019-05-20 12:25:49]]></name>
    <trkseg>
      <trkpt lat="40.0303" lon="-8.45498">
        <ele>168.37</ele>
        <time>2019-05-20T07:08:43Z</time>
      </trkpt>
      <trkpt lat="40.0303" lon="-8.45498">
        <ele>168.37</ele>
        <time>2019-05-20T07:08:44Z</time>
      </trkpt>
      <trkpt lat="40.03042" lon="-8.45498">
        <ele>167.89</ele>
        <time>2019-05-20T07:08:58Z</time>
      </trkpt>
      <trkpt lat="40.03043" lon="-8.45498">
        <ele>166.93</ele>
        <time>2019-05-20T07:08:59Z</time>
      </trkpt>
      <trkpt lat="40.03055" lon="-8.45496">
        <ele>166.93</ele>
        <time>2019-05-20T07:09:12Z</time>
      </trkpt>
      <trkpt lat="40.03061" lon="-8.45493">
        <ele>167.89</ele>
        <time>2019-05-20T07:09:27Z</time>
      </trkpt>
      <trkpt lat="40.03062" lon="-8.4549">
        <ele>167.89</ele>
        <time>2019-05-20T07:09:46Z</time>
      </trkpt>
      <trkpt lat="40.03068" lon="-8.45484">
        <ele>167.89</ele>
        <time>2019-05-20T07:10:08Z</time>
      </trkpt>
      <trkpt lat="40.0308" lon="-8.45484">
        <ele>165.96</ele>
        <time>2019-05-20T07:10:22Z</time>
      </trkpt>
      <trkpt lat="40.03088" lon="-8.45482">
        <ele>165.96</ele>
        <time>2019-05-20T07:10:30Z</time>
      </trkpt>
      <trkpt lat="40.03104" lon="-8.4548">
        <ele>165.48</ele>
        <time>2019-05-20T07:10:44Z</time>
      </trkpt>
      <trkpt lat="40.03131" lon="-8.45473">
        <ele>165.48</ele>
        <time>2019-05-20T07:11:02Z</time>
      </trkpt>
      <trkpt lat="40.03148" lon="-8.45486">
        <ele>165</ele>
        <time>2019-05-20T07:11:17Z</time>
      </trkpt>
      <trkpt lat="40.03151" lon="-8.45487">
        <ele>165</ele>
        <time>2019-05-20T07:11:20Z</time>
      </trkpt>
      <trkpt lat="40.03166" lon="-8.45488">
        <ele>164.52</ele>
        <time>2019-05-20T07:11:34Z</time>
      </trkpt>
      <trkpt lat="40.03179" lon="-8.45475">
        <ele>164.04</ele>
        <time>2019-05-20T07:11:48Z</time>
      </trkpt>
      <trkpt lat="40.03185" lon="-8.45457">
        <ele>164.52</ele>
        <time>2019-05-20T07:12:01Z</time>
      </trkpt>
      <trkpt lat="40.03191" lon="-8.45447">
        <ele>164.04</ele>
        <time>2019-05-20T07:12:08Z</time>
      </trkpt>
      <trkpt lat="40.03198" lon="-8.45429">
        <ele>164.04</ele>
        <time>2019-05-20T07:12:20Z</time>
      </trkpt>
      <trkpt lat="40.03207" lon="-8.45408">
        <ele>163.56</ele>
        <time>2019-05-20T07:12:35Z</time>
      </trkpt>
      <trkpt lat="40.03217" lon="-8.45384">
        <ele>163.08</ele>
        <time>2019-05-20T07:12:52Z</time>
      </trkpt>
      <trkpt lat="40.03226" lon="-8.45365">
        <ele>162.6</ele>
        <time>2019-05-20T07:13:06Z</time>
      </trkpt>
      <trkpt lat="40.03232" lon="-8.45345">
        <ele>163.08</ele>
        <time>2019-05-20T07:13:19Z</time>
      </trkpt>
      <trkpt lat="40.03243" lon="-8.45327">
        <ele>162.6</ele>
        <time>2019-05-20T07:13:33Z</time>
      </trkpt>
      <trkpt lat="40.0325" lon="-8.45305">
        <ele>162.6</ele>
        <time>2019-05-20T07:13:48Z</time>
      </trkpt>
      <trkpt lat="40.03256" lon="-8.45286">
        <ele>162.6</ele>
        <time>2019-05-20T07:14:00Z</time>
      </trkpt>
      <trkpt lat="40.03263" lon="-8.45265">
        <ele>162.12</ele>
        <time>2019-05-20T07:14:14Z</time>
      </trkpt>
      <trkpt lat="40.03271" lon="-8.45242">
        <ele>162.6</ele>
        <time>2019-05-20T07:14:29Z</time>
      </trkpt>
      <trkpt lat="40.03276" lon="-8.45227">
        <ele>162.12</ele>
        <time>2019-05-20T07:14:43Z</time>
      </trkpt>
      <trkpt lat="40.03277" lon="-8.45224">
        <ele>161.64</ele>
        <time>2019-05-20T07:14:46Z</time>
      </trkpt>
      <trkpt lat="40.03285" lon="-8.45201">
        <ele>162.12</ele>
        <time>2019-05-20T07:15:02Z</time>
      </trkpt>
      <trkpt lat="40.03291" lon="-8.45179">
        <ele>161.64</ele>
        <time>2019-05-20T07:15:17Z</time>
      </trkpt>
      <trkpt lat="40.03296" lon="-8.45159">
        <ele>161.16</ele>
        <time>2019-05-20T07:15:31Z</time>
      </trkpt>
      <trkpt lat="40.033" lon="-8.45135">
        <ele>161.64</ele>
        <time>2019-05-20T07:15:47Z</time>
      </trkpt>
      <trkpt lat="40.03306" lon="-8.45114">
        <ele>161.64</ele>
        <time>2019-05-20T07:16:01Z</time>
      </trkpt>
      <trkpt lat="40.0331" lon="-8.45093">
        <ele>160.68</ele>
        <time>2019-05-20T07:16:17Z</time>
      </trkpt>
      <trkpt lat="40.0331" lon="-8.45091">
        <ele>161.16</ele>
        <time>2019-05-20T07:16:18Z</time>
      </trkpt>
      <trkpt lat="40.03314" lon="-8.4507">
        <ele>160.68</ele>
        <time>2019-05-20T07:16:32Z</time>
      </trkpt>
      <trkpt lat="40.03318" lon="-8.45045">
        <ele>160.68</ele>
        <time>2019-05-20T07:16:48Z</time>
      </trkpt>
      <trkpt lat="40.03323" lon="-8.45021">
        <ele>160.2</ele>
        <time>2019-05-20T07:17:03Z</time>
      </trkpt>
      <trkpt lat="40.03326" lon="-8.44999">
        <ele>160.2</ele>
        <time>2019-05-20T07:17:18Z</time>
      </trkpt>
      <trkpt lat="40.03329" lon="-8.44979">
        <ele>160.68</ele>
        <time>2019-05-20T07:17:31Z</time>
      </trkpt>
      <trkpt lat="40.03331" lon="-8.44955">
        <ele>160.68</ele>
        <time>2019-05-20T07:17:46Z</time>
      </trkpt>
      <trkpt lat="40.03335" lon="-8.44929">
        <ele>160.68</ele>
        <time>2019-05-20T07:18:02Z</time>
      </trkpt>
      <trkpt lat="40.03336" lon="-8.44917">
        <ele>160.68</ele>
        <time>2019-05-20T07:18:10Z</time>
      </trkpt>
      <trkpt lat="40.0334" lon="-8.44903">
        <ele>161.16</ele>
        <time>2019-05-20T07:18:19Z</time>
      </trkpt>
      <trkpt lat="40.0334" lon="-8.44899">
        <ele>161.16</ele>
        <time>2019-05-20T07:18:22Z</time>
      </trkpt>
      <trkpt lat="40.03346" lon="-8.44875">
        <ele>161.16</ele>
        <time>2019-05-20T07:18:37Z</time>
      </trkpt>
      <trkpt lat="40.03351" lon="-8.44852">
        <ele>161.16</ele>
        <time>2019-05-20T07:18:52Z</time>
      </trkpt>
      <trkpt lat="40.03358" lon="-8.44831">
        <ele>161.64</ele>
        <time>2019-05-20T07:19:06Z</time>
      </trkpt>
      <trkpt lat="40.03364" lon="-8.44808">
        <ele>160.2</ele>
        <time>2019-05-20T07:19:21Z</time>
      </trkpt>
      <trkpt lat="40.03367" lon="-8.44789">
        <ele>161.16</ele>
        <time>2019-05-20T07:19:34Z</time>
      </trkpt>
      <trkpt lat="40.03371" lon="-8.44767">
        <ele>162.12</ele>
        <time>2019-05-20T07:19:50Z</time>
      </trkpt>
      <trkpt lat="40.03375" lon="-8.44746">
        <ele>162.6</ele>
        <time>2019-05-20T07:20:06Z</time>
      </trkpt>
      <trkpt lat="40.03375" lon="-8.44724">
        <ele>162.12</ele>
        <time>2019-05-20T07:20:20Z</time>
      </trkpt>
      <trkpt lat="40.03375" lon="-8.44703">
        <ele>161.64</ele>
        <time>2019-05-20T07:20:35Z</time>
      </trkpt>
      <trkpt lat="40.03374" lon="-8.44694">
        <ele>161.64</ele>
        <time>2019-05-20T07:20:41Z</time>
      </trkpt>
      <trkpt lat="40.03372" lon="-8.44687">
        <ele>162.6</ele>
        <time>2019-05-20T07:20:46Z</time>
      </trkpt>
      <trkpt lat="40.03372" lon="-8.44678">
        <ele>162.12</ele>
        <time>2019-05-20T07:20:50Z</time>
      </trkpt>
      <trkpt lat="40.0337" lon="-8.44652">
        <ele>162.6</ele>
        <time>2019-05-20T07:21:04Z</time>
      </trkpt>
      <trkpt lat="40.03369" lon="-8.44648">
        <ele>162.12</ele>
        <time>2019-05-20T07:21:07Z</time>
      </trkpt>
      <trkpt lat="40.03365" lon="-8.44619">
        <ele>162.12</ele>
        <time>2019-05-20T07:21:24Z</time>
      </trkpt>
      <trkpt lat="40.03365" lon="-8.44614">
        <ele>162.6</ele>
        <time>2019-05-20T07:21:27Z</time>
      </trkpt>
      <trkpt lat="40.03365" lon="-8.44603">
        <ele>162.6</ele>
        <time>2019-05-20T07:21:34Z</time>
      </trkpt>
      <trkpt lat="40.03364" lon="-8.44578">
        <ele>163.08</ele>
        <time>2019-05-20T07:21:51Z</time>
      </trkpt>
      <trkpt lat="40.03365" lon="-8.4456">
        <ele>162.12</ele>
        <time>2019-05-20T07:22:04Z</time>
      </trkpt>
      <trkpt lat="40.03365" lon="-8.44537">
        <ele>163.08</ele>
        <time>2019-05-20T07:22:18Z</time>
      </trkpt>
      <trkpt lat="40.03364" lon="-8.44511">
        <ele>162.12</ele>
        <time>2019-05-20T07:22:34Z</time>
      </trkpt>
      <trkpt lat="40.03363" lon="-8.44488">
        <ele>162.12</ele>
        <time>2019-05-20T07:22:48Z</time>
      </trkpt>
      <trkpt lat="40.03366" lon="-8.44479">
        <ele>162.12</ele>
        <time>2019-05-20T07:22:58Z</time>
      </trkpt>
      <trkpt lat="40.03383" lon="-8.44474">
        <ele>162.12</ele>
        <time>2019-05-20T07:23:12Z</time>
      </trkpt>
      <trkpt lat="40.03402" lon="-8.44478">
        <ele>162.12</ele>
        <time>2019-05-20T07:23:28Z</time>
      </trkpt>
      <trkpt lat="40.03419" lon="-8.44483">
        <ele>162.12</ele>
        <time>2019-05-20T07:23:44Z</time>
      </trkpt>
      <trkpt lat="40.03436" lon="-8.44488">
        <ele>162.12</ele>
        <time>2019-05-20T07:23:58Z</time>
      </trkpt>
      <trkpt lat="40.03455" lon="-8.44495">
        <ele>162.12</ele>
        <time>2019-05-20T07:24:13Z</time>
      </trkpt>
      <trkpt lat="40.03474" lon="-8.445">
        <ele>161.16</ele>
        <time>2019-05-20T07:24:28Z</time>
      </trkpt>
      <trkpt lat="40.03495" lon="-8.44507">
        <ele>161.16</ele>
        <time>2019-05-20T07:24:44Z</time>
      </trkpt>
      <trkpt lat="40.0351" lon="-8.44511">
        <ele>161.16</ele>
        <time>2019-05-20T07:24:59Z</time>
      </trkpt>
      <trkpt lat="40.0353" lon="-8.44519">
        <ele>161.16</ele>
        <time>2019-05-20T07:25:17Z</time>
      </trkpt>
      <trkpt lat="40.03547" lon="-8.44526">
        <ele>161.16</ele>
        <time>2019-05-20T07:25:31Z</time>
      </trkpt>
      <trkpt lat="40.03565" lon="-8.44533">
        <ele>160.68</ele>
        <time>2019-05-20T07:25:46Z</time>
      </trkpt>
      <trkpt lat="40.03585" lon="-8.44539">
        <ele>160.68</ele>
        <time>2019-05-20T07:26:02Z</time>
      </trkpt>
      <trkpt lat="40.03603" lon="-8.44544">
        <ele>160.2</ele>
        <time>2019-05-20T07:26:17Z</time>
      </trkpt>
      <trkpt lat="40.0362" lon="-8.4455">
        <ele>160.68</ele>
        <time>2019-05-20T07:26:32Z</time>
      </trkpt>
      <trkpt lat="40.0364" lon="-8.44556">
        <ele>160.68</ele>
        <time>2019-05-20T07:26:48Z</time>
      </trkpt>
      <trkpt lat="40.03658" lon="-8.44564">
        <ele>160.2</ele>
        <time>2019-05-20T07:27:05Z</time>
      </trkpt>
      <trkpt lat="40.03677" lon="-8.44573">
        <ele>160.2</ele>
        <time>2019-05-20T07:27:21Z</time>
      </trkpt>
      <trkpt lat="40.03684" lon="-8.44577">
        <ele>160.2</ele>
        <time>2019-05-20T07:27:28Z</time>
      </trkpt>
      <trkpt lat="40.03699" lon="-8.44587">
        <ele>159.72</ele>
        <time>2019-05-20T07:27:41Z</time>
      </trkpt>
      <trkpt lat="40.0372" lon="-8.44594">
        <ele>159.24</ele>
        <time>2019-05-20T07:27:57Z</time>
      </trkpt>
      <trkpt lat="40.03735" lon="-8.44601">
        <ele>159.24</ele>
        <time>2019-05-20T07:28:10Z</time>
      </trkpt>
      <trkpt lat="40.03753" lon="-8.44605">
        <ele>159.24</ele>
        <time>2019-05-20T07:28:26Z</time>
      </trkpt>
      <trkpt lat="40.03758" lon="-8.44606">
        <ele>159.24</ele>
        <time>2019-05-20T07:28:30Z</time>
      </trkpt>
      <trkpt lat="40.03764" lon="-8.44608">
        <ele>158.75</ele>
        <time>2019-05-20T07:28:37Z</time>
      </trkpt>
      <trkpt lat="40.03782" lon="-8.44614">
        <ele>158.75</ele>
        <time>2019-05-20T07:28:53Z</time>
      </trkpt>
      <trkpt lat="40.03802" lon="-8.4462">
        <ele>158.27</ele>
        <time>2019-05-20T07:29:09Z</time>
      </trkpt>
      <trkpt lat="40.03819" lon="-8.44624">
        <ele>158.75</ele>
        <time>2019-05-20T07:29:23Z</time>
      </trkpt>
      <trkpt lat="40.03835" lon="-8.44628">
        <ele>158.75</ele>
        <time>2019-05-20T07:29:36Z</time>
      </trkpt>
      <trkpt lat="40.03856" lon="-8.44633">
        <ele>158.27</ele>
        <time>2019-05-20T07:29:54Z</time>
      </trkpt>
      <trkpt lat="40.03873" lon="-8.44639">
        <ele>158.27</ele>
        <time>2019-05-20T07:30:08Z</time>
      </trkpt>
      <trkpt lat="40.03891" lon="-8.44648">
        <ele>158.27</ele>
        <time>2019-05-20T07:30:23Z</time>
      </trkpt>
      <trkpt lat="40.03911" lon="-8.44656">
        <ele>158.75</ele>
        <time>2019-05-20T07:30:41Z</time>
      </trkpt>
      <trkpt lat="40.03929" lon="-8.44663">
        <ele>157.79</ele>
        <time>2019-05-20T07:30:56Z</time>
      </trkpt>
      <trkpt lat="40.03952" lon="-8.44672">
        <ele>157.31</ele>
        <time>2019-05-20T07:31:14Z</time>
      </trkpt>
      <trkpt lat="40.03969" lon="-8.44679">
        <ele>157.79</ele>
        <time>2019-05-20T07:31:29Z</time>
      </trkpt>
      <trkpt lat="40.03994" lon="-8.44688">
        <ele>157.79</ele>
        <time>2019-05-20T07:31:49Z</time>
      </trkpt>
      <trkpt lat="40.04013" lon="-8.44694">
        <ele>157.79</ele>
        <time>2019-05-20T07:32:04Z</time>
      </trkpt>
      <trkpt lat="40.04035" lon="-8.44698">
        <ele>157.79</ele>
        <time>2019-05-20T07:32:21Z</time>
      </trkpt>
      <trkpt lat="40.04042" lon="-8.44699">
        <ele>157.79</ele>
        <time>2019-05-20T07:32:27Z</time>
      </trkpt>
      <trkpt lat="40.04061" lon="-8.44702">
        <ele>157.79</ele>
        <time>2019-05-20T07:32:42Z</time>
      </trkpt>
      <trkpt lat="40.04082" lon="-8.44707">
        <ele>157.31</ele>
        <time>2019-05-20T07:32:59Z</time>
      </trkpt>
      <trkpt lat="40.041" lon="-8.44711">
        <ele>157.31</ele>
        <time>2019-05-20T07:33:14Z</time>
      </trkpt>
      <trkpt lat="40.04122" lon="-8.44716">
        <ele>157.79</ele>
        <time>2019-05-20T07:33:32Z</time>
      </trkpt>
      <trkpt lat="40.04142" lon="-8.44721">
        <ele>157.79</ele>
        <time>2019-05-20T07:33:49Z</time>
      </trkpt>
      <trkpt lat="40.04161" lon="-8.44725">
        <ele>158.27</ele>
        <time>2019-05-20T07:34:04Z</time>
      </trkpt>
      <trkpt lat="40.04162" lon="-8.44725">
        <ele>157.31</ele>
        <time>2019-05-20T07:34:05Z</time>
      </trkpt>
      <trkpt lat="40.04182" lon="-8.44723">
        <ele>157.79</ele>
        <time>2019-05-20T07:34:22Z</time>
      </trkpt>
      <trkpt lat="40.04202" lon="-8.44722">
        <ele>157.31</ele>
        <time>2019-05-20T07:34:38Z</time>
      </trkpt>
      <trkpt lat="40.0422" lon="-8.44734">
        <ele>157.31</ele>
        <time>2019-05-20T07:34:54Z</time>
      </trkpt>
      <trkpt lat="40.04224" lon="-8.44733">
        <ele>157.31</ele>
        <time>2019-05-20T07:34:58Z</time>
      </trkpt>
      <trkpt lat="40.04239" lon="-8.4472">
        <ele>156.83</ele>
        <time>2019-05-20T07:35:13Z</time>
      </trkpt>
      <trkpt lat="40.0425" lon="-8.44701">
        <ele>156.83</ele>
        <time>2019-05-20T07:35:28Z</time>
      </trkpt>
      <trkpt lat="40.04259" lon="-8.44684">
        <ele>156.35</ele>
        <time>2019-05-20T07:35:41Z</time>
      </trkpt>
      <trkpt lat="40.04276" lon="-8.4467">
        <ele>156.35</ele>
        <time>2019-05-20T07:35:58Z</time>
      </trkpt>
      <trkpt lat="40.04292" lon="-8.44663">
        <ele>156.83</ele>
        <time>2019-05-20T07:36:12Z</time>
      </trkpt>
      <trkpt lat="40.04305" lon="-8.44661">
        <ele>157.31</ele>
        <time>2019-05-20T07:36:27Z</time>
      </trkpt>
      <trkpt lat="40.04317" lon="-8.44658">
        <ele>156.83</ele>
        <time>2019-05-20T07:36:43Z</time>
      </trkpt>
      <trkpt lat="40.04336" lon="-8.44657">
        <ele>157.31</ele>
        <time>2019-05-20T07:36:59Z</time>
      </trkpt>
      <trkpt lat="40.04356" lon="-8.44659">
        <ele>156.83</ele>
        <time>2019-05-20T07:37:15Z</time>
      </trkpt>
      <trkpt lat="40.04375" lon="-8.44663">
        <ele>157.31</ele>
        <time>2019-05-20T07:37:29Z</time>
      </trkpt>
      <trkpt lat="40.04396" lon="-8.4467">
        <ele>157.79</ele>
        <time>2019-05-20T07:37:46Z</time>
      </trkpt>
      <trkpt lat="40.04412" lon="-8.44681">
        <ele>157.79</ele>
        <time>2019-05-20T07:38:00Z</time>
      </trkpt>
      <trkpt lat="40.04429" lon="-8.44695">
        <ele>156.83</ele>
        <time>2019-05-20T07:38:17Z</time>
      </trkpt>
      <trkpt lat="40.04445" lon="-8.44709">
        <ele>157.31</ele>
        <time>2019-05-20T07:38:32Z</time>
      </trkpt>
      <trkpt lat="40.04462" lon="-8.44725">
        <ele>157.79</ele>
        <time>2019-05-20T07:38:48Z</time>
      </trkpt>
      <trkpt lat="40.04477" lon="-8.44741">
        <ele>157.79</ele>
        <time>2019-05-20T07:39:03Z</time>
      </trkpt>
      <trkpt lat="40.0449" lon="-8.44758">
        <ele>157.79</ele>
        <time>2019-05-20T07:39:19Z</time>
      </trkpt>
      <trkpt lat="40.04497" lon="-8.4477">
        <ele>157.31</ele>
        <time>2019-05-20T07:39:30Z</time>
      </trkpt>
      <trkpt lat="40.04508" lon="-8.44785">
        <ele>157.31</ele>
        <time>2019-05-20T07:39:43Z</time>
      </trkpt>
      <trkpt lat="40.04516" lon="-8.44794">
        <ele>156.83</ele>
        <time>2019-05-20T07:39:54Z</time>
      </trkpt>
      <trkpt lat="40.04528" lon="-8.44813">
        <ele>157.31</ele>
        <time>2019-05-20T07:40:09Z</time>
      </trkpt>
      <trkpt lat="40.04533" lon="-8.44819">
        <ele>157.79</ele>
        <time>2019-05-20T07:40:14Z</time>
      </trkpt>
      <trkpt lat="40.04535" lon="-8.44821">
        <ele>156.83</ele>
        <time>2019-05-20T07:40:16Z</time>
      </trkpt>
      <trkpt lat="40.0455" lon="-8.44833">
        <ele>157.31</ele>
        <time>2019-05-20T07:40:31Z</time>
      </trkpt>
      <trkpt lat="40.04561" lon="-8.44838">
        <ele>156.35</ele>
        <time>2019-05-20T07:40:41Z</time>
      </trkpt>
      <trkpt lat="40.04581" lon="-8.4484">
        <ele>155.87</ele>
        <time>2019-05-20T07:40:57Z</time>
      </trkpt>
      <trkpt lat="40.04598" lon="-8.44834">
        <ele>155.39</ele>
        <time>2019-05-20T07:41:10Z</time>
      </trkpt>
      <trkpt lat="40.04606" lon="-8.44831">
        <ele>155.39</ele>
        <time>2019-05-20T07:41:16Z</time>
      </trkpt>
      <trkpt lat="40.04623" lon="-8.44818">
        <ele>155.39</ele>
        <time>2019-05-20T07:41:31Z</time>
      </trkpt>
      <trkpt lat="40.0463" lon="-8.44812">
        <ele>154.91</ele>
        <time>2019-05-20T07:41:38Z</time>
      </trkpt>
      <trkpt lat="40.04635" lon="-8.44806">
        <ele>155.39</ele>
        <time>2019-05-20T07:41:43Z</time>
      </trkpt>
      <trkpt lat="40.0464" lon="-8.44801">
        <ele>154.43</ele>
        <time>2019-05-20T07:41:48Z</time>
      </trkpt>
      <trkpt lat="40.04651" lon="-8.44791">
        <ele>154.43</ele>
        <time>2019-05-20T07:41:58Z</time>
      </trkpt>
      <trkpt lat="40.04659" lon="-8.44782">
        <ele>154.43</ele>
        <time>2019-05-20T07:42:07Z</time>
      </trkpt>
      <trkpt lat="40.04671" lon="-8.4477">
        <ele>154.43</ele>
        <time>2019-05-20T07:42:21Z</time>
      </trkpt>
      <trkpt lat="40.04676" lon="-8.44765">
        <ele>154.43</ele>
        <time>2019-05-20T07:42:26Z</time>
      </trkpt>
      <trkpt lat="40.04679" lon="-8.4476">
        <ele>154.43</ele>
        <time>2019-05-20T07:42:30Z</time>
      </trkpt>
      <trkpt lat="40.04681" lon="-8.44757">
        <ele>154.43</ele>
        <time>2019-05-20T07:42:32Z</time>
      </trkpt>
      <trkpt lat="40.04687" lon="-8.4475">
        <ele>154.91</ele>
        <time>2019-05-20T07:42:39Z</time>
      </trkpt>
      <trkpt lat="40.047" lon="-8.44735">
        <ele>153.47</ele>
        <time>2019-05-20T07:42:53Z</time>
      </trkpt>
      <trkpt lat="40.04713" lon="-8.44724">
        <ele>153.47</ele>
        <time>2019-05-20T07:43:06Z</time>
      </trkpt>
      <trkpt lat="40.04727" lon="-8.44716">
        <ele>153.95</ele>
        <time>2019-05-20T07:43:19Z</time>
      </trkpt>
      <trkpt lat="40.04745" lon="-8.44708">
        <ele>153.47</ele>
        <time>2019-05-20T07:43:35Z</time>
      </trkpt>
      <trkpt lat="40.04756" lon="-8.44704">
        <ele>153.47</ele>
        <time>2019-05-20T07:43:46Z</time>
      </trkpt>
      <trkpt lat="40.04779" lon="-8.44707">
        <ele>153.47</ele>
        <time>2019-05-20T07:44:03Z</time>
      </trkpt>
      <trkpt lat="40.048" lon="-8.44714">
        <ele>152.99</ele>
        <time>2019-05-20T07:44:20Z</time>
      </trkpt>
      <trkpt lat="40.04819" lon="-8.44717">
        <ele>152.51</ele>
        <time>2019-05-20T07:44:35Z</time>
      </trkpt>
      <trkpt lat="40.04837" lon="-8.44717">
        <ele>152.51</ele>
        <time>2019-05-20T07:44:50Z</time>
      </trkpt>
      <trkpt lat="40.04858" lon="-8.44719">
        <ele>152.03</ele>
        <time>2019-05-20T07:45:07Z</time>
      </trkpt>
      <trkpt lat="40.04878" lon="-8.44718">
        <ele>152.03</ele>
        <time>2019-05-20T07:45:22Z</time>
      </trkpt>
      <trkpt lat="40.04896" lon="-8.44717">
        <ele>151.54</ele>
        <time>2019-05-20T07:45:36Z</time>
      </trkpt>
      <trkpt lat="40.04914" lon="-8.4472">
        <ele>152.51</ele>
        <time>2019-05-20T07:45:51Z</time>
      </trkpt>
      <trkpt lat="40.04926" lon="-8.4473">
        <ele>153.95</ele>
        <time>2019-05-20T07:46:05Z</time>
      </trkpt>
      <trkpt lat="40.04927" lon="-8.44731">
        <ele>153.47</ele>
        <time>2019-05-20T07:46:25Z</time>
      </trkpt>
      <trkpt lat="40.0494" lon="-8.44735">
        <ele>155.39</ele>
        <time>2019-05-20T07:46:45Z</time>
      </trkpt>
      <trkpt lat="40.04951" lon="-8.44736">
        <ele>155.87</ele>
        <time>2019-05-20T07:46:54Z</time>
      </trkpt>
      <trkpt lat="40.04955" lon="-8.44734">
        <ele>156.83</ele>
        <time>2019-05-20T07:46:58Z</time>
      </trkpt>
      <trkpt lat="40.04968" lon="-8.4473">
        <ele>156.83</ele>
        <time>2019-05-20T07:47:10Z</time>
      </trkpt>
      <trkpt lat="40.04988" lon="-8.44719">
        <ele>155.39</ele>
        <time>2019-05-20T07:47:25Z</time>
      </trkpt>
      <trkpt lat="40.05" lon="-8.44704">
        <ele>154.43</ele>
        <time>2019-05-20T07:47:37Z</time>
      </trkpt>
      <trkpt lat="40.05004" lon="-8.44701">
        <ele>154.43</ele>
        <time>2019-05-20T07:47:40Z</time>
      </trkpt>
      <trkpt lat="40.05018" lon="-8.44689">
        <ele>152.51</ele>
        <time>2019-05-20T07:47:52Z</time>
      </trkpt>
      <trkpt lat="40.05033" lon="-8.44671">
        <ele>151.54</ele>
        <time>2019-05-20T07:48:06Z</time>
      </trkpt>
      <trkpt lat="40.05039" lon="-8.44665">
        <ele>151.54</ele>
        <time>2019-05-20T07:48:11Z</time>
      </trkpt>
      <trkpt lat="40.05044" lon="-8.44661">
        <ele>152.03</ele>
        <time>2019-05-20T07:48:15Z</time>
      </trkpt>
      <trkpt lat="40.05064" lon="-8.44651">
        <ele>152.03</ele>
        <time>2019-05-20T07:48:31Z</time>
      </trkpt>
      <trkpt lat="40.05081" lon="-8.44646">
        <ele>152.51</ele>
        <time>2019-05-20T07:48:44Z</time>
      </trkpt>
      <trkpt lat="40.05102" lon="-8.4464">
        <ele>152.03</ele>
        <time>2019-05-20T07:48:59Z</time>
      </trkpt>
      <trkpt lat="40.05124" lon="-8.44633">
        <ele>152.03</ele>
        <time>2019-05-20T07:49:15Z</time>
      </trkpt>
      <trkpt lat="40.0513" lon="-8.44632">
        <ele>152.03</ele>
        <time>2019-05-20T07:49:19Z</time>
      </trkpt>
      <trkpt lat="40.05134" lon="-8.44629">
        <ele>152.03</ele>
        <time>2019-05-20T07:49:23Z</time>
      </trkpt>
      <trkpt lat="40.05155" lon="-8.44622">
        <ele>152.03</ele>
        <time>2019-05-20T07:49:38Z</time>
      </trkpt>
      <trkpt lat="40.05178" lon="-8.44616">
        <ele>152.03</ele>
        <time>2019-05-20T07:49:55Z</time>
      </trkpt>
      <trkpt lat="40.05198" lon="-8.4461">
        <ele>151.54</ele>
        <time>2019-05-20T07:50:11Z</time>
      </trkpt>
      <trkpt lat="40.05219" lon="-8.44605">
        <ele>151.54</ele>
        <time>2019-05-20T07:50:28Z</time>
      </trkpt>
      <trkpt lat="40.05236" lon="-8.44597">
        <ele>151.54</ele>
        <time>2019-05-20T07:50:42Z</time>
      </trkpt>
      <trkpt lat="40.05255" lon="-8.44591">
        <ele>150.58</ele>
        <time>2019-05-20T07:50:58Z</time>
      </trkpt>
      <trkpt lat="40.0527" lon="-8.4459">
        <ele>150.1</ele>
        <time>2019-05-20T07:51:10Z</time>
      </trkpt>
      <trkpt lat="40.05273" lon="-8.4459">
        <ele>150.1</ele>
        <time>2019-05-20T07:51:12Z</time>
      </trkpt>
      <trkpt lat="40.05278" lon="-8.44589">
        <ele>151.06</ele>
        <time>2019-05-20T07:51:16Z</time>
      </trkpt>
      <trkpt lat="40.05296" lon="-8.44588">
        <ele>151.54</ele>
        <time>2019-05-20T07:51:31Z</time>
      </trkpt>
      <trkpt lat="40.05316" lon="-8.44588">
        <ele>152.51</ele>
        <time>2019-05-20T07:51:47Z</time>
      </trkpt>
      <trkpt lat="40.05335" lon="-8.44588">
        <ele>152.99</ele>
        <time>2019-05-20T07:52:02Z</time>
      </trkpt>
      <trkpt lat="40.05338" lon="-8.44587">
        <ele>153.47</ele>
        <time>2019-05-20T07:52:04Z</time>
      </trkpt>
      <trkpt lat="40.05352" lon="-8.44585">
        <ele>153.95</ele>
        <time>2019-05-20T07:52:20Z</time>
      </trkpt>
      <trkpt lat="40.05355" lon="-8.44586">
        <ele>154.43</ele>
        <time>2019-05-20T07:52:46Z</time>
      </trkpt>
      <trkpt lat="40.05351" lon="-8.44585">
        <ele>154.43</ele>
        <time>2019-05-20T07:53:10Z</time>
      </trkpt>
      <trkpt lat="40.05351" lon="-8.44588">
        <ele>154.43</ele>
        <time>2019-05-20T07:53:27Z</time>
      </trkpt>
      <trkpt lat="40.05354" lon="-8.4459">
        <ele>153.95</ele>
        <time>2019-05-20T07:53:53Z</time>
      </trkpt>
      <trkpt lat="40.05354" lon="-8.44591">
        <ele>154.91</ele>
        <time>2019-05-20T07:53:58Z</time>
      </trkpt>
      <trkpt lat="40.05365" lon="-8.44594">
        <ele>155.39</ele>
        <time>2019-05-20T07:54:10Z</time>
      </trkpt>
      <trkpt lat="40.05378" lon="-8.44597">
        <ele>156.83</ele>
        <time>2019-05-20T07:54:23Z</time>
      </trkpt>
      <trkpt lat="40.0538" lon="-8.44598">
        <ele>156.83</ele>
        <time>2019-05-20T07:54:25Z</time>
      </trkpt>
      <trkpt lat="40.05395" lon="-8.44604">
        <ele>157.79</ele>
        <time>2019-05-20T07:54:40Z</time>
      </trkpt>
      <trkpt lat="40.05411" lon="-8.44608">
        <ele>158.27</ele>
        <time>2019-05-20T07:54:52Z</time>
      </trkpt>
      <trkpt lat="40.05426" lon="-8.44611">
        <ele>160.2</ele>
        <time>2019-05-20T07:55:06Z</time>
      </trkpt>
      <trkpt lat="40.0544" lon="-8.44608">
        <ele>160.68</ele>
        <time>2019-05-20T07:55:19Z</time>
      </trkpt>
      <trkpt lat="40.05445" lon="-8.44606">
        <ele>161.16</ele>
        <time>2019-05-20T07:55:24Z</time>
      </trkpt>
      <trkpt lat="40.05454" lon="-8.44601">
        <ele>162.6</ele>
        <time>2019-05-20T07:55:33Z</time>
      </trkpt>
      <trkpt lat="40.05459" lon="-8.44604">
        <ele>162.6</ele>
        <time>2019-05-20T07:55:52Z</time>
      </trkpt>
      <trkpt lat="40.05465" lon="-8.44599">
        <ele>164.04</ele>
        <time>2019-05-20T07:56:07Z</time>
      </trkpt>
      <trkpt lat="40.05469" lon="-8.44599">
        <ele>165</ele>
        <time>2019-05-20T07:56:11Z</time>
      </trkpt>
      <trkpt lat="40.05475" lon="-8.44611">
        <ele>164.52</ele>
        <time>2019-05-20T07:56:25Z</time>
      </trkpt>
      <trkpt lat="40.05477" lon="-8.44616">
        <ele>163.56</ele>
        <time>2019-05-20T07:56:29Z</time>
      </trkpt>
      <trkpt lat="40.05479" lon="-8.44621">
        <ele>163.56</ele>
        <time>2019-05-20T07:56:34Z</time>
      </trkpt>
      <trkpt lat="40.05483" lon="-8.4462">
        <ele>164.52</ele>
        <time>2019-05-20T07:56:49Z</time>
      </trkpt>
      <trkpt lat="40.05484" lon="-8.4462">
        <ele>165</ele>
        <time>2019-05-20T07:57:08Z</time>
      </trkpt>
      <trkpt lat="40.05484" lon="-8.44621">
        <ele>164.52</ele>
        <time>2019-05-20T07:57:11Z</time>
      </trkpt>
      <trkpt lat="40.05484" lon="-8.44624">
        <ele>165</ele>
        <time>2019-05-20T07:57:25Z</time>
      </trkpt>
      <trkpt lat="40.05488" lon="-8.44619">
        <ele>164.04</ele>
        <time>2019-05-20T07:57:41Z</time>
      </trkpt>
      <trkpt lat="40.05489" lon="-8.44619">
        <ele>165</ele>
        <time>2019-05-20T07:57:42Z</time>
      </trkpt>
      <trkpt lat="40.05492" lon="-8.44618">
        <ele>165.96</ele>
        <time>2019-05-20T07:57:45Z</time>
      </trkpt>
      <trkpt lat="40.05511" lon="-8.44616">
        <ele>165.96</ele>
        <time>2019-05-20T07:58:03Z</time>
      </trkpt>
      <trkpt lat="40.05522" lon="-8.44619">
        <ele>164.52</ele>
        <time>2019-05-20T07:58:13Z</time>
      </trkpt>
      <trkpt lat="40.05539" lon="-8.44612">
        <ele>165</ele>
        <time>2019-05-20T07:58:26Z</time>
      </trkpt>
      <trkpt lat="40.0554" lon="-8.44612">
        <ele>165.48</ele>
        <time>2019-05-20T07:58:27Z</time>
      </trkpt>
      <trkpt lat="40.0555" lon="-8.44609">
        <ele>166.45</ele>
        <time>2019-05-20T07:58:41Z</time>
      </trkpt>
      <trkpt lat="40.05547" lon="-8.44603">
        <ele>167.41</ele>
        <time>2019-05-20T07:58:59Z</time>
      </trkpt>
      <trkpt lat="40.05545" lon="-8.44599">
        <ele>166.93</ele>
        <time>2019-05-20T07:59:15Z</time>
      </trkpt>
      <trkpt lat="40.05545" lon="-8.44592">
        <ele>167.41</ele>
        <time>2019-05-20T07:59:32Z</time>
      </trkpt>
      <trkpt lat="40.05546" lon="-8.44587">
        <ele>167.41</ele>
        <time>2019-05-20T07:59:56Z</time>
      </trkpt>
      <trkpt lat="40.0555" lon="-8.44593">
        <ele>167.41</ele>
        <time>2019-05-20T08:00:22Z</time>
      </trkpt>
      <trkpt lat="40.05555" lon="-8.44596">
        <ele>166.93</ele>
        <time>2019-05-20T08:00:26Z</time>
      </trkpt>
      <trkpt lat="40.05565" lon="-8.44608">
        <ele>166.45</ele>
        <time>2019-05-20T08:00:37Z</time>
      </trkpt>
      <trkpt lat="40.05579" lon="-8.44618">
        <ele>165.48</ele>
        <time>2019-05-20T08:00:49Z</time>
      </trkpt>
      <trkpt lat="40.05584" lon="-8.44624">
        <ele>165.96</ele>
        <time>2019-05-20T08:00:54Z</time>
      </trkpt>
      <trkpt lat="40.05586" lon="-8.44628">
        <ele>165</ele>
        <time>2019-05-20T08:00:57Z</time>
      </trkpt>
      <trkpt lat="40.05599" lon="-8.44644">
        <ele>165</ele>
        <time>2019-05-20T08:01:12Z</time>
      </trkpt>
      <trkpt lat="40.05607" lon="-8.44661">
        <ele>164.52</ele>
        <time>2019-05-20T08:01:24Z</time>
      </trkpt>
      <trkpt lat="40.05617" lon="-8.44678">
        <ele>165</ele>
        <time>2019-05-20T08:01:38Z</time>
      </trkpt>
      <trkpt lat="40.05619" lon="-8.44687">
        <ele>164.52</ele>
        <time>2019-05-20T08:01:45Z</time>
      </trkpt>
      <trkpt lat="40.05621" lon="-8.44696">
        <ele>164.04</ele>
        <time>2019-05-20T08:01:51Z</time>
      </trkpt>
      <trkpt lat="40.05631" lon="-8.44708">
        <ele>163.56</ele>
        <time>2019-05-20T08:02:04Z</time>
      </trkpt>
      <trkpt lat="40.05637" lon="-8.44722">
        <ele>162.6</ele>
        <time>2019-05-20T08:02:15Z</time>
      </trkpt>
      <trkpt lat="40.05644" lon="-8.44745">
        <ele>162.12</ele>
        <time>2019-05-20T08:02:29Z</time>
      </trkpt>
      <trkpt lat="40.05648" lon="-8.44765">
        <ele>160.68</ele>
        <time>2019-05-20T08:02:40Z</time>
      </trkpt>
      <trkpt lat="40.05652" lon="-8.44789">
        <ele>161.16</ele>
        <time>2019-05-20T08:02:54Z</time>
      </trkpt>
      <trkpt lat="40.0566" lon="-8.44809">
        <ele>159.24</ele>
        <time>2019-05-20T08:03:08Z</time>
      </trkpt>
      <trkpt lat="40.05669" lon="-8.44835">
        <ele>159.24</ele>
        <time>2019-05-20T08:03:23Z</time>
      </trkpt>
      <trkpt lat="40.05675" lon="-8.44858">
        <ele>157.79</ele>
        <time>2019-05-20T08:03:38Z</time>
      </trkpt>
      <trkpt lat="40.05676" lon="-8.4486">
        <ele>157.79</ele>
        <time>2019-05-20T08:03:46Z</time>
      </trkpt>
      <trkpt lat="40.05679" lon="-8.44866">
        <ele>157.31</ele>
        <time>2019-05-20T08:03:52Z</time>
      </trkpt>
      <trkpt lat="40.05689" lon="-8.44891">
        <ele>155.39</ele>
        <time>2019-05-20T08:04:09Z</time>
      </trkpt>
      <trkpt lat="40.05695" lon="-8.44912">
        <ele>153.47</ele>
        <time>2019-05-20T08:04:23Z</time>
      </trkpt>
      <trkpt lat="40.05695" lon="-8.44922">
        <ele>152.51</ele>
        <time>2019-05-20T08:04:29Z</time>
      </trkpt>
      <trkpt lat="40.05698" lon="-8.44941">
        <ele>151.54</ele>
        <time>2019-05-20T08:04:41Z</time>
      </trkpt>
      <trkpt lat="40.05704" lon="-8.44961">
        <ele>150.1</ele>
        <time>2019-05-20T08:04:54Z</time>
      </trkpt>
      <trkpt lat="40.05721" lon="-8.44987">
        <ele>149.62</ele>
        <time>2019-05-20T08:05:13Z</time>
      </trkpt>
      <trkpt lat="40.05728" lon="-8.44998">
        <ele>149.14</ele>
        <time>2019-05-20T08:05:28Z</time>
      </trkpt>
      <trkpt lat="40.05728" lon="-8.44998">
        <ele>149.62</ele>
        <time>2019-05-20T08:05:34Z</time>
      </trkpt>
      <trkpt lat="40.05743" lon="-8.45005">
        <ele>150.1</ele>
        <time>2019-05-20T08:05:48Z</time>
      </trkpt>
      <trkpt lat="40.05759" lon="-8.45017">
        <ele>149.62</ele>
        <time>2019-05-20T08:06:01Z</time>
      </trkpt>
      <trkpt lat="40.05769" lon="-8.45037">
        <ele>149.62</ele>
        <time>2019-05-20T08:06:16Z</time>
      </trkpt>
      <trkpt lat="40.05769" lon="-8.45039">
        <ele>149.62</ele>
        <time>2019-05-20T08:06:17Z</time>
      </trkpt>
      <trkpt lat="40.05768" lon="-8.45045">
        <ele>150.1</ele>
        <time>2019-05-20T08:06:21Z</time>
      </trkpt>
      <trkpt lat="40.05766" lon="-8.45066">
        <ele>150.1</ele>
        <time>2019-05-20T08:06:34Z</time>
      </trkpt>
      <trkpt lat="40.05781" lon="-8.45083">
        <ele>150.58</ele>
        <time>2019-05-20T08:06:50Z</time>
      </trkpt>
      <trkpt lat="40.05794" lon="-8.45103">
        <ele>151.06</ele>
        <time>2019-05-20T08:07:07Z</time>
      </trkpt>
      <trkpt lat="40.058" lon="-8.45126">
        <ele>152.03</ele>
        <time>2019-05-20T08:07:23Z</time>
      </trkpt>
      <trkpt lat="40.05806" lon="-8.45152">
        <ele>152.51</ele>
        <time>2019-05-20T08:07:40Z</time>
      </trkpt>
      <trkpt lat="40.05807" lon="-8.45156">
        <ele>153.47</ele>
        <time>2019-05-20T08:07:43Z</time>
      </trkpt>
      <trkpt lat="40.05811" lon="-8.45173">
        <ele>155.39</ele>
        <time>2019-05-20T08:07:57Z</time>
      </trkpt>
      <trkpt lat="40.05817" lon="-8.45192">
        <ele>155.87</ele>
        <time>2019-05-20T08:08:11Z</time>
      </trkpt>
      <trkpt lat="40.05823" lon="-8.45209">
        <ele>157.31</ele>
        <time>2019-05-20T08:08:24Z</time>
      </trkpt>
      <trkpt lat="40.0583" lon="-8.45227">
        <ele>157.79</ele>
        <time>2019-05-20T08:08:39Z</time>
      </trkpt>
      <trkpt lat="40.05841" lon="-8.45245">
        <ele>160.2</ele>
        <time>2019-05-20T08:08:55Z</time>
      </trkpt>
      <trkpt lat="40.05854" lon="-8.45263">
        <ele>160.68</ele>
        <time>2019-05-20T08:09:11Z</time>
      </trkpt>
      <trkpt lat="40.05863" lon="-8.45272">
        <ele>160.68</ele>
        <time>2019-05-20T08:09:20Z</time>
      </trkpt>
      <trkpt lat="40.05865" lon="-8.45275">
        <ele>159.72</ele>
        <time>2019-05-20T08:09:23Z</time>
      </trkpt>
      <trkpt lat="40.05882" lon="-8.45293">
        <ele>159.72</ele>
        <time>2019-05-20T08:09:40Z</time>
      </trkpt>
      <trkpt lat="40.05899" lon="-8.45311">
        <ele>159.72</ele>
        <time>2019-05-20T08:09:57Z</time>
      </trkpt>
      <trkpt lat="40.05914" lon="-8.45326">
        <ele>160.2</ele>
        <time>2019-05-20T08:10:13Z</time>
      </trkpt>
      <trkpt lat="40.05931" lon="-8.45347">
        <ele>161.64</ele>
        <time>2019-05-20T08:10:31Z</time>
      </trkpt>
      <trkpt lat="40.05937" lon="-8.45357">
        <ele>162.6</ele>
        <time>2019-05-20T08:10:40Z</time>
      </trkpt>
      <trkpt lat="40.05943" lon="-8.45371">
        <ele>164.52</ele>
        <time>2019-05-20T08:10:51Z</time>
      </trkpt>
      <trkpt lat="40.0595" lon="-8.45387">
        <ele>165</ele>
        <time>2019-05-20T08:11:03Z</time>
      </trkpt>
      <trkpt lat="40.05962" lon="-8.45408">
        <ele>165</ele>
        <time>2019-05-20T08:11:19Z</time>
      </trkpt>
      <trkpt lat="40.05973" lon="-8.45422">
        <ele>164.04</ele>
        <time>2019-05-20T08:11:33Z</time>
      </trkpt>
      <trkpt lat="40.05981" lon="-8.45432">
        <ele>163.56</ele>
        <time>2019-05-20T08:11:46Z</time>
      </trkpt>
      <trkpt lat="40.05982" lon="-8.45434">
        <ele>164.04</ele>
        <time>2019-05-20T08:12:12Z</time>
      </trkpt>
      <trkpt lat="40.0598" lon="-8.45431">
        <ele>164.04</ele>
        <time>2019-05-20T08:12:41Z</time>
      </trkpt>
      <trkpt lat="40.05982" lon="-8.45432">
        <ele>163.56</ele>
        <time>2019-05-20T08:12:48Z</time>
      </trkpt>
      <trkpt lat="40.05996" lon="-8.45434">
        <ele>163.08</ele>
        <time>2019-05-20T08:13:02Z</time>
      </trkpt>
      <trkpt lat="40.05996" lon="-8.45437">
        <ele>163.56</ele>
        <time>2019-05-20T08:13:18Z</time>
      </trkpt>
      <trkpt lat="40.06" lon="-8.45435">
        <ele>162.6</ele>
        <time>2019-05-20T08:13:52Z</time>
      </trkpt>
      <trkpt lat="40.06018" lon="-8.45441">
        <ele>163.08</ele>
        <time>2019-05-20T08:14:07Z</time>
      </trkpt>
      <trkpt lat="40.0604" lon="-8.45453">
        <ele>164.52</ele>
        <time>2019-05-20T08:14:25Z</time>
      </trkpt>
      <trkpt lat="40.06057" lon="-8.45467">
        <ele>164.04</ele>
        <time>2019-05-20T08:14:40Z</time>
      </trkpt>
      <trkpt lat="40.0607" lon="-8.4548">
        <ele>164.04</ele>
        <time>2019-05-20T08:14:53Z</time>
      </trkpt>
      <trkpt lat="40.0609" lon="-8.45502">
        <ele>164.04</ele>
        <time>2019-05-20T08:15:12Z</time>
      </trkpt>
      <trkpt lat="40.06093" lon="-8.45508">
        <ele>164.04</ele>
        <time>2019-05-20T08:15:29Z</time>
      </trkpt>
      <trkpt lat="40.06099" lon="-8.45521">
        <ele>163.56</ele>
        <time>2019-05-20T08:15:46Z</time>
      </trkpt>
      <trkpt lat="40.0611" lon="-8.45544">
        <ele>163.56</ele>
        <time>2019-05-20T08:16:02Z</time>
      </trkpt>
      <trkpt lat="40.06112" lon="-8.45553">
        <ele>163.56</ele>
        <time>2019-05-20T08:16:08Z</time>
      </trkpt>
      <trkpt lat="40.06124" lon="-8.45577">
        <ele>164.52</ele>
        <time>2019-05-20T08:16:25Z</time>
      </trkpt>
      <trkpt lat="40.06138" lon="-8.45596">
        <ele>164.52</ele>
        <time>2019-05-20T08:16:41Z</time>
      </trkpt>
      <trkpt lat="40.06149" lon="-8.4561">
        <ele>164.52</ele>
        <time>2019-05-20T08:16:56Z</time>
      </trkpt>
      <trkpt lat="40.06153" lon="-8.45616">
        <ele>164.52</ele>
        <time>2019-05-20T08:17:01Z</time>
      </trkpt>
      <trkpt lat="40.06168" lon="-8.4564">
        <ele>164.04</ele>
        <time>2019-05-20T08:17:20Z</time>
      </trkpt>
      <trkpt lat="40.06184" lon="-8.45657">
        <ele>164.52</ele>
        <time>2019-05-20T08:17:36Z</time>
      </trkpt>
      <trkpt lat="40.062" lon="-8.45658">
        <ele>164.52</ele>
        <time>2019-05-20T08:17:48Z</time>
      </trkpt>
      <trkpt lat="40.06213" lon="-8.45654">
        <ele>164.52</ele>
        <time>2019-05-20T08:17:59Z</time>
      </trkpt>
      <trkpt lat="40.06222" lon="-8.45652">
        <ele>164.52</ele>
        <time>2019-05-20T08:18:06Z</time>
      </trkpt>
      <trkpt lat="40.06243" lon="-8.45652">
        <ele>165</ele>
        <time>2019-05-20T08:18:22Z</time>
      </trkpt>
      <trkpt lat="40.06259" lon="-8.45652">
        <ele>165.48</ele>
        <time>2019-05-20T08:18:36Z</time>
      </trkpt>
      <trkpt lat="40.06278" lon="-8.45655">
        <ele>165.96</ele>
        <time>2019-05-20T08:18:50Z</time>
      </trkpt>
      <trkpt lat="40.06297" lon="-8.45662">
        <ele>165.48</ele>
        <time>2019-05-20T08:19:05Z</time>
      </trkpt>
      <trkpt lat="40.06315" lon="-8.45671">
        <ele>164.52</ele>
        <time>2019-05-20T08:19:20Z</time>
      </trkpt>
      <trkpt lat="40.06331" lon="-8.45688">
        <ele>163.56</ele>
        <time>2019-05-20T08:19:37Z</time>
      </trkpt>
      <trkpt lat="40.06348" lon="-8.45708">
        <ele>163.08</ele>
        <time>2019-05-20T08:19:55Z</time>
      </trkpt>
      <trkpt lat="40.06367" lon="-8.45723">
        <ele>163.08</ele>
        <time>2019-05-20T08:20:13Z</time>
      </trkpt>
      <trkpt lat="40.06384" lon="-8.45733">
        <ele>163.56</ele>
        <time>2019-05-20T08:20:28Z</time>
      </trkpt>
      <trkpt lat="40.06402" lon="-8.45744">
        <ele>164.52</ele>
        <time>2019-05-20T08:20:44Z</time>
      </trkpt>
      <trkpt lat="40.06422" lon="-8.45755">
        <ele>165.48</ele>
        <time>2019-05-20T08:21:01Z</time>
      </trkpt>
      <trkpt lat="40.06437" lon="-8.45766">
        <ele>165</ele>
        <time>2019-05-20T08:21:15Z</time>
      </trkpt>
      <trkpt lat="40.06453" lon="-8.45779">
        <ele>164.04</ele>
        <time>2019-05-20T08:21:30Z</time>
      </trkpt>
      <trkpt lat="40.06468" lon="-8.45791">
        <ele>164.04</ele>
        <time>2019-05-20T08:21:45Z</time>
      </trkpt>
      <trkpt lat="40.06486" lon="-8.45806">
        <ele>163.56</ele>
        <time>2019-05-20T08:22:01Z</time>
      </trkpt>
      <trkpt lat="40.06503" lon="-8.45826">
        <ele>162.6</ele>
        <time>2019-05-20T08:22:18Z</time>
      </trkpt>
      <trkpt lat="40.06521" lon="-8.45847">
        <ele>162.12</ele>
        <time>2019-05-20T08:22:36Z</time>
      </trkpt>
      <trkpt lat="40.06533" lon="-8.45861">
        <ele>161.64</ele>
        <time>2019-05-20T08:22:49Z</time>
      </trkpt>
      <trkpt lat="40.06548" lon="-8.45873">
        <ele>161.16</ele>
        <time>2019-05-20T08:23:02Z</time>
      </trkpt>
      <trkpt lat="40.06567" lon="-8.45883">
        <ele>160.68</ele>
        <time>2019-05-20T08:23:18Z</time>
      </trkpt>
      <trkpt lat="40.06586" lon="-8.45892">
        <ele>160.2</ele>
        <time>2019-05-20T08:23:33Z</time>
      </trkpt>
      <trkpt lat="40.06602" lon="-8.459">
        <ele>159.24</ele>
        <time>2019-05-20T08:23:46Z</time>
      </trkpt>
      <trkpt lat="40.06619" lon="-8.45909">
        <ele>158.75</ele>
        <time>2019-05-20T08:24:00Z</time>
      </trkpt>
      <trkpt lat="40.06634" lon="-8.45918">
        <ele>158.75</ele>
        <time>2019-05-20T08:24:15Z</time>
      </trkpt>
      <trkpt lat="40.06647" lon="-8.45928">
        <ele>158.27</ele>
        <time>2019-05-20T08:24:27Z</time>
      </trkpt>
      <trkpt lat="40.06664" lon="-8.45945">
        <ele>157.31</ele>
        <time>2019-05-20T08:24:44Z</time>
      </trkpt>
      <trkpt lat="40.0668" lon="-8.45961">
        <ele>157.79</ele>
        <time>2019-05-20T08:25:00Z</time>
      </trkpt>
      <trkpt lat="40.06697" lon="-8.45976">
        <ele>157.79</ele>
        <time>2019-05-20T08:25:16Z</time>
      </trkpt>
      <trkpt lat="40.06714" lon="-8.45992">
        <ele>157.31</ele>
        <time>2019-05-20T08:25:32Z</time>
      </trkpt>
      <trkpt lat="40.06732" lon="-8.46009">
        <ele>156.83</ele>
        <time>2019-05-20T08:25:48Z</time>
      </trkpt>
      <trkpt lat="40.06749" lon="-8.46021">
        <ele>156.83</ele>
        <time>2019-05-20T08:26:03Z</time>
      </trkpt>
      <trkpt lat="40.06753" lon="-8.46027">
        <ele>156.83</ele>
        <time>2019-05-20T08:26:19Z</time>
      </trkpt>
      <trkpt lat="40.06755" lon="-8.46032">
        <ele>156.83</ele>
        <time>2019-05-20T08:26:48Z</time>
      </trkpt>
      <trkpt lat="40.06756" lon="-8.46031">
        <ele>156.83</ele>
        <time>2019-05-20T08:27:02Z</time>
      </trkpt>
      <trkpt lat="40.06761" lon="-8.46034">
        <ele>156.83</ele>
        <time>2019-05-20T08:27:21Z</time>
      </trkpt>
      <trkpt lat="40.06761" lon="-8.46035">
        <ele>156.83</ele>
        <time>2019-05-20T08:27:26Z</time>
      </trkpt>
      <trkpt lat="40.0678" lon="-8.46048">
        <ele>156.83</ele>
        <time>2019-05-20T08:27:44Z</time>
      </trkpt>
      <trkpt lat="40.06789" lon="-8.46057">
        <ele>156.83</ele>
        <time>2019-05-20T08:27:57Z</time>
      </trkpt>
      <trkpt lat="40.06797" lon="-8.46062">
        <ele>156.83</ele>
        <time>2019-05-20T08:28:04Z</time>
      </trkpt>
      <trkpt lat="40.06816" lon="-8.46078">
        <ele>156.35</ele>
        <time>2019-05-20T08:28:22Z</time>
      </trkpt>
      <trkpt lat="40.06818" lon="-8.46084">
        <ele>156.35</ele>
        <time>2019-05-20T08:28:39Z</time>
      </trkpt>
      <trkpt lat="40.06819" lon="-8.46088">
        <ele>156.83</ele>
        <time>2019-05-20T08:28:57Z</time>
      </trkpt>
      <trkpt lat="40.06827" lon="-8.46089">
        <ele>156.35</ele>
        <time>2019-05-20T08:29:04Z</time>
      </trkpt>
      <trkpt lat="40.06831" lon="-8.46089">
        <ele>156.35</ele>
        <time>2019-05-20T08:29:13Z</time>
      </trkpt>
      <trkpt lat="40.0685" lon="-8.46103">
        <ele>155.39</ele>
        <time>2019-05-20T08:29:30Z</time>
      </trkpt>
      <trkpt lat="40.06865" lon="-8.46119">
        <ele>154.43</ele>
        <time>2019-05-20T08:29:44Z</time>
      </trkpt>
      <trkpt lat="40.06877" lon="-8.46137">
        <ele>154.43</ele>
        <time>2019-05-20T08:29:59Z</time>
      </trkpt>
      <trkpt lat="40.06884" lon="-8.46149">
        <ele>153.95</ele>
        <time>2019-05-20T08:30:12Z</time>
      </trkpt>
      <trkpt lat="40.06895" lon="-8.46171">
        <ele>152.51</ele>
        <time>2019-05-20T08:30:28Z</time>
      </trkpt>
      <trkpt lat="40.069" lon="-8.46193">
        <ele>152.99</ele>
        <time>2019-05-20T08:30:43Z</time>
      </trkpt>
      <trkpt lat="40.06902" lon="-8.462">
        <ele>152.99</ele>
        <time>2019-05-20T08:30:48Z</time>
      </trkpt>
      <trkpt lat="40.06921" lon="-8.46218">
        <ele>152.51</ele>
        <time>2019-05-20T08:31:03Z</time>
      </trkpt>
      <trkpt lat="40.06925" lon="-8.46225">
        <ele>152.03</ele>
        <time>2019-05-20T08:31:08Z</time>
      </trkpt>
      <trkpt lat="40.06932" lon="-8.46244">
        <ele>152.51</ele>
        <time>2019-05-20T08:31:22Z</time>
      </trkpt>
      <trkpt lat="40.06938" lon="-8.46261">
        <ele>152.51</ele>
        <time>2019-05-20T08:31:36Z</time>
      </trkpt>
      <trkpt lat="40.06943" lon="-8.4627">
        <ele>152.51</ele>
        <time>2019-05-20T08:31:48Z</time>
      </trkpt>
      <trkpt lat="40.06945" lon="-8.46273">
        <ele>152.03</ele>
        <time>2019-05-20T08:32:01Z</time>
      </trkpt>
      <trkpt lat="40.06945" lon="-8.46273">
        <ele>152.03</ele>
        <time>2019-05-20T08:32:22Z</time>
      </trkpt>
      <trkpt lat="40.06944" lon="-8.46275">
        <ele>152.51</ele>
        <time>2019-05-20T08:32:25Z</time>
      </trkpt>
      <trkpt lat="40.06947" lon="-8.46291">
        <ele>152.03</ele>
        <time>2019-05-20T08:32:41Z</time>
      </trkpt>
      <trkpt lat="40.0695" lon="-8.46307">
        <ele>151.06</ele>
        <time>2019-05-20T08:32:51Z</time>
      </trkpt>
      <trkpt lat="40.06953" lon="-8.46316">
        <ele>151.54</ele>
        <time>2019-05-20T08:32:56Z</time>
      </trkpt>
      <trkpt lat="40.06956" lon="-8.46325">
        <ele>150.58</ele>
        <time>2019-05-20T08:33:03Z</time>
      </trkpt>
      <trkpt lat="40.06961" lon="-8.46342">
        <ele>150.1</ele>
        <time>2019-05-20T08:33:16Z</time>
      </trkpt>
      <trkpt lat="40.06962" lon="-8.4634">
        <ele>150.1</ele>
        <time>2019-05-20T08:33:18Z</time>
      </trkpt>
      <trkpt lat="40.06967" lon="-8.46343">
        <ele>150.1</ele>
        <time>2019-05-20T08:33:29Z</time>
      </trkpt>
      <trkpt lat="40.06968" lon="-8.46355">
        <ele>148.66</ele>
        <time>2019-05-20T08:33:37Z</time>
      </trkpt>
      <trkpt lat="40.06972" lon="-8.4636">
        <ele>148.18</ele>
        <time>2019-05-20T08:33:42Z</time>
      </trkpt>
      <trkpt lat="40.06978" lon="-8.46377">
        <ele>146.26</ele>
        <time>2019-05-20T08:33:55Z</time>
      </trkpt>
      <trkpt lat="40.06979" lon="-8.46382">
        <ele>146.26</ele>
        <time>2019-05-20T08:33:59Z</time>
      </trkpt>
      <trkpt lat="40.0699" lon="-8.464">
        <ele>144.82</ele>
        <time>2019-05-20T08:34:16Z</time>
      </trkpt>
      <trkpt lat="40.06997" lon="-8.46412">
        <ele>144.82</ele>
        <time>2019-05-20T08:34:27Z</time>
      </trkpt>
      <trkpt lat="40.07005" lon="-8.46437">
        <ele>144.34</ele>
        <time>2019-05-20T08:34:42Z</time>
      </trkpt>
      <trkpt lat="40.07007" lon="-8.46446">
        <ele>144.34</ele>
        <time>2019-05-20T08:34:57Z</time>
      </trkpt>
      <trkpt lat="40.07008" lon="-8.4645">
        <ele>143.37</ele>
        <time>2019-05-20T08:35:04Z</time>
      </trkpt>
      <trkpt lat="40.07017" lon="-8.46465">
        <ele>143.37</ele>
        <time>2019-05-20T08:35:17Z</time>
      </trkpt>
      <trkpt lat="40.07022" lon="-8.46477">
        <ele>143.37</ele>
        <time>2019-05-20T08:35:25Z</time>
      </trkpt>
      <trkpt lat="40.07035" lon="-8.465">
        <ele>142.41</ele>
        <time>2019-05-20T08:35:42Z</time>
      </trkpt>
      <trkpt lat="40.07048" lon="-8.4652">
        <ele>140.97</ele>
        <time>2019-05-20T08:35:58Z</time>
      </trkpt>
      <trkpt lat="40.07058" lon="-8.4654">
        <ele>140.97</ele>
        <time>2019-05-20T08:36:12Z</time>
      </trkpt>
      <trkpt lat="40.07064" lon="-8.46549">
        <ele>141.45</ele>
        <time>2019-05-20T08:36:22Z</time>
      </trkpt>
      <trkpt lat="40.07075" lon="-8.46569">
        <ele>140.49</ele>
        <time>2019-05-20T08:36:38Z</time>
      </trkpt>
      <trkpt lat="40.07076" lon="-8.4657">
        <ele>140.97</ele>
        <time>2019-05-20T08:36:52Z</time>
      </trkpt>
      <trkpt lat="40.07075" lon="-8.46569">
        <ele>140.97</ele>
        <time>2019-05-20T08:37:10Z</time>
      </trkpt>
      <trkpt lat="40.07074" lon="-8.46562">
        <ele>140.97</ele>
        <time>2019-05-20T08:37:26Z</time>
      </trkpt>
      <trkpt lat="40.07074" lon="-8.46558">
        <ele>140.49</ele>
        <time>2019-05-20T08:37:48Z</time>
      </trkpt>
      <trkpt lat="40.07076" lon="-8.4656">
        <ele>141.93</ele>
        <time>2019-05-20T08:38:10Z</time>
      </trkpt>
      <trkpt lat="40.07074" lon="-8.46566">
        <ele>140.49</ele>
        <time>2019-05-20T08:38:29Z</time>
      </trkpt>
      <trkpt lat="40.07074" lon="-8.46568">
        <ele>141.45</ele>
        <time>2019-05-20T08:38:42Z</time>
      </trkpt>
      <trkpt lat="40.07077" lon="-8.46572">
        <ele>140.97</ele>
        <time>2019-05-20T08:39:02Z</time>
      </trkpt>
      <trkpt lat="40.07078" lon="-8.46575">
        <ele>140.49</ele>
        <time>2019-05-20T08:39:05Z</time>
      </trkpt>
      <trkpt lat="40.07088" lon="-8.46597">
        <ele>141.45</ele>
        <time>2019-05-20T08:39:22Z</time>
      </trkpt>
      <trkpt lat="40.071" lon="-8.46615">
        <ele>140.49</ele>
        <time>2019-05-20T08:39:38Z</time>
      </trkpt>
      <trkpt lat="40.07113" lon="-8.46636">
        <ele>140.97</ele>
        <time>2019-05-20T08:39:54Z</time>
      </trkpt>
      <trkpt lat="40.07123" lon="-8.46652">
        <ele>140.49</ele>
        <time>2019-05-20T08:40:08Z</time>
      </trkpt>
      <trkpt lat="40.07125" lon="-8.46655">
        <ele>140.97</ele>
        <time>2019-05-20T08:40:10Z</time>
      </trkpt>
      <trkpt lat="40.07135" lon="-8.46673">
        <ele>140.97</ele>
        <time>2019-05-20T08:40:23Z</time>
      </trkpt>
      <trkpt lat="40.07146" lon="-8.46689">
        <ele>140.49</ele>
        <time>2019-05-20T08:40:39Z</time>
      </trkpt>
      <trkpt lat="40.07148" lon="-8.46691">
        <ele>140.49</ele>
        <time>2019-05-20T08:40:51Z</time>
      </trkpt>
      <trkpt lat="40.07153" lon="-8.46699">
        <ele>140.97</ele>
        <time>2019-05-20T08:40:57Z</time>
      </trkpt>
      <trkpt lat="40.07168" lon="-8.46718">
        <ele>140.97</ele>
        <time>2019-05-20T08:41:13Z</time>
      </trkpt>
      <trkpt lat="40.07169" lon="-8.46719">
        <ele>140.01</ele>
        <time>2019-05-20T08:41:14Z</time>
      </trkpt>
      <trkpt lat="40.07174" lon="-8.46726">
        <ele>140.97</ele>
        <time>2019-05-20T08:41:29Z</time>
      </trkpt>
      <trkpt lat="40.07193" lon="-8.46735">
        <ele>140.49</ele>
        <time>2019-05-20T08:41:47Z</time>
      </trkpt>
      <trkpt lat="40.07196" lon="-8.46734">
        <ele>141.93</ele>
        <time>2019-05-20T08:41:50Z</time>
      </trkpt>
      <trkpt lat="40.07203" lon="-8.46726">
        <ele>139.53</ele>
        <time>2019-05-20T08:42:01Z</time>
      </trkpt>
      <trkpt lat="40.07208" lon="-8.46725">
        <ele>139.53</ele>
        <time>2019-05-20T08:42:17Z</time>
      </trkpt>
      <trkpt lat="40.07209" lon="-8.46725">
        <ele>140.01</ele>
        <time>2019-05-20T08:42:36Z</time>
      </trkpt>
      <trkpt lat="40.07207" lon="-8.46727">
        <ele>140.01</ele>
        <time>2019-05-20T08:42:57Z</time>
      </trkpt>
      <trkpt lat="40.07206" lon="-8.46727">
        <ele>139.53</ele>
        <time>2019-05-20T08:43:10Z</time>
      </trkpt>
      <trkpt lat="40.07202" lon="-8.46731">
        <ele>140.01</ele>
        <time>2019-05-20T08:43:28Z</time>
      </trkpt>
      <trkpt lat="40.07207" lon="-8.46724">
        <ele>139.53</ele>
        <time>2019-05-20T08:43:44Z</time>
      </trkpt>
      <trkpt lat="40.07208" lon="-8.46725">
        <ele>140.01</ele>
        <time>2019-05-20T08:44:00Z</time>
      </trkpt>
      <trkpt lat="40.07208" lon="-8.46724">
        <ele>140.01</ele>
        <time>2019-05-20T08:44:14Z</time>
      </trkpt>
      <trkpt lat="40.07206" lon="-8.46726">
        <ele>139.53</ele>
        <time>2019-05-20T08:44:18Z</time>
      </trkpt>
      <trkpt lat="40.07203" lon="-8.46731">
        <ele>140.97</ele>
        <time>2019-05-20T08:44:22Z</time>
      </trkpt>
      <trkpt lat="40.07201" lon="-8.46735">
        <ele>137.61</ele>
        <time>2019-05-20T08:44:29Z</time>
      </trkpt>
      <trkpt lat="40.072" lon="-8.46735">
        <ele>145.78</ele>
        <time>2019-05-20T08:44:30Z</time>
      </trkpt>
      <trkpt lat="40.072" lon="-8.46735">
        <ele>140.49</ele>
        <time>2019-05-20T08:44:31Z</time>
      </trkpt>
      <trkpt lat="40.07194" lon="-8.4674">
        <ele>141.45</ele>
        <time>2019-05-20T08:44:45Z</time>
      </trkpt>
      <trkpt lat="40.07189" lon="-8.46743">
        <ele>140.49</ele>
        <time>2019-05-20T08:44:55Z</time>
      </trkpt>
      <trkpt lat="40.07182" lon="-8.4674">
        <ele>141.45</ele>
        <time>2019-05-20T08:45:03Z</time>
      </trkpt>
      <trkpt lat="40.07178" lon="-8.4674">
        <ele>141.93</ele>
        <time>2019-05-20T08:45:18Z</time>
      </trkpt>
      <trkpt lat="40.07177" lon="-8.46742">
        <ele>141.45</ele>
        <time>2019-05-20T08:45:34Z</time>
      </trkpt>
      <trkpt lat="40.07175" lon="-8.46759">
        <ele>140.01</ele>
        <time>2019-05-20T08:45:47Z</time>
      </trkpt>
      <trkpt lat="40.0717" lon="-8.4678">
        <ele>140.01</ele>
        <time>2019-05-20T08:46:01Z</time>
      </trkpt>
      <trkpt lat="40.0716" lon="-8.46802">
        <ele>140.01</ele>
        <time>2019-05-20T08:46:17Z</time>
      </trkpt>
      <trkpt lat="40.07154" lon="-8.46819">
        <ele>140.01</ele>
        <time>2019-05-20T08:46:31Z</time>
      </trkpt>
      <trkpt lat="40.07152" lon="-8.46823">
        <ele>140.49</ele>
        <time>2019-05-20T08:46:34Z</time>
      </trkpt>
      <trkpt lat="40.07146" lon="-8.46843">
        <ele>139.53</ele>
        <time>2019-05-20T08:46:47Z</time>
      </trkpt>
      <trkpt lat="40.07138" lon="-8.46869">
        <ele>139.53</ele>
        <time>2019-05-20T08:47:03Z</time>
      </trkpt>
      <trkpt lat="40.07135" lon="-8.46889">
        <ele>139.53</ele>
        <time>2019-05-20T08:47:17Z</time>
      </trkpt>
      <trkpt lat="40.07134" lon="-8.46911">
        <ele>139.53</ele>
        <time>2019-05-20T08:47:32Z</time>
      </trkpt>
      <trkpt lat="40.07133" lon="-8.46914">
        <ele>139.05</ele>
        <time>2019-05-20T08:47:34Z</time>
      </trkpt>
      <trkpt lat="40.07133" lon="-8.46918">
        <ele>140.01</ele>
        <time>2019-05-20T08:47:37Z</time>
      </trkpt>
      <trkpt lat="40.07126" lon="-8.46943">
        <ele>139.53</ele>
        <time>2019-05-20T08:47:53Z</time>
      </trkpt>
      <trkpt lat="40.07124" lon="-8.4697">
        <ele>139.53</ele>
        <time>2019-05-20T08:48:09Z</time>
      </trkpt>
      <trkpt lat="40.07127" lon="-8.46992">
        <ele>139.53</ele>
        <time>2019-05-20T08:48:23Z</time>
      </trkpt>
      <trkpt lat="40.07136" lon="-8.47016">
        <ele>139.53</ele>
        <time>2019-05-20T08:48:39Z</time>
      </trkpt>
      <trkpt lat="40.07148" lon="-8.47041">
        <ele>139.53</ele>
        <time>2019-05-20T08:48:57Z</time>
      </trkpt>
      <trkpt lat="40.07157" lon="-8.47059">
        <ele>139.53</ele>
        <time>2019-05-20T08:49:11Z</time>
      </trkpt>
      <trkpt lat="40.07158" lon="-8.4706">
        <ele>139.05</ele>
        <time>2019-05-20T08:49:12Z</time>
      </trkpt>
      <trkpt lat="40.07161" lon="-8.47072">
        <ele>140.01</ele>
        <time>2019-05-20T08:49:21Z</time>
      </trkpt>
      <trkpt lat="40.07161" lon="-8.47076">
        <ele>140.01</ele>
        <time>2019-05-20T08:49:24Z</time>
      </trkpt>
      <trkpt lat="40.07164" lon="-8.47098">
        <ele>139.53</ele>
        <time>2019-05-20T08:49:37Z</time>
      </trkpt>
      <trkpt lat="40.07164" lon="-8.47116">
        <ele>138.57</ele>
        <time>2019-05-20T08:49:47Z</time>
      </trkpt>
      <trkpt lat="40.07166" lon="-8.47132">
        <ele>140.01</ele>
        <time>2019-05-20T08:50:02Z</time>
      </trkpt>
      <trkpt lat="40.07165" lon="-8.47156">
        <ele>139.53</ele>
        <time>2019-05-20T08:50:17Z</time>
      </trkpt>
      <trkpt lat="40.07171" lon="-8.47183">
        <ele>139.53</ele>
        <time>2019-05-20T08:50:35Z</time>
      </trkpt>
      <trkpt lat="40.07173" lon="-8.47188">
        <ele>138.57</ele>
        <time>2019-05-20T08:50:38Z</time>
      </trkpt>
      <trkpt lat="40.07174" lon="-8.47191">
        <ele>139.53</ele>
        <time>2019-05-20T08:50:40Z</time>
      </trkpt>
      <trkpt lat="40.07181" lon="-8.47211">
        <ele>139.05</ele>
        <time>2019-05-20T08:50:54Z</time>
      </trkpt>
      <trkpt lat="40.07195" lon="-8.47227">
        <ele>139.05</ele>
        <time>2019-05-20T08:51:10Z</time>
      </trkpt>
      <trkpt lat="40.07205" lon="-8.47237">
        <ele>139.53</ele>
        <time>2019-05-20T08:51:20Z</time>
      </trkpt>
      <trkpt lat="40.07216" lon="-8.47254">
        <ele>138.57</ele>
        <time>2019-05-20T08:51:34Z</time>
      </trkpt>
      <trkpt lat="40.07229" lon="-8.47274">
        <ele>138.57</ele>
        <time>2019-05-20T08:51:49Z</time>
      </trkpt>
      <trkpt lat="40.07235" lon="-8.47296">
        <ele>139.05</ele>
        <time>2019-05-20T08:52:04Z</time>
      </trkpt>
      <trkpt lat="40.07236" lon="-8.4731">
        <ele>139.05</ele>
        <time>2019-05-20T08:52:13Z</time>
      </trkpt>
      <trkpt lat="40.07237" lon="-8.47313">
        <ele>139.05</ele>
        <time>2019-05-20T08:52:16Z</time>
      </trkpt>
      <trkpt lat="40.07237" lon="-8.47317">
        <ele>139.53</ele>
        <time>2019-05-20T08:52:18Z</time>
      </trkpt>
      <trkpt lat="40.07252" lon="-8.47327">
        <ele>138.57</ele>
        <time>2019-05-20T08:52:33Z</time>
      </trkpt>
      <trkpt lat="40.07271" lon="-8.47336">
        <ele>138.09</ele>
        <time>2019-05-20T08:52:49Z</time>
      </trkpt>
      <trkpt lat="40.07286" lon="-8.47351">
        <ele>138.57</ele>
        <time>2019-05-20T08:53:04Z</time>
      </trkpt>
      <trkpt lat="40.073" lon="-8.47365">
        <ele>138.57</ele>
        <time>2019-05-20T08:53:19Z</time>
      </trkpt>
      <trkpt lat="40.07307" lon="-8.47367">
        <ele>138.57</ele>
        <time>2019-05-20T08:53:25Z</time>
      </trkpt>
      <trkpt lat="40.07324" lon="-8.47382">
        <ele>139.05</ele>
        <time>2019-05-20T08:53:40Z</time>
      </trkpt>
      <trkpt lat="40.07328" lon="-8.47388">
        <ele>138.09</ele>
        <time>2019-05-20T08:53:45Z</time>
      </trkpt>
      <trkpt lat="40.07341" lon="-8.47399">
        <ele>138.09</ele>
        <time>2019-05-20T08:54:00Z</time>
      </trkpt>
      <trkpt lat="40.07356" lon="-8.47413">
        <ele>138.57</ele>
        <time>2019-05-20T08:54:14Z</time>
      </trkpt>
      <trkpt lat="40.07371" lon="-8.47427">
        <ele>138.57</ele>
        <time>2019-05-20T08:54:29Z</time>
      </trkpt>
      <trkpt lat="40.07373" lon="-8.47429">
        <ele>138.09</ele>
        <time>2019-05-20T08:54:31Z</time>
      </trkpt>
      <trkpt lat="40.07376" lon="-8.4743">
        <ele>138.57</ele>
        <time>2019-05-20T08:54:33Z</time>
      </trkpt>
      <trkpt lat="40.0739" lon="-8.47434">
        <ele>138.57</ele>
        <time>2019-05-20T08:54:49Z</time>
      </trkpt>
      <trkpt lat="40.07404" lon="-8.47435">
        <ele>138.57</ele>
        <time>2019-05-20T08:55:04Z</time>
      </trkpt>
      <trkpt lat="40.07405" lon="-8.47435">
        <ele>138.57</ele>
        <time>2019-05-20T08:55:05Z</time>
      </trkpt>
      <trkpt lat="40.07421" lon="-8.47438">
        <ele>138.57</ele>
        <time>2019-05-20T08:55:19Z</time>
      </trkpt>
      <trkpt lat="40.07428" lon="-8.47443">
        <ele>139.53</ele>
        <time>2019-05-20T08:55:25Z</time>
      </trkpt>
      <trkpt lat="40.07442" lon="-8.47453">
        <ele>138.57</ele>
        <time>2019-05-20T08:55:39Z</time>
      </trkpt>
      <trkpt lat="40.07456" lon="-8.47461">
        <ele>137.61</ele>
        <time>2019-05-20T08:55:52Z</time>
      </trkpt>
      <trkpt lat="40.07472" lon="-8.47468">
        <ele>138.57</ele>
        <time>2019-05-20T08:56:08Z</time>
      </trkpt>
      <trkpt lat="40.07484" lon="-8.47477">
        <ele>138.09</ele>
        <time>2019-05-20T08:56:21Z</time>
      </trkpt>
      <trkpt lat="40.07485" lon="-8.47477">
        <ele>137.61</ele>
        <time>2019-05-20T08:56:22Z</time>
      </trkpt>
      <trkpt lat="40.07494" lon="-8.47482">
        <ele>137.13</ele>
        <time>2019-05-20T08:56:30Z</time>
      </trkpt>
      <trkpt lat="40.07497" lon="-8.47484">
        <ele>138.57</ele>
        <time>2019-05-20T08:56:33Z</time>
      </trkpt>
      <trkpt lat="40.07513" lon="-8.47494">
        <ele>137.13</ele>
        <time>2019-05-20T08:56:49Z</time>
      </trkpt>
      <trkpt lat="40.0753" lon="-8.47506">
        <ele>137.61</ele>
        <time>2019-05-20T08:57:04Z</time>
      </trkpt>
      <trkpt lat="40.07547" lon="-8.47514">
        <ele>135.68</ele>
        <time>2019-05-20T08:57:20Z</time>
      </trkpt>
      <trkpt lat="40.07566" lon="-8.47522">
        <ele>137.13</ele>
        <time>2019-05-20T08:57:37Z</time>
      </trkpt>
      <trkpt lat="40.07571" lon="-8.47522">
        <ele>137.61</ele>
        <time>2019-05-20T08:57:41Z</time>
      </trkpt>
      <trkpt lat="40.07579" lon="-8.47519">
        <ele>136.16</ele>
        <time>2019-05-20T08:57:49Z</time>
      </trkpt>
      <trkpt lat="40.07581" lon="-8.47523">
        <ele>135.68</ele>
        <time>2019-05-20T08:57:53Z</time>
      </trkpt>
      <trkpt lat="40.07586" lon="-8.47528">
        <ele>135.2</ele>
        <time>2019-05-20T08:57:57Z</time>
      </trkpt>
      <trkpt lat="40.07587" lon="-8.47531">
        <ele>136.64</ele>
        <time>2019-05-20T08:57:59Z</time>
      </trkpt>
      <trkpt lat="40.07602" lon="-8.47551">
        <ele>136.64</ele>
        <time>2019-05-20T08:58:16Z</time>
      </trkpt>
      <trkpt lat="40.07608" lon="-8.47554">
        <ele>136.16</ele>
        <time>2019-05-20T08:58:22Z</time>
      </trkpt>
      <trkpt lat="40.07619" lon="-8.47554">
        <ele>134.72</ele>
        <time>2019-05-20T08:58:31Z</time>
      </trkpt>
      <trkpt lat="40.07622" lon="-8.47553">
        <ele>136.64</ele>
        <time>2019-05-20T08:58:34Z</time>
      </trkpt>
      <trkpt lat="40.07636" lon="-8.47544">
        <ele>135.2</ele>
        <time>2019-05-20T08:58:50Z</time>
      </trkpt>
      <trkpt lat="40.07644" lon="-8.47543">
        <ele>136.64</ele>
        <time>2019-05-20T08:58:56Z</time>
      </trkpt>
      <trkpt lat="40.07657" lon="-8.47541">
        <ele>135.68</ele>
        <time>2019-05-20T08:59:09Z</time>
      </trkpt>
      <trkpt lat="40.07673" lon="-8.47541">
        <ele>134.72</ele>
        <time>2019-05-20T08:59:20Z</time>
      </trkpt>
      <trkpt lat="40.07685" lon="-8.47543">
        <ele>135.2</ele>
        <time>2019-05-20T08:59:32Z</time>
      </trkpt>
      <trkpt lat="40.077" lon="-8.47552">
        <ele>135.68</ele>
        <time>2019-05-20T08:59:46Z</time>
      </trkpt>
      <trkpt lat="40.07716" lon="-8.4757">
        <ele>135.2</ele>
        <time>2019-05-20T09:00:02Z</time>
      </trkpt>
      <trkpt lat="40.07728" lon="-8.47589">
        <ele>136.16</ele>
        <time>2019-05-20T09:00:18Z</time>
      </trkpt>
      <trkpt lat="40.07732" lon="-8.47599">
        <ele>135.2</ele>
        <time>2019-05-20T09:00:26Z</time>
      </trkpt>
      <trkpt lat="40.07734" lon="-8.47604">
        <ele>134.72</ele>
        <time>2019-05-20T09:00:30Z</time>
      </trkpt>
      <trkpt lat="40.07744" lon="-8.47624">
        <ele>135.2</ele>
        <time>2019-05-20T09:00:45Z</time>
      </trkpt>
      <trkpt lat="40.07751" lon="-8.47642">
        <ele>135.2</ele>
        <time>2019-05-20T09:00:59Z</time>
      </trkpt>
      <trkpt lat="40.07752" lon="-8.47644">
        <ele>134.72</ele>
        <time>2019-05-20T09:01:00Z</time>
      </trkpt>
      <trkpt lat="40.07753" lon="-8.47647">
        <ele>136.16</ele>
        <time>2019-05-20T09:01:03Z</time>
      </trkpt>
      <trkpt lat="40.07756" lon="-8.47659">
        <ele>134.24</ele>
        <time>2019-05-20T09:01:11Z</time>
      </trkpt>
      <trkpt lat="40.07769" lon="-8.47677">
        <ele>135.2</ele>
        <time>2019-05-20T09:01:24Z</time>
      </trkpt>
      <trkpt lat="40.07783" lon="-8.47685">
        <ele>135.68</ele>
        <time>2019-05-20T09:01:39Z</time>
      </trkpt>
      <trkpt lat="40.07789" lon="-8.47689">
        <ele>134.24</ele>
        <time>2019-05-20T09:01:44Z</time>
      </trkpt>
      <trkpt lat="40.07808" lon="-8.47703">
        <ele>135.2</ele>
        <time>2019-05-20T09:02:00Z</time>
      </trkpt>
      <trkpt lat="40.07827" lon="-8.47711">
        <ele>135.2</ele>
        <time>2019-05-20T09:02:16Z</time>
      </trkpt>
      <trkpt lat="40.0783" lon="-8.47712">
        <ele>134.24</ele>
        <time>2019-05-20T09:02:18Z</time>
      </trkpt>
      <trkpt lat="40.07841" lon="-8.47715">
        <ele>134.72</ele>
        <time>2019-05-20T09:02:26Z</time>
      </trkpt>
      <trkpt lat="40.07853" lon="-8.47727">
        <ele>134.72</ele>
        <time>2019-05-20T09:02:40Z</time>
      </trkpt>
      <trkpt lat="40.0786" lon="-8.47738">
        <ele>135.2</ele>
        <time>2019-05-20T09:02:54Z</time>
      </trkpt>
      <trkpt lat="40.07867" lon="-8.47743">
        <ele>134.72</ele>
        <time>2019-05-20T09:03:11Z</time>
      </trkpt>
      <trkpt lat="40.07871" lon="-8.47745">
        <ele>134.72</ele>
        <time>2019-05-20T09:03:38Z</time>
      </trkpt>
      <trkpt lat="40.07875" lon="-8.47745">
        <ele>135.2</ele>
        <time>2019-05-20T09:03:57Z</time>
      </trkpt>
      <trkpt lat="40.07874" lon="-8.47744">
        <ele>135.2</ele>
        <time>2019-05-20T09:04:29Z</time>
      </trkpt>
      <trkpt lat="40.07875" lon="-8.4774">
        <ele>135.2</ele>
        <time>2019-05-20T09:04:47Z</time>
      </trkpt>
      <trkpt lat="40.07875" lon="-8.47737">
        <ele>134.72</ele>
        <time>2019-05-20T09:05:15Z</time>
      </trkpt>
      <trkpt lat="40.07877" lon="-8.47735">
        <ele>134.72</ele>
        <time>2019-05-20T09:05:47Z</time>
      </trkpt>
      <trkpt lat="40.07874" lon="-8.47736">
        <ele>135.2</ele>
        <time>2019-05-20T09:06:19Z</time>
      </trkpt>
      <trkpt lat="40.07876" lon="-8.47737">
        <ele>134.72</ele>
        <time>2019-05-20T09:06:52Z</time>
      </trkpt>
      <trkpt lat="40.07873" lon="-8.47735">
        <ele>134.72</ele>
        <time>2019-05-20T09:07:32Z</time>
      </trkpt>
      <trkpt lat="40.07873" lon="-8.47735">
        <ele>134.72</ele>
        <time>2019-05-20T09:08:04Z</time>
      </trkpt>
      <trkpt lat="40.07876" lon="-8.4774">
        <ele>135.2</ele>
        <time>2019-05-20T09:08:33Z</time>
      </trkpt>
      <trkpt lat="40.07876" lon="-8.47738">
        <ele>135.68</ele>
        <time>2019-05-20T09:09:01Z</time>
      </trkpt>
      <trkpt lat="40.07878" lon="-8.47744">
        <ele>135.2</ele>
        <time>2019-05-20T09:09:45Z</time>
      </trkpt>
      <trkpt lat="40.07877" lon="-8.47735">
        <ele>135.2</ele>
        <time>2019-05-20T09:10:20Z</time>
      </trkpt>
      <trkpt lat="40.07873" lon="-8.47738">
        <ele>135.68</ele>
        <time>2019-05-20T09:10:43Z</time>
      </trkpt>
      <trkpt lat="40.07875" lon="-8.47743">
        <ele>136.16</ele>
        <time>2019-05-20T09:11:02Z</time>
      </trkpt>
      <trkpt lat="40.07874" lon="-8.47743">
        <ele>135.2</ele>
        <time>2019-05-20T09:11:04Z</time>
      </trkpt>
      <trkpt lat="40.07871" lon="-8.47755">
        <ele>135.2</ele>
        <time>2019-05-20T09:11:16Z</time>
      </trkpt>
      <trkpt lat="40.07866" lon="-8.47768">
        <ele>135.68</ele>
        <time>2019-05-20T09:11:26Z</time>
      </trkpt>
      <trkpt lat="40.07865" lon="-8.47769">
        <ele>135.68</ele>
        <time>2019-05-20T09:11:27Z</time>
      </trkpt>
      <trkpt lat="40.07864" lon="-8.47769">
        <ele>135.2</ele>
        <time>2019-05-20T09:11:28Z</time>
      </trkpt>
      <trkpt lat="40.07856" lon="-8.47772">
        <ele>135.2</ele>
        <time>2019-05-20T09:11:40Z</time>
      </trkpt>
      <trkpt lat="40.07852" lon="-8.47774">
        <ele>136.64</ele>
        <time>2019-05-20T09:11:44Z</time>
      </trkpt>
      <trkpt lat="40.07844" lon="-8.47779">
        <ele>135.68</ele>
        <time>2019-05-20T09:11:55Z</time>
      </trkpt>
      <trkpt lat="40.07838" lon="-8.47791">
        <ele>138.57</ele>
        <time>2019-05-20T09:12:10Z</time>
      </trkpt>
      <trkpt lat="40.07841" lon="-8.47798">
        <ele>141.45</ele>
        <time>2019-05-20T09:12:19Z</time>
      </trkpt>
      <trkpt lat="40.07843" lon="-8.47811">
        <ele>142.41</ele>
        <time>2019-05-20T09:12:32Z</time>
      </trkpt>
      <trkpt lat="40.07846" lon="-8.47817">
        <ele>143.37</ele>
        <time>2019-05-20T09:12:40Z</time>
      </trkpt>
      <trkpt lat="40.07853" lon="-8.47827">
        <ele>144.34</ele>
        <time>2019-05-20T09:12:54Z</time>
      </trkpt>
      <trkpt lat="40.07863" lon="-8.47839">
        <ele>145.3</ele>
        <time>2019-05-20T09:13:08Z</time>
      </trkpt>
      <trkpt lat="40.0787" lon="-8.47846">
        <ele>146.26</ele>
        <time>2019-05-20T09:13:21Z</time>
      </trkpt>
      <trkpt lat="40.0787" lon="-8.47847">
        <ele>145.78</ele>
        <time>2019-05-20T09:13:22Z</time>
      </trkpt>
      <trkpt lat="40.07871" lon="-8.47848">
        <ele>145.3</ele>
        <time>2019-05-20T09:13:23Z</time>
      </trkpt>
      <trkpt lat="40.07872" lon="-8.47849">
        <ele>145.3</ele>
        <time>2019-05-20T09:13:24Z</time>
      </trkpt>
      <trkpt lat="40.07873" lon="-8.4785">
        <ele>145.78</ele>
        <time>2019-05-20T09:13:25Z</time>
      </trkpt>
      <trkpt lat="40.07883" lon="-8.4786">
        <ele>146.26</ele>
        <time>2019-05-20T09:13:37Z</time>
      </trkpt>
      <trkpt lat="40.07902" lon="-8.47871">
        <ele>145.78</ele>
        <time>2019-05-20T09:13:52Z</time>
      </trkpt>
      <trkpt lat="40.0792" lon="-8.47881">
        <ele>146.74</ele>
        <time>2019-05-20T09:14:08Z</time>
      </trkpt>
      <trkpt lat="40.07939" lon="-8.47892">
        <ele>147.22</ele>
        <time>2019-05-20T09:14:24Z</time>
      </trkpt>
      <trkpt lat="40.07951" lon="-8.479">
        <ele>147.22</ele>
        <time>2019-05-20T09:14:36Z</time>
      </trkpt>
      <trkpt lat="40.07952" lon="-8.47901">
        <ele>147.7</ele>
        <time>2019-05-20T09:14:37Z</time>
      </trkpt>
      <trkpt lat="40.07969" lon="-8.47911">
        <ele>147.7</ele>
        <time>2019-05-20T09:14:51Z</time>
      </trkpt>
      <trkpt lat="40.07987" lon="-8.4792">
        <ele>147.7</ele>
        <time>2019-05-20T09:15:06Z</time>
      </trkpt>
      <trkpt lat="40.08005" lon="-8.47928">
        <ele>146.74</ele>
        <time>2019-05-20T09:15:20Z</time>
      </trkpt>
      <trkpt lat="40.08015" lon="-8.47932">
        <ele>145.3</ele>
        <time>2019-05-20T09:15:28Z</time>
      </trkpt>
      <trkpt lat="40.08017" lon="-8.47932">
        <ele>145.78</ele>
        <time>2019-05-20T09:15:29Z</time>
      </trkpt>
      <trkpt lat="40.08035" lon="-8.47939">
        <ele>142.89</ele>
        <time>2019-05-20T09:15:43Z</time>
      </trkpt>
      <trkpt lat="40.08044" lon="-8.47945">
        <ele>142.41</ele>
        <time>2019-05-20T09:15:51Z</time>
      </trkpt>
      <trkpt lat="40.08045" lon="-8.47945">
        <ele>141.93</ele>
        <time>2019-05-20T09:15:52Z</time>
      </trkpt>
      <trkpt lat="40.08047" lon="-8.47946">
        <ele>142.41</ele>
        <time>2019-05-20T09:15:53Z</time>
      </trkpt>
      <trkpt lat="40.08059" lon="-8.47956">
        <ele>141.93</ele>
        <time>2019-05-20T09:16:06Z</time>
      </trkpt>
      <trkpt lat="40.08064" lon="-8.47961">
        <ele>141.45</ele>
        <time>2019-05-20T09:16:11Z</time>
      </trkpt>
      <trkpt lat="40.08077" lon="-8.47976">
        <ele>140.97</ele>
        <time>2019-05-20T09:16:25Z</time>
      </trkpt>
      <trkpt lat="40.0808" lon="-8.47978">
        <ele>140.49</ele>
        <time>2019-05-20T09:16:27Z</time>
      </trkpt>
      <trkpt lat="40.08092" lon="-8.47995">
        <ele>139.53</ele>
        <time>2019-05-20T09:16:41Z</time>
      </trkpt>
      <trkpt lat="40.08092" lon="-8.47997">
        <ele>139.05</ele>
        <time>2019-05-20T09:16:43Z</time>
      </trkpt>
      <trkpt lat="40.08092" lon="-8.47998">
        <ele>139.53</ele>
        <time>2019-05-20T09:16:44Z</time>
      </trkpt>
      <trkpt lat="40.08093" lon="-8.48">
        <ele>139.05</ele>
        <time>2019-05-20T09:16:45Z</time>
      </trkpt>
      <trkpt lat="40.08095" lon="-8.48004">
        <ele>138.57</ele>
        <time>2019-05-20T09:16:48Z</time>
      </trkpt>
      <trkpt lat="40.08095" lon="-8.48006">
        <ele>138.57</ele>
        <time>2019-05-20T09:16:49Z</time>
      </trkpt>
      <trkpt lat="40.08096" lon="-8.48007">
        <ele>138.57</ele>
        <time>2019-05-20T09:16:50Z</time>
      </trkpt>
      <trkpt lat="40.08097" lon="-8.48009">
        <ele>138.57</ele>
        <time>2019-05-20T09:16:51Z</time>
      </trkpt>
      <trkpt lat="40.08101" lon="-8.48019">
        <ele>139.05</ele>
        <time>2019-05-20T09:16:58Z</time>
      </trkpt>
      <trkpt lat="40.0811" lon="-8.48032">
        <ele>137.13</ele>
        <time>2019-05-20T09:17:09Z</time>
      </trkpt>
      <trkpt lat="40.0811" lon="-8.48033">
        <ele>137.13</ele>
        <time>2019-05-20T09:17:10Z</time>
      </trkpt>
      <trkpt lat="40.08111" lon="-8.48035">
        <ele>136.64</ele>
        <time>2019-05-20T09:17:11Z</time>
      </trkpt>
      <trkpt lat="40.08113" lon="-8.4804">
        <ele>136.64</ele>
        <time>2019-05-20T09:17:14Z</time>
      </trkpt>
      <trkpt lat="40.08114" lon="-8.48042">
        <ele>136.64</ele>
        <time>2019-05-20T09:17:16Z</time>
      </trkpt>
      <trkpt lat="40.08116" lon="-8.48045">
        <ele>137.13</ele>
        <time>2019-05-20T09:17:19Z</time>
      </trkpt>
      <trkpt lat="40.08121" lon="-8.48054">
        <ele>137.61</ele>
        <time>2019-05-20T09:17:26Z</time>
      </trkpt>
      <trkpt lat="40.08122" lon="-8.48055">
        <ele>137.61</ele>
        <time>2019-05-20T09:17:27Z</time>
      </trkpt>
      <trkpt lat="40.0813" lon="-8.48071">
        <ele>137.61</ele>
        <time>2019-05-20T09:17:39Z</time>
      </trkpt>
      <trkpt lat="40.08132" lon="-8.48074">
        <ele>137.61</ele>
        <time>2019-05-20T09:17:41Z</time>
      </trkpt>
      <trkpt lat="40.08135" lon="-8.48081">
        <ele>138.09</ele>
        <time>2019-05-20T09:17:46Z</time>
      </trkpt>
      <trkpt lat="40.08136" lon="-8.48082">
        <ele>138.09</ele>
        <time>2019-05-20T09:17:47Z</time>
      </trkpt>
      <trkpt lat="40.08137" lon="-8.48086">
        <ele>137.61</ele>
        <time>2019-05-20T09:17:49Z</time>
      </trkpt>
      <trkpt lat="40.08139" lon="-8.48095">
        <ele>137.61</ele>
        <time>2019-05-20T09:17:55Z</time>
      </trkpt>
      <trkpt lat="40.0814" lon="-8.48096">
        <ele>137.61</ele>
        <time>2019-05-20T09:17:56Z</time>
      </trkpt>
      <trkpt lat="40.08141" lon="-8.48097">
        <ele>137.61</ele>
        <time>2019-05-20T09:17:57Z</time>
      </trkpt>
      <trkpt lat="40.08146" lon="-8.48107">
        <ele>137.13</ele>
        <time>2019-05-20T09:18:05Z</time>
      </trkpt>
      <trkpt lat="40.08154" lon="-8.48125">
        <ele>138.57</ele>
        <time>2019-05-20T09:18:18Z</time>
      </trkpt>
      <trkpt lat="40.08159" lon="-8.48138">
        <ele>139.05</ele>
        <time>2019-05-20T09:18:29Z</time>
      </trkpt>
      <trkpt lat="40.08162" lon="-8.48144">
        <ele>140.49</ele>
        <time>2019-05-20T09:18:34Z</time>
      </trkpt>
      <trkpt lat="40.08163" lon="-8.48145">
        <ele>140.97</ele>
        <time>2019-05-20T09:18:35Z</time>
      </trkpt>
      <trkpt lat="40.08164" lon="-8.48147">
        <ele>140.97</ele>
        <time>2019-05-20T09:18:36Z</time>
      </trkpt>
      <trkpt lat="40.08167" lon="-8.48152">
        <ele>140.49</ele>
        <time>2019-05-20T09:18:41Z</time>
      </trkpt>
      <trkpt lat="40.0817" lon="-8.48159">
        <ele>141.45</ele>
        <time>2019-05-20T09:18:46Z</time>
      </trkpt>
      <trkpt lat="40.0817" lon="-8.4816">
        <ele>142.41</ele>
        <time>2019-05-20T09:18:47Z</time>
      </trkpt>
      <trkpt lat="40.0817" lon="-8.48162">
        <ele>141.93</ele>
        <time>2019-05-20T09:18:48Z</time>
      </trkpt>
      <trkpt lat="40.08172" lon="-8.48173">
        <ele>142.41</ele>
        <time>2019-05-20T09:18:56Z</time>
      </trkpt>
      <trkpt lat="40.08181" lon="-8.48189">
        <ele>140.97</ele>
        <time>2019-05-20T09:19:09Z</time>
      </trkpt>
      <trkpt lat="40.08182" lon="-8.4819">
        <ele>140.01</ele>
        <time>2019-05-20T09:19:10Z</time>
      </trkpt>
      <trkpt lat="40.08183" lon="-8.48191">
        <ele>140.49</ele>
        <time>2019-05-20T09:19:11Z</time>
      </trkpt>
      <trkpt lat="40.08185" lon="-8.48195">
        <ele>139.53</ele>
        <time>2019-05-20T09:19:14Z</time>
      </trkpt>
      <trkpt lat="40.08187" lon="-8.48198">
        <ele>139.53</ele>
        <time>2019-05-20T09:19:16Z</time>
      </trkpt>
      <trkpt lat="40.08191" lon="-8.48205">
        <ele>138.57</ele>
        <time>2019-05-20T09:19:21Z</time>
      </trkpt>
      <trkpt lat="40.08192" lon="-8.48206">
        <ele>139.05</ele>
        <time>2019-05-20T09:19:22Z</time>
      </trkpt>
      <trkpt lat="40.08193" lon="-8.48207">
        <ele>139.05</ele>
        <time>2019-05-20T09:19:23Z</time>
      </trkpt>
      <trkpt lat="40.08194" lon="-8.48209">
        <ele>138.57</ele>
        <time>2019-05-20T09:19:24Z</time>
      </trkpt>
      <trkpt lat="40.08196" lon="-8.48211">
        <ele>138.57</ele>
        <time>2019-05-20T09:19:26Z</time>
      </trkpt>
      <trkpt lat="40.08197" lon="-8.48214">
        <ele>138.09</ele>
        <time>2019-05-20T09:19:28Z</time>
      </trkpt>
      <trkpt lat="40.08201" lon="-8.48219">
        <ele>137.13</ele>
        <time>2019-05-20T09:19:32Z</time>
      </trkpt>
      <trkpt lat="40.08213" lon="-8.48235">
        <ele>135.68</ele>
        <time>2019-05-20T09:19:45Z</time>
      </trkpt>
      <trkpt lat="40.08217" lon="-8.48243">
        <ele>135.2</ele>
        <time>2019-05-20T09:19:50Z</time>
      </trkpt>
      <trkpt lat="40.08219" lon="-8.48246">
        <ele>134.72</ele>
        <time>2019-05-20T09:19:52Z</time>
      </trkpt>
      <trkpt lat="40.08221" lon="-8.48248">
        <ele>134.24</ele>
        <time>2019-05-20T09:19:54Z</time>
      </trkpt>
      <trkpt lat="40.08227" lon="-8.4826">
        <ele>132.8</ele>
        <time>2019-05-20T09:20:02Z</time>
      </trkpt>
      <trkpt lat="40.08228" lon="-8.48262">
        <ele>132.8</ele>
        <time>2019-05-20T09:20:03Z</time>
      </trkpt>
      <trkpt lat="40.08229" lon="-8.48265">
        <ele>132.32</ele>
        <time>2019-05-20T09:20:05Z</time>
      </trkpt>
      <trkpt lat="40.08229" lon="-8.48271">
        <ele>132.32</ele>
        <time>2019-05-20T09:20:09Z</time>
      </trkpt>
      <trkpt lat="40.08232" lon="-8.48275">
        <ele>132.32</ele>
        <time>2019-05-20T09:20:11Z</time>
      </trkpt>
      <trkpt lat="40.0824" lon="-8.48281">
        <ele>131.84</ele>
        <time>2019-05-20T09:20:16Z</time>
      </trkpt>
      <trkpt lat="40.08241" lon="-8.48283">
        <ele>132.32</ele>
        <time>2019-05-20T09:20:17Z</time>
      </trkpt>
      <trkpt lat="40.08243" lon="-8.48284">
        <ele>131.84</ele>
        <time>2019-05-20T09:20:18Z</time>
      </trkpt>
      <trkpt lat="40.08245" lon="-8.48291">
        <ele>131.84</ele>
        <time>2019-05-20T09:20:22Z</time>
      </trkpt>
      <trkpt lat="40.08246" lon="-8.48292">
        <ele>132.32</ele>
        <time>2019-05-20T09:20:23Z</time>
      </trkpt>
      <trkpt lat="40.08246" lon="-8.48293">
        <ele>132.8</ele>
        <time>2019-05-20T09:20:24Z</time>
      </trkpt>
      <trkpt lat="40.08249" lon="-8.48299">
        <ele>132.8</ele>
        <time>2019-05-20T09:20:28Z</time>
      </trkpt>
      <trkpt lat="40.08253" lon="-8.48304">
        <ele>132.32</ele>
        <time>2019-05-20T09:20:32Z</time>
      </trkpt>
      <trkpt lat="40.08253" lon="-8.48306">
        <ele>132.32</ele>
        <time>2019-05-20T09:20:33Z</time>
      </trkpt>
      <trkpt lat="40.08258" lon="-8.48319">
        <ele>132.32</ele>
        <time>2019-05-20T09:20:41Z</time>
      </trkpt>
      <trkpt lat="40.08259" lon="-8.48321">
        <ele>131.84</ele>
        <time>2019-05-20T09:20:42Z</time>
      </trkpt>
      <trkpt lat="40.0826" lon="-8.48322">
        <ele>131.84</ele>
        <time>2019-05-20T09:20:43Z</time>
      </trkpt>
      <trkpt lat="40.08261" lon="-8.48323">
        <ele>131.84</ele>
        <time>2019-05-20T09:20:44Z</time>
      </trkpt>
      <trkpt lat="40.08261" lon="-8.48325">
        <ele>132.32</ele>
        <time>2019-05-20T09:20:45Z</time>
      </trkpt>
      <trkpt lat="40.08261" lon="-8.48327">
        <ele>132.32</ele>
        <time>2019-05-20T09:20:46Z</time>
      </trkpt>
      <trkpt lat="40.08262" lon="-8.48328">
        <ele>131.84</ele>
        <time>2019-05-20T09:20:47Z</time>
      </trkpt>
      <trkpt lat="40.08262" lon="-8.48329">
        <ele>132.32</ele>
        <time>2019-05-20T09:20:48Z</time>
      </trkpt>
      <trkpt lat="40.08263" lon="-8.48331">
        <ele>132.8</ele>
        <time>2019-05-20T09:20:49Z</time>
      </trkpt>
      <trkpt lat="40.08271" lon="-8.48348">
        <ele>132.32</ele>
        <time>2019-05-20T09:21:02Z</time>
      </trkpt>
      <trkpt lat="40.08279" lon="-8.48355">
        <ele>132.32</ele>
        <time>2019-05-20T09:21:14Z</time>
      </trkpt>
      <trkpt lat="40.08282" lon="-8.48358">
        <ele>131.84</ele>
        <time>2019-05-20T09:21:17Z</time>
      </trkpt>
      <trkpt lat="40.08287" lon="-8.48365">
        <ele>131.84</ele>
        <time>2019-05-20T09:21:23Z</time>
      </trkpt>
      <trkpt lat="40.08292" lon="-8.48371">
        <ele>132.32</ele>
        <time>2019-05-20T09:21:34Z</time>
      </trkpt>
      <trkpt lat="40.08292" lon="-8.48372">
        <ele>131.84</ele>
        <time>2019-05-20T09:21:56Z</time>
      </trkpt>
      <trkpt lat="40.08292" lon="-8.48375">
        <ele>132.32</ele>
        <time>2019-05-20T09:22:16Z</time>
      </trkpt>
      <trkpt lat="40.08292" lon="-8.48377">
        <ele>131.36</ele>
        <time>2019-05-20T09:22:36Z</time>
      </trkpt>
      <trkpt lat="40.08293" lon="-8.48378">
        <ele>132.32</ele>
        <time>2019-05-20T09:22:50Z</time>
      </trkpt>
      <trkpt lat="40.08294" lon="-8.48379">
        <ele>131.84</ele>
        <time>2019-05-20T09:22:59Z</time>
      </trkpt>
      <trkpt lat="40.08297" lon="-8.48385">
        <ele>132.32</ele>
        <time>2019-05-20T09:23:05Z</time>
      </trkpt>
      <trkpt lat="40.08302" lon="-8.48397">
        <ele>132.32</ele>
        <time>2019-05-20T09:23:18Z</time>
      </trkpt>
      <trkpt lat="40.08302" lon="-8.48399">
        <ele>131.84</ele>
        <time>2019-05-20T09:23:19Z</time>
      </trkpt>
      <trkpt lat="40.08303" lon="-8.48402">
        <ele>131.84</ele>
        <time>2019-05-20T09:23:21Z</time>
      </trkpt>
      <trkpt lat="40.08307" lon="-8.48407">
        <ele>131.84</ele>
        <time>2019-05-20T09:23:26Z</time>
      </trkpt>
      <trkpt lat="40.08311" lon="-8.48417">
        <ele>131.84</ele>
        <time>2019-05-20T09:23:36Z</time>
      </trkpt>
      <trkpt lat="40.08313" lon="-8.4842">
        <ele>131.84</ele>
        <time>2019-05-20T09:23:39Z</time>
      </trkpt>
      <trkpt lat="40.08315" lon="-8.48427">
        <ele>131.36</ele>
        <time>2019-05-20T09:23:50Z</time>
      </trkpt>
      <trkpt lat="40.08324" lon="-8.48432">
        <ele>132.32</ele>
        <time>2019-05-20T09:24:03Z</time>
      </trkpt>
      <trkpt lat="40.08328" lon="-8.4843">
        <ele>132.32</ele>
        <time>2019-05-20T09:24:19Z</time>
      </trkpt>
      <trkpt lat="40.08331" lon="-8.48434">
        <ele>132.8</ele>
        <time>2019-05-20T09:24:40Z</time>
      </trkpt>
      <trkpt lat="40.08338" lon="-8.48442">
        <ele>133.28</ele>
        <time>2019-05-20T09:24:54Z</time>
      </trkpt>
      <trkpt lat="40.08339" lon="-8.48444">
        <ele>132.8</ele>
        <time>2019-05-20T09:24:56Z</time>
      </trkpt>
      <trkpt lat="40.08357" lon="-8.48446">
        <ele>131.84</ele>
        <time>2019-05-20T09:25:10Z</time>
      </trkpt>
      <trkpt lat="40.08362" lon="-8.48443">
        <ele>132.32</ele>
        <time>2019-05-20T09:25:15Z</time>
      </trkpt>
      <trkpt lat="40.08364" lon="-8.48442">
        <ele>131.84</ele>
        <time>2019-05-20T09:25:17Z</time>
      </trkpt>
      <trkpt lat="40.08376" lon="-8.4843">
        <ele>131.84</ele>
        <time>2019-05-20T09:25:29Z</time>
      </trkpt>
      <trkpt lat="40.08391" lon="-8.48416">
        <ele>130.88</ele>
        <time>2019-05-20T09:25:43Z</time>
      </trkpt>
      <trkpt lat="40.08397" lon="-8.48412">
        <ele>130.88</ele>
        <time>2019-05-20T09:25:49Z</time>
      </trkpt>
      <trkpt lat="40.08398" lon="-8.48411">
        <ele>131.36</ele>
        <time>2019-05-20T09:25:50Z</time>
      </trkpt>
      <trkpt lat="40.08409" lon="-8.48396">
        <ele>131.36</ele>
        <time>2019-05-20T09:26:03Z</time>
      </trkpt>
      <trkpt lat="40.08413" lon="-8.48389">
        <ele>130.88</ele>
        <time>2019-05-20T09:26:08Z</time>
      </trkpt>
      <trkpt lat="40.08421" lon="-8.48375">
        <ele>132.32</ele>
        <time>2019-05-20T09:26:21Z</time>
      </trkpt>
      <trkpt lat="40.08425" lon="-8.48367">
        <ele>134.72</ele>
        <time>2019-05-20T09:26:29Z</time>
      </trkpt>
      <trkpt lat="40.08434" lon="-8.48355">
        <ele>134.72</ele>
        <time>2019-05-20T09:26:42Z</time>
      </trkpt>
      <trkpt lat="40.0844" lon="-8.48345">
        <ele>135.2</ele>
        <time>2019-05-20T09:26:53Z</time>
      </trkpt>
      <trkpt lat="40.08447" lon="-8.48338">
        <ele>137.61</ele>
        <time>2019-05-20T09:27:05Z</time>
      </trkpt>
      <trkpt lat="40.08459" lon="-8.48334">
        <ele>139.53</ele>
        <time>2019-05-20T09:27:19Z</time>
      </trkpt>
      <trkpt lat="40.08469" lon="-8.48332">
        <ele>141.45</ele>
        <time>2019-05-20T09:27:32Z</time>
      </trkpt>
      <trkpt lat="40.08473" lon="-8.48332">
        <ele>141.93</ele>
        <time>2019-05-20T09:27:36Z</time>
      </trkpt>
      <trkpt lat="40.08481" lon="-8.48331">
        <ele>141.93</ele>
        <time>2019-05-20T09:27:44Z</time>
      </trkpt>
      <trkpt lat="40.08493" lon="-8.48331">
        <ele>142.41</ele>
        <time>2019-05-20T09:27:56Z</time>
      </trkpt>
      <trkpt lat="40.08506" lon="-8.4833">
        <ele>143.85</ele>
        <time>2019-05-20T09:28:09Z</time>
      </trkpt>
      <trkpt lat="40.0851" lon="-8.48331">
        <ele>145.78</ele>
        <time>2019-05-20T09:28:13Z</time>
      </trkpt>
      <trkpt lat="40.08524" lon="-8.48332">
        <ele>146.26</ele>
        <time>2019-05-20T09:28:27Z</time>
      </trkpt>
      <trkpt lat="40.08536" lon="-8.48332">
        <ele>148.18</ele>
        <time>2019-05-20T09:28:40Z</time>
      </trkpt>
      <trkpt lat="40.08536" lon="-8.48332">
        <ele>148.18</ele>
        <time>2019-05-20T09:28:41Z</time>
      </trkpt>
      <trkpt lat="40.08544" lon="-8.48333">
        <ele>148.66</ele>
        <time>2019-05-20T09:28:51Z</time>
      </trkpt>
      <trkpt lat="40.08556" lon="-8.48337">
        <ele>149.62</ele>
        <time>2019-05-20T09:29:03Z</time>
      </trkpt>
      <trkpt lat="40.08571" lon="-8.48341">
        <ele>151.54</ele>
        <time>2019-05-20T09:29:18Z</time>
      </trkpt>
      <trkpt lat="40.08574" lon="-8.48342">
        <ele>152.03</ele>
        <time>2019-05-20T09:29:22Z</time>
      </trkpt>
      <trkpt lat="40.08576" lon="-8.48344">
        <ele>151.54</ele>
        <time>2019-05-20T09:29:24Z</time>
      </trkpt>
      <trkpt lat="40.08583" lon="-8.48353">
        <ele>152.99</ele>
        <time>2019-05-20T09:29:34Z</time>
      </trkpt>
      <trkpt lat="40.08584" lon="-8.48354">
        <ele>153.47</ele>
        <time>2019-05-20T09:29:35Z</time>
      </trkpt>
      <trkpt lat="40.08593" lon="-8.48369">
        <ele>154.91</ele>
        <time>2019-05-20T09:29:49Z</time>
      </trkpt>
      <trkpt lat="40.08596" lon="-8.48375">
        <ele>155.39</ele>
        <time>2019-05-20T09:29:55Z</time>
      </trkpt>
      <trkpt lat="40.08599" lon="-8.4838">
        <ele>154.91</ele>
        <time>2019-05-20T09:29:59Z</time>
      </trkpt>
      <trkpt lat="40.08609" lon="-8.48399">
        <ele>155.87</ele>
        <time>2019-05-20T09:30:15Z</time>
      </trkpt>
      <trkpt lat="40.08618" lon="-8.48418">
        <ele>155.87</ele>
        <time>2019-05-20T09:30:29Z</time>
      </trkpt>
      <trkpt lat="40.08625" lon="-8.48432">
        <ele>155.87</ele>
        <time>2019-05-20T09:30:40Z</time>
      </trkpt>
      <trkpt lat="40.08629" lon="-8.48437">
        <ele>156.83</ele>
        <time>2019-05-20T09:30:45Z</time>
      </trkpt>
      <trkpt lat="40.08634" lon="-8.48446">
        <ele>155.87</ele>
        <time>2019-05-20T09:30:54Z</time>
      </trkpt>
      <trkpt lat="40.08635" lon="-8.48447">
        <ele>155.87</ele>
        <time>2019-05-20T09:30:55Z</time>
      </trkpt>
      <trkpt lat="40.08636" lon="-8.48449">
        <ele>156.35</ele>
        <time>2019-05-20T09:30:56Z</time>
      </trkpt>
      <trkpt lat="40.08637" lon="-8.48451">
        <ele>155.87</ele>
        <time>2019-05-20T09:30:58Z</time>
      </trkpt>
      <trkpt lat="40.08648" lon="-8.48466">
        <ele>156.35</ele>
        <time>2019-05-20T09:31:11Z</time>
      </trkpt>
      <trkpt lat="40.08651" lon="-8.48468">
        <ele>155.87</ele>
        <time>2019-05-20T09:31:14Z</time>
      </trkpt>
      <trkpt lat="40.08652" lon="-8.4847">
        <ele>157.79</ele>
        <time>2019-05-20T09:31:15Z</time>
      </trkpt>
      <trkpt lat="40.08662" lon="-8.48487">
        <ele>157.79</ele>
        <time>2019-05-20T09:31:29Z</time>
      </trkpt>
      <trkpt lat="40.08668" lon="-8.48504">
        <ele>159.72</ele>
        <time>2019-05-20T09:31:40Z</time>
      </trkpt>
      <trkpt lat="40.08669" lon="-8.48506">
        <ele>159.24</ele>
        <time>2019-05-20T09:31:41Z</time>
      </trkpt>
      <trkpt lat="40.0867" lon="-8.4851">
        <ele>158.27</ele>
        <time>2019-05-20T09:31:44Z</time>
      </trkpt>
      <trkpt lat="40.08679" lon="-8.48521">
        <ele>159.72</ele>
        <time>2019-05-20T09:31:54Z</time>
      </trkpt>
      <trkpt lat="40.0868" lon="-8.48522">
        <ele>159.72</ele>
        <time>2019-05-20T09:31:55Z</time>
      </trkpt>
      <trkpt lat="40.08691" lon="-8.48533">
        <ele>160.68</ele>
        <time>2019-05-20T09:32:08Z</time>
      </trkpt>
      <trkpt lat="40.08702" lon="-8.48542">
        <ele>160.2</ele>
        <time>2019-05-20T09:32:20Z</time>
      </trkpt>
      <trkpt lat="40.08715" lon="-8.48555">
        <ele>163.56</ele>
        <time>2019-05-20T09:32:34Z</time>
      </trkpt>
      <trkpt lat="40.08716" lon="-8.48558">
        <ele>162.12</ele>
        <time>2019-05-20T09:32:37Z</time>
      </trkpt>
      <trkpt lat="40.08723" lon="-8.48572">
        <ele>163.56</ele>
        <time>2019-05-20T09:32:48Z</time>
      </trkpt>
      <trkpt lat="40.08724" lon="-8.48573">
        <ele>163.08</ele>
        <time>2019-05-20T09:32:49Z</time>
      </trkpt>
      <trkpt lat="40.0873" lon="-8.48578">
        <ele>165.96</ele>
        <time>2019-05-20T09:32:55Z</time>
      </trkpt>
      <trkpt lat="40.08738" lon="-8.48591">
        <ele>165</ele>
        <time>2019-05-20T09:33:07Z</time>
      </trkpt>
      <trkpt lat="40.08747" lon="-8.48599">
        <ele>165.48</ele>
        <time>2019-05-20T09:33:15Z</time>
      </trkpt>
      <trkpt lat="40.08748" lon="-8.48599">
        <ele>165.96</ele>
        <time>2019-05-20T09:33:16Z</time>
      </trkpt>
      <trkpt lat="40.08749" lon="-8.486">
        <ele>166.93</ele>
        <time>2019-05-20T09:33:17Z</time>
      </trkpt>
      <trkpt lat="40.08757" lon="-8.48605">
        <ele>166.93</ele>
        <time>2019-05-20T09:33:24Z</time>
      </trkpt>
      <trkpt lat="40.08772" lon="-8.48612">
        <ele>167.41</ele>
        <time>2019-05-20T09:33:38Z</time>
      </trkpt>
      <trkpt lat="40.08786" lon="-8.48622">
        <ele>169.33</ele>
        <time>2019-05-20T09:33:54Z</time>
      </trkpt>
      <trkpt lat="40.08794" lon="-8.48627">
        <ele>168.37</ele>
        <time>2019-05-20T09:34:02Z</time>
      </trkpt>
      <trkpt lat="40.08805" lon="-8.48629">
        <ele>169.33</ele>
        <time>2019-05-20T09:34:12Z</time>
      </trkpt>
      <trkpt lat="40.08824" lon="-8.48637">
        <ele>169.33</ele>
        <time>2019-05-20T09:34:26Z</time>
      </trkpt>
      <trkpt lat="40.08831" lon="-8.48641">
        <ele>169.33</ele>
        <time>2019-05-20T09:34:31Z</time>
      </trkpt>
      <trkpt lat="40.08846" lon="-8.48651">
        <ele>169.81</ele>
        <time>2019-05-20T09:34:45Z</time>
      </trkpt>
      <trkpt lat="40.08862" lon="-8.4866">
        <ele>170.77</ele>
        <time>2019-05-20T09:34:58Z</time>
      </trkpt>
      <trkpt lat="40.08869" lon="-8.48664">
        <ele>170.29</ele>
        <time>2019-05-20T09:35:10Z</time>
      </trkpt>
      <trkpt lat="40.08876" lon="-8.48669">
        <ele>170.29</ele>
        <time>2019-05-20T09:35:20Z</time>
      </trkpt>
      <trkpt lat="40.08883" lon="-8.48673">
        <ele>169.81</ele>
        <time>2019-05-20T09:35:27Z</time>
      </trkpt>
      <trkpt lat="40.08897" lon="-8.48681">
        <ele>170.29</ele>
        <time>2019-05-20T09:35:39Z</time>
      </trkpt>
      <trkpt lat="40.08912" lon="-8.48689">
        <ele>170.29</ele>
        <time>2019-05-20T09:35:52Z</time>
      </trkpt>
      <trkpt lat="40.08924" lon="-8.48696">
        <ele>169.81</ele>
        <time>2019-05-20T09:36:07Z</time>
      </trkpt>
      <trkpt lat="40.0893" lon="-8.487">
        <ele>169.33</ele>
        <time>2019-05-20T09:36:15Z</time>
      </trkpt>
      <trkpt lat="40.0893" lon="-8.487">
        <ele>169.33</ele>
        <time>2019-05-20T09:36:16Z</time>
      </trkpt>
      <trkpt lat="40.08945" lon="-8.48707">
        <ele>168.37</ele>
        <time>2019-05-20T09:36:29Z</time>
      </trkpt>
      <trkpt lat="40.08952" lon="-8.48712">
        <ele>169.33</ele>
        <time>2019-05-20T09:36:36Z</time>
      </trkpt>
      <trkpt lat="40.08968" lon="-8.48721">
        <ele>169.81</ele>
        <time>2019-05-20T09:36:49Z</time>
      </trkpt>
      <trkpt lat="40.0899" lon="-8.4873">
        <ele>168.85</ele>
        <time>2019-05-20T09:37:01Z</time>
      </trkpt>
      <trkpt lat="40.0901" lon="-8.48735">
        <ele>167.89</ele>
        <time>2019-05-20T09:37:16Z</time>
      </trkpt>
      <trkpt lat="40.09028" lon="-8.48739">
        <ele>166.45</ele>
        <time>2019-05-20T09:37:31Z</time>
      </trkpt>
      <trkpt lat="40.09039" lon="-8.48742">
        <ele>166.45</ele>
        <time>2019-05-20T09:37:39Z</time>
      </trkpt>
      <trkpt lat="40.09041" lon="-8.48743">
        <ele>166.45</ele>
        <time>2019-05-20T09:37:40Z</time>
      </trkpt>
      <trkpt lat="40.09055" lon="-8.48751">
        <ele>165.96</ele>
        <time>2019-05-20T09:37:55Z</time>
      </trkpt>
      <trkpt lat="40.09058" lon="-8.48753">
        <ele>165.48</ele>
        <time>2019-05-20T09:37:57Z</time>
      </trkpt>
      <trkpt lat="40.09073" lon="-8.48762">
        <ele>165.96</ele>
        <time>2019-05-20T09:38:11Z</time>
      </trkpt>
      <trkpt lat="40.09085" lon="-8.48767">
        <ele>166.45</ele>
        <time>2019-05-20T09:38:22Z</time>
      </trkpt>
      <trkpt lat="40.09096" lon="-8.48772">
        <ele>166.45</ele>
        <time>2019-05-20T09:38:29Z</time>
      </trkpt>
      <trkpt lat="40.09098" lon="-8.48773">
        <ele>166.45</ele>
        <time>2019-05-20T09:38:30Z</time>
      </trkpt>
      <trkpt lat="40.09111" lon="-8.48786">
        <ele>167.41</ele>
        <time>2019-05-20T09:38:43Z</time>
      </trkpt>
      <trkpt lat="40.09117" lon="-8.48794">
        <ele>167.89</ele>
        <time>2019-05-20T09:38:49Z</time>
      </trkpt>
      <trkpt lat="40.09124" lon="-8.4881">
        <ele>167.89</ele>
        <time>2019-05-20T09:39:01Z</time>
      </trkpt>
      <trkpt lat="40.09125" lon="-8.48812">
        <ele>167.89</ele>
        <time>2019-05-20T09:39:02Z</time>
      </trkpt>
      <trkpt lat="40.09125" lon="-8.48813">
        <ele>167.89</ele>
        <time>2019-05-20T09:39:03Z</time>
      </trkpt>
      <trkpt lat="40.09132" lon="-8.48829">
        <ele>167.41</ele>
        <time>2019-05-20T09:39:14Z</time>
      </trkpt>
      <trkpt lat="40.09136" lon="-8.48837">
        <ele>166.45</ele>
        <time>2019-05-20T09:39:20Z</time>
      </trkpt>
      <trkpt lat="40.0914" lon="-8.48853">
        <ele>165.96</ele>
        <time>2019-05-20T09:39:31Z</time>
      </trkpt>
      <trkpt lat="40.09148" lon="-8.48864">
        <ele>164.52</ele>
        <time>2019-05-20T09:39:45Z</time>
      </trkpt>
      <trkpt lat="40.09149" lon="-8.48871">
        <ele>164.52</ele>
        <time>2019-05-20T09:40:13Z</time>
      </trkpt>
      <trkpt lat="40.09148" lon="-8.48865">
        <ele>165</ele>
        <time>2019-05-20T09:40:48Z</time>
      </trkpt>
      <trkpt lat="40.0915" lon="-8.48869">
        <ele>164.04</ele>
        <time>2019-05-20T09:40:54Z</time>
      </trkpt>
      <trkpt lat="40.09152" lon="-8.4887">
        <ele>164.04</ele>
        <time>2019-05-20T09:40:55Z</time>
      </trkpt>
      <trkpt lat="40.09158" lon="-8.48882">
        <ele>162.6</ele>
        <time>2019-05-20T09:41:06Z</time>
      </trkpt>
      <trkpt lat="40.09169" lon="-8.48892">
        <ele>161.16</ele>
        <time>2019-05-20T09:41:17Z</time>
      </trkpt>
      <trkpt lat="40.09173" lon="-8.48896">
        <ele>160.68</ele>
        <time>2019-05-20T09:41:21Z</time>
      </trkpt>
      <trkpt lat="40.09175" lon="-8.48897">
        <ele>161.16</ele>
        <time>2019-05-20T09:41:22Z</time>
      </trkpt>
      <trkpt lat="40.09176" lon="-8.48899">
        <ele>160.2</ele>
        <time>2019-05-20T09:41:23Z</time>
      </trkpt>
      <trkpt lat="40.09177" lon="-8.48901">
        <ele>160.2</ele>
        <time>2019-05-20T09:41:24Z</time>
      </trkpt>
      <trkpt lat="40.09186" lon="-8.48918">
        <ele>159.24</ele>
        <time>2019-05-20T09:41:35Z</time>
      </trkpt>
      <trkpt lat="40.09195" lon="-8.48933">
        <ele>158.75</ele>
        <time>2019-05-20T09:41:48Z</time>
      </trkpt>
      <trkpt lat="40.09205" lon="-8.48952">
        <ele>158.27</ele>
        <time>2019-05-20T09:42:02Z</time>
      </trkpt>
      <trkpt lat="40.09213" lon="-8.48967">
        <ele>157.31</ele>
        <time>2019-05-20T09:42:13Z</time>
      </trkpt>
      <trkpt lat="40.09215" lon="-8.48968">
        <ele>157.79</ele>
        <time>2019-05-20T09:42:14Z</time>
      </trkpt>
      <trkpt lat="40.09219" lon="-8.48971">
        <ele>156.83</ele>
        <time>2019-05-20T09:42:19Z</time>
      </trkpt>
      <trkpt lat="40.0922" lon="-8.48971">
        <ele>156.35</ele>
        <time>2019-05-20T09:42:20Z</time>
      </trkpt>
      <trkpt lat="40.09234" lon="-8.48975">
        <ele>155.39</ele>
        <time>2019-05-20T09:42:33Z</time>
      </trkpt>
      <trkpt lat="40.09247" lon="-8.48982">
        <ele>155.39</ele>
        <time>2019-05-20T09:42:46Z</time>
      </trkpt>
      <trkpt lat="40.09253" lon="-8.48985">
        <ele>154.91</ele>
        <time>2019-05-20T09:42:53Z</time>
      </trkpt>
      <trkpt lat="40.09268" lon="-8.4899">
        <ele>153.47</ele>
        <time>2019-05-20T09:43:02Z</time>
      </trkpt>
      <trkpt lat="40.09285" lon="-8.49006">
        <ele>152.51</ele>
        <time>2019-05-20T09:43:17Z</time>
      </trkpt>
      <trkpt lat="40.09291" lon="-8.49015">
        <ele>152.99</ele>
        <time>2019-05-20T09:43:25Z</time>
      </trkpt>
      <trkpt lat="40.09298" lon="-8.49026">
        <ele>152.03</ele>
        <time>2019-05-20T09:43:35Z</time>
      </trkpt>
      <trkpt lat="40.0931" lon="-8.4904">
        <ele>151.06</ele>
        <time>2019-05-20T09:43:47Z</time>
      </trkpt>
      <trkpt lat="40.0932" lon="-8.49061">
        <ele>150.1</ele>
        <time>2019-05-20T09:44:03Z</time>
      </trkpt>
      <trkpt lat="40.09328" lon="-8.49071">
        <ele>150.1</ele>
        <time>2019-05-20T09:44:12Z</time>
      </trkpt>
      <trkpt lat="40.09338" lon="-8.49074">
        <ele>150.1</ele>
        <time>2019-05-20T09:44:25Z</time>
      </trkpt>
      <trkpt lat="40.09338" lon="-8.49081">
        <ele>148.66</ele>
        <time>2019-05-20T09:44:46Z</time>
      </trkpt>
      <trkpt lat="40.0934" lon="-8.49088">
        <ele>149.14</ele>
        <time>2019-05-20T09:45:21Z</time>
      </trkpt>
      <trkpt lat="40.09337" lon="-8.49082">
        <ele>148.66</ele>
        <time>2019-05-20T09:45:53Z</time>
      </trkpt>
      <trkpt lat="40.09345" lon="-8.49082">
        <ele>149.14</ele>
        <time>2019-05-20T09:46:33Z</time>
      </trkpt>
      <trkpt lat="40.09347" lon="-8.49082">
        <ele>149.14</ele>
        <time>2019-05-20T09:47:02Z</time>
      </trkpt>
      <trkpt lat="40.09344" lon="-8.49082">
        <ele>149.62</ele>
        <time>2019-05-20T09:47:30Z</time>
      </trkpt>
      <trkpt lat="40.09342" lon="-8.49086">
        <ele>149.62</ele>
        <time>2019-05-20T09:48:00Z</time>
      </trkpt>
      <trkpt lat="40.0934" lon="-8.49081">
        <ele>149.62</ele>
        <time>2019-05-20T09:48:26Z</time>
      </trkpt>
      <trkpt lat="40.09335" lon="-8.49086">
        <ele>149.62</ele>
        <time>2019-05-20T09:48:58Z</time>
      </trkpt>
      <trkpt lat="40.09336" lon="-8.49084">
        <ele>150.58</ele>
        <time>2019-05-20T09:49:37Z</time>
      </trkpt>
      <trkpt lat="40.09338" lon="-8.49082">
        <ele>149.62</ele>
        <time>2019-05-20T09:50:09Z</time>
      </trkpt>
      <trkpt lat="40.09349" lon="-8.49081">
        <ele>150.58</ele>
        <time>2019-05-20T09:50:49Z</time>
      </trkpt>
      <trkpt lat="40.09342" lon="-8.49078">
        <ele>150.58</ele>
        <time>2019-05-20T09:51:22Z</time>
      </trkpt>
      <trkpt lat="40.09339" lon="-8.49084">
        <ele>151.54</ele>
        <time>2019-05-20T09:51:55Z</time>
      </trkpt>
      <trkpt lat="40.09341" lon="-8.49084">
        <ele>152.99</ele>
        <time>2019-05-20T09:52:14Z</time>
      </trkpt>
      <trkpt lat="40.09342" lon="-8.49088">
        <ele>151.54</ele>
        <time>2019-05-20T09:52:35Z</time>
      </trkpt>
      <trkpt lat="40.09339" lon="-8.49085">
        <ele>152.03</ele>
        <time>2019-05-20T09:52:58Z</time>
      </trkpt>
      <trkpt lat="40.09341" lon="-8.49086">
        <ele>152.03</ele>
        <time>2019-05-20T09:53:11Z</time>
      </trkpt>
      <trkpt lat="40.0935" lon="-8.4909">
        <ele>150.1</ele>
        <time>2019-05-20T09:53:22Z</time>
      </trkpt>
      <trkpt lat="40.09363" lon="-8.49098">
        <ele>148.18</ele>
        <time>2019-05-20T09:53:35Z</time>
      </trkpt>
      <trkpt lat="40.09365" lon="-8.49104">
        <ele>146.74</ele>
        <time>2019-05-20T09:53:42Z</time>
      </trkpt>
      <trkpt lat="40.09368" lon="-8.49105">
        <ele>146.74</ele>
        <time>2019-05-20T09:53:43Z</time>
      </trkpt>
      <trkpt lat="40.0937" lon="-8.49106">
        <ele>146.74</ele>
        <time>2019-05-20T09:53:44Z</time>
      </trkpt>
      <trkpt lat="40.09372" lon="-8.49108">
        <ele>146.74</ele>
        <time>2019-05-20T09:53:45Z</time>
      </trkpt>
      <trkpt lat="40.09389" lon="-8.49112">
        <ele>145.3</ele>
        <time>2019-05-20T09:53:57Z</time>
      </trkpt>
      <trkpt lat="40.09401" lon="-8.49105">
        <ele>143.37</ele>
        <time>2019-05-20T09:54:07Z</time>
      </trkpt>
      <trkpt lat="40.09414" lon="-8.491">
        <ele>142.89</ele>
        <time>2019-05-20T09:54:19Z</time>
      </trkpt>
      <trkpt lat="40.09427" lon="-8.49111">
        <ele>141.45</ele>
        <time>2019-05-20T09:54:32Z</time>
      </trkpt>
      <trkpt lat="40.09444" lon="-8.49114">
        <ele>140.49</ele>
        <time>2019-05-20T09:54:44Z</time>
      </trkpt>
      <trkpt lat="40.09459" lon="-8.49115">
        <ele>139.05</ele>
        <time>2019-05-20T09:54:56Z</time>
      </trkpt>
      <trkpt lat="40.09461" lon="-8.49115">
        <ele>138.57</ele>
        <time>2019-05-20T09:54:59Z</time>
      </trkpt>
      <trkpt lat="40.09468" lon="-8.49116">
        <ele>138.09</ele>
        <time>2019-05-20T09:55:04Z</time>
      </trkpt>
      <trkpt lat="40.09477" lon="-8.49121">
        <ele>137.13</ele>
        <time>2019-05-20T09:55:13Z</time>
      </trkpt>
      <trkpt lat="40.0949" lon="-8.49129">
        <ele>135.68</ele>
        <time>2019-05-20T09:55:27Z</time>
      </trkpt>
      <trkpt lat="40.09502" lon="-8.49147">
        <ele>134.24</ele>
        <time>2019-05-20T09:55:44Z</time>
      </trkpt>
      <trkpt lat="40.09503" lon="-8.49149">
        <ele>134.24</ele>
        <time>2019-05-20T09:55:45Z</time>
      </trkpt>
      <trkpt lat="40.0951" lon="-8.49166">
        <ele>132.8</ele>
        <time>2019-05-20T09:55:57Z</time>
      </trkpt>
      <trkpt lat="40.09512" lon="-8.4917">
        <ele>132.8</ele>
        <time>2019-05-20T09:56:00Z</time>
      </trkpt>
      <trkpt lat="40.09519" lon="-8.49182">
        <ele>132.32</ele>
        <time>2019-05-20T09:56:13Z</time>
      </trkpt>
      <trkpt lat="40.09526" lon="-8.49182">
        <ele>132.32</ele>
        <time>2019-05-20T09:56:29Z</time>
      </trkpt>
      <trkpt lat="40.09527" lon="-8.49183">
        <ele>131.36</ele>
        <time>2019-05-20T09:56:30Z</time>
      </trkpt>
      <trkpt lat="40.09537" lon="-8.4919">
        <ele>130.4</ele>
        <time>2019-05-20T09:56:42Z</time>
      </trkpt>
      <trkpt lat="40.09551" lon="-8.49194">
        <ele>127.99</ele>
        <time>2019-05-20T09:56:57Z</time>
      </trkpt>
      <trkpt lat="40.09567" lon="-8.49197">
        <ele>125.11</ele>
        <time>2019-05-20T09:57:10Z</time>
      </trkpt>
      <trkpt lat="40.09569" lon="-8.492">
        <ele>125.59</ele>
        <time>2019-05-20T09:57:14Z</time>
      </trkpt>
      <trkpt lat="40.0957" lon="-8.49202">
        <ele>125.59</ele>
        <time>2019-05-20T09:57:15Z</time>
      </trkpt>
      <trkpt lat="40.09578" lon="-8.4921">
        <ele>124.15</ele>
        <time>2019-05-20T09:57:23Z</time>
      </trkpt>
      <trkpt lat="40.09584" lon="-8.49227">
        <ele>122.22</ele>
        <time>2019-05-20T09:57:35Z</time>
      </trkpt>
      <trkpt lat="40.09592" lon="-8.49243">
        <ele>121.26</ele>
        <time>2019-05-20T09:57:47Z</time>
      </trkpt>
      <trkpt lat="40.09598" lon="-8.49265">
        <ele>120.3</ele>
        <time>2019-05-20T09:58:00Z</time>
      </trkpt>
      <trkpt lat="40.096" lon="-8.49287">
        <ele>118.38</ele>
        <time>2019-05-20T09:58:14Z</time>
      </trkpt>
      <trkpt lat="40.09603" lon="-8.49294">
        <ele>117.9</ele>
        <time>2019-05-20T09:58:19Z</time>
      </trkpt>
      <trkpt lat="40.09603" lon="-8.49296">
        <ele>116.94</ele>
        <time>2019-05-20T09:58:20Z</time>
      </trkpt>
      <trkpt lat="40.09604" lon="-8.49296">
        <ele>117.9</ele>
        <time>2019-05-20T09:58:21Z</time>
      </trkpt>
      <trkpt lat="40.09605" lon="-8.49297">
        <ele>117.42</ele>
        <time>2019-05-20T09:58:22Z</time>
      </trkpt>
      <trkpt lat="40.09626" lon="-8.49291">
        <ele>116.46</ele>
        <time>2019-05-20T09:58:38Z</time>
      </trkpt>
      <trkpt lat="40.09639" lon="-8.49289">
        <ele>114.05</ele>
        <time>2019-05-20T09:58:50Z</time>
      </trkpt>
      <trkpt lat="40.09656" lon="-8.49284">
        <ele>112.61</ele>
        <time>2019-05-20T09:59:06Z</time>
      </trkpt>
      <trkpt lat="40.09657" lon="-8.49284">
        <ele>112.13</ele>
        <time>2019-05-20T09:59:07Z</time>
      </trkpt>
      <trkpt lat="40.09664" lon="-8.49282">
        <ele>112.61</ele>
        <time>2019-05-20T09:59:12Z</time>
      </trkpt>
      <trkpt lat="40.09668" lon="-8.49281">
        <ele>111.17</ele>
        <time>2019-05-20T09:59:15Z</time>
      </trkpt>
      <trkpt lat="40.09684" lon="-8.49274">
        <ele>110.21</ele>
        <time>2019-05-20T09:59:29Z</time>
      </trkpt>
      <trkpt lat="40.09702" lon="-8.49267">
        <ele>108.77</ele>
        <time>2019-05-20T09:59:44Z</time>
      </trkpt>
      <trkpt lat="40.09717" lon="-8.49257">
        <ele>108.29</ele>
        <time>2019-05-20T09:59:58Z</time>
      </trkpt>
      <trkpt lat="40.09738" lon="-8.49253">
        <ele>107.32</ele>
        <time>2019-05-20T10:00:12Z</time>
      </trkpt>
      <trkpt lat="40.09744" lon="-8.4925">
        <ele>106.84</ele>
        <time>2019-05-20T10:00:27Z</time>
      </trkpt>
      <trkpt lat="40.09757" lon="-8.49246">
        <ele>106.36</ele>
        <time>2019-05-20T10:00:39Z</time>
      </trkpt>
      <trkpt lat="40.0976" lon="-8.49244">
        <ele>105.88</ele>
        <time>2019-05-20T10:00:41Z</time>
      </trkpt>
      <trkpt lat="40.09772" lon="-8.49228">
        <ele>103.96</ele>
        <time>2019-05-20T10:00:57Z</time>
      </trkpt>
      <trkpt lat="40.09778" lon="-8.49212">
        <ele>102.52</ele>
        <time>2019-05-20T10:01:08Z</time>
      </trkpt>
      <trkpt lat="40.09779" lon="-8.49211">
        <ele>103</ele>
        <time>2019-05-20T10:01:09Z</time>
      </trkpt>
      <trkpt lat="40.09779" lon="-8.49209">
        <ele>102.52</ele>
        <time>2019-05-20T10:01:10Z</time>
      </trkpt>
      <trkpt lat="40.09779" lon="-8.49207">
        <ele>103</ele>
        <time>2019-05-20T10:01:11Z</time>
      </trkpt>
      <trkpt lat="40.09779" lon="-8.49205">
        <ele>102.52</ele>
        <time>2019-05-20T10:01:12Z</time>
      </trkpt>
      <trkpt lat="40.0978" lon="-8.49204">
        <ele>102.04</ele>
        <time>2019-05-20T10:01:13Z</time>
      </trkpt>
      <trkpt lat="40.09778" lon="-8.49191">
        <ele>103</ele>
        <time>2019-05-20T10:01:21Z</time>
      </trkpt>
      <trkpt lat="40.09775" lon="-8.49183">
        <ele>102.04</ele>
        <time>2019-05-20T10:01:32Z</time>
      </trkpt>
      <trkpt lat="40.09768" lon="-8.49175">
        <ele>99.15</ele>
        <time>2019-05-20T10:01:43Z</time>
      </trkpt>
      <trkpt lat="40.09767" lon="-8.49171">
        <ele>99.15</ele>
        <time>2019-05-20T10:01:46Z</time>
      </trkpt>
      <trkpt lat="40.0977" lon="-8.49159">
        <ele>95.79</ele>
        <time>2019-05-20T10:01:55Z</time>
      </trkpt>
      <trkpt lat="40.09777" lon="-8.49146">
        <ele>93.39</ele>
        <time>2019-05-20T10:02:06Z</time>
      </trkpt>
      <trkpt lat="40.09788" lon="-8.49134">
        <ele>91.94</ele>
        <time>2019-05-20T10:02:18Z</time>
      </trkpt>
      <trkpt lat="40.0979" lon="-8.49134">
        <ele>92.42</ele>
        <time>2019-05-20T10:02:19Z</time>
      </trkpt>
      <trkpt lat="40.09795" lon="-8.49134">
        <ele>92.9</ele>
        <time>2019-05-20T10:02:30Z</time>
      </trkpt>
      <trkpt lat="40.09802" lon="-8.49143">
        <ele>93.39</ele>
        <time>2019-05-20T10:02:39Z</time>
      </trkpt>
      <trkpt lat="40.09802" lon="-8.49146">
        <ele>93.39</ele>
        <time>2019-05-20T10:02:41Z</time>
      </trkpt>
      <trkpt lat="40.09807" lon="-8.49156">
        <ele>95.31</ele>
        <time>2019-05-20T10:02:53Z</time>
      </trkpt>
      <trkpt lat="40.09817" lon="-8.49169">
        <ele>97.71</ele>
        <time>2019-05-20T10:03:08Z</time>
      </trkpt>
      <trkpt lat="40.09823" lon="-8.49186">
        <ele>98.67</ele>
        <time>2019-05-20T10:03:23Z</time>
      </trkpt>
      <trkpt lat="40.09829" lon="-8.49199">
        <ele>100.6</ele>
        <time>2019-05-20T10:03:37Z</time>
      </trkpt>
      <trkpt lat="40.09833" lon="-8.49207">
        <ele>101.56</ele>
        <time>2019-05-20T10:03:48Z</time>
      </trkpt>
      <trkpt lat="40.09839" lon="-8.49216">
        <ele>104.44</ele>
        <time>2019-05-20T10:04:00Z</time>
      </trkpt>
      <trkpt lat="40.09847" lon="-8.49229">
        <ele>104.92</ele>
        <time>2019-05-20T10:04:14Z</time>
      </trkpt>
      <trkpt lat="40.09852" lon="-8.49243">
        <ele>106.36</ele>
        <time>2019-05-20T10:04:29Z</time>
      </trkpt>
      <trkpt lat="40.09856" lon="-8.49244">
        <ele>106.36</ele>
        <time>2019-05-20T10:04:34Z</time>
      </trkpt>
      <trkpt lat="40.09857" lon="-8.49235">
        <ele>109.73</ele>
        <time>2019-05-20T10:04:48Z</time>
      </trkpt>
      <trkpt lat="40.09855" lon="-8.49217">
        <ele>110.69</ele>
        <time>2019-05-20T10:05:05Z</time>
      </trkpt>
      <trkpt lat="40.09855" lon="-8.49201">
        <ele>112.13</ele>
        <time>2019-05-20T10:05:18Z</time>
      </trkpt>
      <trkpt lat="40.09855" lon="-8.49186">
        <ele>113.09</ele>
        <time>2019-05-20T10:05:30Z</time>
      </trkpt>
      <trkpt lat="40.09854" lon="-8.4918">
        <ele>113.57</ele>
        <time>2019-05-20T10:05:47Z</time>
      </trkpt>
      <trkpt lat="40.09853" lon="-8.4918">
        <ele>113.09</ele>
        <time>2019-05-20T10:06:02Z</time>
      </trkpt>
      <trkpt lat="40.09851" lon="-8.49174">
        <ele>113.09</ele>
        <time>2019-05-20T10:06:18Z</time>
      </trkpt>
      <trkpt lat="40.09849" lon="-8.49167">
        <ele>113.57</ele>
        <time>2019-05-20T10:06:38Z</time>
      </trkpt>
      <trkpt lat="40.09853" lon="-8.49165">
        <ele>114.05</ele>
        <time>2019-05-20T10:06:44Z</time>
      </trkpt>
      <trkpt lat="40.0985" lon="-8.4916">
        <ele>114.05</ele>
        <time>2019-05-20T10:06:49Z</time>
      </trkpt>
      <trkpt lat="40.09848" lon="-8.49152">
        <ele>114.05</ele>
        <time>2019-05-20T10:07:06Z</time>
      </trkpt>
      <trkpt lat="40.09851" lon="-8.49168">
        <ele>113.57</ele>
        <time>2019-05-20T10:07:19Z</time>
      </trkpt>
      <trkpt lat="40.09852" lon="-8.4917">
        <ele>113.57</ele>
        <time>2019-05-20T10:07:44Z</time>
      </trkpt>
      <trkpt lat="40.09847" lon="-8.49163">
        <ele>113.57</ele>
        <time>2019-05-20T10:08:04Z</time>
      </trkpt>
      <trkpt lat="40.09839" lon="-8.49147">
        <ele>113.09</ele>
        <time>2019-05-20T10:08:16Z</time>
      </trkpt>
      <trkpt lat="40.09838" lon="-8.49146">
        <ele>113.09</ele>
        <time>2019-05-20T10:08:17Z</time>
      </trkpt>
      <trkpt lat="40.09837" lon="-8.49144">
        <ele>113.09</ele>
        <time>2019-05-20T10:08:18Z</time>
      </trkpt>
      <trkpt lat="40.09836" lon="-8.49143">
        <ele>112.61</ele>
        <time>2019-05-20T10:08:19Z</time>
      </trkpt>
      <trkpt lat="40.09835" lon="-8.4914">
        <ele>113.09</ele>
        <time>2019-05-20T10:08:22Z</time>
      </trkpt>
      <trkpt lat="40.09835" lon="-8.49138">
        <ele>113.09</ele>
        <time>2019-05-20T10:08:23Z</time>
      </trkpt>
      <trkpt lat="40.09834" lon="-8.49136">
        <ele>113.09</ele>
        <time>2019-05-20T10:08:24Z</time>
      </trkpt>
      <trkpt lat="40.09833" lon="-8.49133">
        <ele>112.61</ele>
        <time>2019-05-20T10:08:27Z</time>
      </trkpt>
      <trkpt lat="40.09832" lon="-8.49131">
        <ele>113.09</ele>
        <time>2019-05-20T10:08:28Z</time>
      </trkpt>
      <trkpt lat="40.09831" lon="-8.4913">
        <ele>112.61</ele>
        <time>2019-05-20T10:08:29Z</time>
      </trkpt>
      <trkpt lat="40.09823" lon="-8.49117">
        <ele>112.61</ele>
        <time>2019-05-20T10:08:41Z</time>
      </trkpt>
      <trkpt lat="40.09822" lon="-8.49117">
        <ele>113.09</ele>
        <time>2019-05-20T10:08:42Z</time>
      </trkpt>
      <trkpt lat="40.09817" lon="-8.49108">
        <ele>111.65</ele>
        <time>2019-05-20T10:08:49Z</time>
      </trkpt>
      <trkpt lat="40.09816" lon="-8.49106">
        <ele>112.13</ele>
        <time>2019-05-20T10:08:51Z</time>
      </trkpt>
      <trkpt lat="40.09815" lon="-8.49104">
        <ele>112.13</ele>
        <time>2019-05-20T10:08:52Z</time>
      </trkpt>
      <trkpt lat="40.09814" lon="-8.49101">
        <ele>112.13</ele>
        <time>2019-05-20T10:08:54Z</time>
      </trkpt>
      <trkpt lat="40.09811" lon="-8.49089">
        <ele>112.13</ele>
        <time>2019-05-20T10:09:05Z</time>
      </trkpt>
      <trkpt lat="40.0981" lon="-8.4908">
        <ele>112.61</ele>
        <time>2019-05-20T10:09:19Z</time>
      </trkpt>
      <trkpt lat="40.09806" lon="-8.49068">
        <ele>112.61</ele>
        <time>2019-05-20T10:09:33Z</time>
      </trkpt>
      <trkpt lat="40.09804" lon="-8.49062">
        <ele>113.09</ele>
        <time>2019-05-20T10:09:43Z</time>
      </trkpt>
      <trkpt lat="40.09801" lon="-8.49049">
        <ele>113.09</ele>
        <time>2019-05-20T10:09:56Z</time>
      </trkpt>
      <trkpt lat="40.09801" lon="-8.49041">
        <ele>113.57</ele>
        <time>2019-05-20T10:10:01Z</time>
      </trkpt>
      <trkpt lat="40.09803" lon="-8.49032">
        <ele>113.57</ele>
        <time>2019-05-20T10:10:07Z</time>
      </trkpt>
      <trkpt lat="40.09809" lon="-8.48996">
        <ele>115.01</ele>
        <time>2019-05-20T10:10:24Z</time>
      </trkpt>
      <trkpt lat="40.09814" lon="-8.48977">
        <ele>115.01</ele>
        <time>2019-05-20T10:10:37Z</time>
      </trkpt>
      <trkpt lat="40.09817" lon="-8.48963">
        <ele>115.5</ele>
        <time>2019-05-20T10:10:51Z</time>
      </trkpt>
      <trkpt lat="40.09824" lon="-8.48939">
        <ele>116.94</ele>
        <time>2019-05-20T10:11:07Z</time>
      </trkpt>
      <trkpt lat="40.09826" lon="-8.48939">
        <ele>116.94</ele>
        <time>2019-05-20T10:11:24Z</time>
      </trkpt>
      <trkpt lat="40.09833" lon="-8.48932">
        <ele>117.9</ele>
        <time>2019-05-20T10:11:47Z</time>
      </trkpt>
      <trkpt lat="40.09837" lon="-8.48931">
        <ele>117.9</ele>
        <time>2019-05-20T10:12:00Z</time>
      </trkpt>
      <trkpt lat="40.09839" lon="-8.4893">
        <ele>117.9</ele>
        <time>2019-05-20T10:12:04Z</time>
      </trkpt>
      <trkpt lat="40.09861" lon="-8.48923">
        <ele>117.42</ele>
        <time>2019-05-20T10:12:23Z</time>
      </trkpt>
      <trkpt lat="40.0988" lon="-8.48921">
        <ele>117.42</ele>
        <time>2019-05-20T10:12:38Z</time>
      </trkpt>
      <trkpt lat="40.09895" lon="-8.48917">
        <ele>116.46</ele>
        <time>2019-05-20T10:12:51Z</time>
      </trkpt>
      <trkpt lat="40.0991" lon="-8.48924">
        <ele>115.98</ele>
        <time>2019-05-20T10:13:04Z</time>
      </trkpt>
      <trkpt lat="40.09922" lon="-8.48941">
        <ele>116.94</ele>
        <time>2019-05-20T10:13:20Z</time>
      </trkpt>
      <trkpt lat="40.09926" lon="-8.48948">
        <ele>116.46</ele>
        <time>2019-05-20T10:13:25Z</time>
      </trkpt>
      <trkpt lat="40.09936" lon="-8.48968">
        <ele>115.98</ele>
        <time>2019-05-20T10:13:40Z</time>
      </trkpt>
      <trkpt lat="40.09942" lon="-8.48975">
        <ele>116.46</ele>
        <time>2019-05-20T10:13:46Z</time>
      </trkpt>
      <trkpt lat="40.09956" lon="-8.48996">
        <ele>115.98</ele>
        <time>2019-05-20T10:14:04Z</time>
      </trkpt>
      <trkpt lat="40.09956" lon="-8.48999">
        <ele>115.5</ele>
        <time>2019-05-20T10:14:19Z</time>
      </trkpt>
      <trkpt lat="40.09974" lon="-8.49011">
        <ele>114.05</ele>
        <time>2019-05-20T10:14:36Z</time>
      </trkpt>
      <trkpt lat="40.0999" lon="-8.49017">
        <ele>113.57</ele>
        <time>2019-05-20T10:14:49Z</time>
      </trkpt>
      <trkpt lat="40.10009" lon="-8.49028">
        <ele>112.61</ele>
        <time>2019-05-20T10:15:06Z</time>
      </trkpt>
      <trkpt lat="40.10025" lon="-8.4904">
        <ele>111.65</ele>
        <time>2019-05-20T10:15:21Z</time>
      </trkpt>
      <trkpt lat="40.10031" lon="-8.49044">
        <ele>112.13</ele>
        <time>2019-05-20T10:15:26Z</time>
      </trkpt>
      <trkpt lat="40.10037" lon="-8.4905">
        <ele>111.17</ele>
        <time>2019-05-20T10:15:32Z</time>
      </trkpt>
      <trkpt lat="40.10043" lon="-8.49055">
        <ele>111.17</ele>
        <time>2019-05-20T10:15:37Z</time>
      </trkpt>
      <trkpt lat="40.1005" lon="-8.49063">
        <ele>110.21</ele>
        <time>2019-05-20T10:15:46Z</time>
      </trkpt>
      <trkpt lat="40.10069" lon="-8.49081">
        <ele>109.25</ele>
        <time>2019-05-20T10:16:04Z</time>
      </trkpt>
      <trkpt lat="40.10075" lon="-8.49087">
        <ele>109.25</ele>
        <time>2019-05-20T10:16:14Z</time>
      </trkpt>
      <trkpt lat="40.10088" lon="-8.49084">
        <ele>109.73</ele>
        <time>2019-05-20T10:16:28Z</time>
      </trkpt>
      <trkpt lat="40.10095" lon="-8.49075">
        <ele>110.21</ele>
        <time>2019-05-20T10:16:42Z</time>
      </trkpt>
      <trkpt lat="40.10105" lon="-8.49061">
        <ele>111.17</ele>
        <time>2019-05-20T10:16:56Z</time>
      </trkpt>
      <trkpt lat="40.10117" lon="-8.49043">
        <ele>110.69</ele>
        <time>2019-05-20T10:17:12Z</time>
      </trkpt>
      <trkpt lat="40.10131" lon="-8.49022">
        <ele>112.61</ele>
        <time>2019-05-20T10:17:29Z</time>
      </trkpt>
      <trkpt lat="40.1014" lon="-8.49006">
        <ele>113.09</ele>
        <time>2019-05-20T10:17:44Z</time>
      </trkpt>
      <trkpt lat="40.10148" lon="-8.48994">
        <ele>114.05</ele>
        <time>2019-05-20T10:17:58Z</time>
      </trkpt>
      <trkpt lat="40.10158" lon="-8.48979">
        <ele>114.05</ele>
        <time>2019-05-20T10:18:12Z</time>
      </trkpt>
      <trkpt lat="40.10164" lon="-8.48969">
        <ele>114.53</ele>
        <time>2019-05-20T10:18:21Z</time>
      </trkpt>
      <trkpt lat="40.10177" lon="-8.48949">
        <ele>115.01</ele>
        <time>2019-05-20T10:18:38Z</time>
      </trkpt>
      <trkpt lat="40.10189" lon="-8.4893">
        <ele>116.46</ele>
        <time>2019-05-20T10:18:53Z</time>
      </trkpt>
      <trkpt lat="40.10198" lon="-8.4892">
        <ele>116.46</ele>
        <time>2019-05-20T10:19:03Z</time>
      </trkpt>
      <trkpt lat="40.10224" lon="-8.48903">
        <ele>116.94</ele>
        <time>2019-05-20T10:19:21Z</time>
      </trkpt>
      <trkpt lat="40.10226" lon="-8.48903">
        <ele>116.94</ele>
        <time>2019-05-20T10:19:24Z</time>
      </trkpt>
      <trkpt lat="40.10227" lon="-8.48902">
        <ele>116.94</ele>
        <time>2019-05-20T10:19:26Z</time>
      </trkpt>
      <trkpt lat="40.10225" lon="-8.48897">
        <ele>117.42</ele>
        <time>2019-05-20T10:19:46Z</time>
      </trkpt>
      <trkpt lat="40.10224" lon="-8.48895">
        <ele>117.9</ele>
        <time>2019-05-20T10:19:48Z</time>
      </trkpt>
      <trkpt lat="40.10224" lon="-8.48892">
        <ele>117.42</ele>
        <time>2019-05-20T10:19:50Z</time>
      </trkpt>
      <trkpt lat="40.10224" lon="-8.48885">
        <ele>118.38</ele>
        <time>2019-05-20T10:19:55Z</time>
      </trkpt>
      <trkpt lat="40.10227" lon="-8.48877">
        <ele>118.86</ele>
        <time>2019-05-20T10:20:01Z</time>
      </trkpt>
      <trkpt lat="40.10235" lon="-8.48866">
        <ele>118.86</ele>
        <time>2019-05-20T10:20:11Z</time>
      </trkpt>
      <trkpt lat="40.10242" lon="-8.48853">
        <ele>119.82</ele>
        <time>2019-05-20T10:20:24Z</time>
      </trkpt>
      <trkpt lat="40.10243" lon="-8.4885">
        <ele>119.34</ele>
        <time>2019-05-20T10:20:27Z</time>
      </trkpt>
      <trkpt lat="40.1025" lon="-8.48839">
        <ele>120.3</ele>
        <time>2019-05-20T10:20:42Z</time>
      </trkpt>
      <trkpt lat="40.10251" lon="-8.48838">
        <ele>120.78</ele>
        <time>2019-05-20T10:21:10Z</time>
      </trkpt>
      <trkpt lat="40.10263" lon="-8.48818">
        <ele>121.26</ele>
        <time>2019-05-20T10:21:26Z</time>
      </trkpt>
      <trkpt lat="40.10275" lon="-8.48799">
        <ele>121.74</ele>
        <time>2019-05-20T10:21:41Z</time>
      </trkpt>
      <trkpt lat="40.10287" lon="-8.48781">
        <ele>122.71</ele>
        <time>2019-05-20T10:21:55Z</time>
      </trkpt>
      <trkpt lat="40.10304" lon="-8.48767">
        <ele>123.19</ele>
        <time>2019-05-20T10:22:11Z</time>
      </trkpt>
      <trkpt lat="40.10319" lon="-8.48769">
        <ele>123.67</ele>
        <time>2019-05-20T10:22:26Z</time>
      </trkpt>
      <trkpt lat="40.10327" lon="-8.48777">
        <ele>123.19</ele>
        <time>2019-05-20T10:22:39Z</time>
      </trkpt>
      <trkpt lat="40.10334" lon="-8.48783">
        <ele>123.19</ele>
        <time>2019-05-20T10:22:52Z</time>
      </trkpt>
      <trkpt lat="40.1034" lon="-8.48789">
        <ele>122.71</ele>
        <time>2019-05-20T10:23:10Z</time>
      </trkpt>
      <trkpt lat="40.10356" lon="-8.48806">
        <ele>122.22</ele>
        <time>2019-05-20T10:23:26Z</time>
      </trkpt>
      <trkpt lat="40.10368" lon="-8.4882">
        <ele>124.15</ele>
        <time>2019-05-20T10:23:43Z</time>
      </trkpt>
      <trkpt lat="40.10378" lon="-8.48834">
        <ele>123.19</ele>
        <time>2019-05-20T10:23:58Z</time>
      </trkpt>
      <trkpt lat="40.10381" lon="-8.48837">
        <ele>123.67</ele>
        <time>2019-05-20T10:24:18Z</time>
      </trkpt>
      <trkpt lat="40.10382" lon="-8.48836">
        <ele>123.67</ele>
        <time>2019-05-20T10:24:36Z</time>
      </trkpt>
      <trkpt lat="40.10386" lon="-8.48835">
        <ele>123.19</ele>
        <time>2019-05-20T10:24:39Z</time>
      </trkpt>
      <trkpt lat="40.10392" lon="-8.48833">
        <ele>123.19</ele>
        <time>2019-05-20T10:24:45Z</time>
      </trkpt>
      <trkpt lat="40.10403" lon="-8.48846">
        <ele>124.15</ele>
        <time>2019-05-20T10:25:00Z</time>
      </trkpt>
      <trkpt lat="40.10409" lon="-8.4886">
        <ele>124.15</ele>
        <time>2019-05-20T10:25:12Z</time>
      </trkpt>
      <trkpt lat="40.10413" lon="-8.48863">
        <ele>124.15</ele>
        <time>2019-05-20T10:25:26Z</time>
      </trkpt>
      <trkpt lat="40.10413" lon="-8.48867">
        <ele>124.63</ele>
        <time>2019-05-20T10:25:50Z</time>
      </trkpt>
      <trkpt lat="40.10413" lon="-8.48877">
        <ele>124.15</ele>
        <time>2019-05-20T10:26:08Z</time>
      </trkpt>
      <trkpt lat="40.10417" lon="-8.48879">
        <ele>125.11</ele>
        <time>2019-05-20T10:26:21Z</time>
      </trkpt>
      <trkpt lat="40.10416" lon="-8.48879">
        <ele>124.15</ele>
        <time>2019-05-20T10:26:37Z</time>
      </trkpt>
      <trkpt lat="40.10422" lon="-8.48888">
        <ele>123.19</ele>
        <time>2019-05-20T10:26:46Z</time>
      </trkpt>
      <trkpt lat="40.10441" lon="-8.48896">
        <ele>124.15</ele>
        <time>2019-05-20T10:27:01Z</time>
      </trkpt>
      <trkpt lat="40.10456" lon="-8.48907">
        <ele>123.67</ele>
        <time>2019-05-20T10:27:14Z</time>
      </trkpt>
      <trkpt lat="40.10467" lon="-8.48915">
        <ele>124.15</ele>
        <time>2019-05-20T10:27:24Z</time>
      </trkpt>
      <trkpt lat="40.1048" lon="-8.48927">
        <ele>124.15</ele>
        <time>2019-05-20T10:27:39Z</time>
      </trkpt>
      <trkpt lat="40.10486" lon="-8.48935">
        <ele>124.15</ele>
        <time>2019-05-20T10:27:54Z</time>
      </trkpt>
      <trkpt lat="40.10497" lon="-8.48948">
        <ele>124.15</ele>
        <time>2019-05-20T10:28:08Z</time>
      </trkpt>
      <trkpt lat="40.105" lon="-8.48952">
        <ele>123.19</ele>
        <time>2019-05-20T10:28:21Z</time>
      </trkpt>
      <trkpt lat="40.10513" lon="-8.48964">
        <ele>122.71</ele>
        <time>2019-05-20T10:28:33Z</time>
      </trkpt>
      <trkpt lat="40.10527" lon="-8.4898">
        <ele>123.67</ele>
        <time>2019-05-20T10:28:49Z</time>
      </trkpt>
      <trkpt lat="40.10543" lon="-8.48999">
        <ele>123.19</ele>
        <time>2019-05-20T10:29:07Z</time>
      </trkpt>
      <trkpt lat="40.10544" lon="-8.49">
        <ele>122.22</ele>
        <time>2019-05-20T10:29:08Z</time>
      </trkpt>
      <trkpt lat="40.10558" lon="-8.49014">
        <ele>122.22</ele>
        <time>2019-05-20T10:29:21Z</time>
      </trkpt>
      <trkpt lat="40.10562" lon="-8.49018">
        <ele>122.22</ele>
        <time>2019-05-20T10:29:25Z</time>
      </trkpt>
      <trkpt lat="40.10574" lon="-8.4903">
        <ele>122.22</ele>
        <time>2019-05-20T10:29:37Z</time>
      </trkpt>
      <trkpt lat="40.10576" lon="-8.49034">
        <ele>121.74</ele>
        <time>2019-05-20T10:29:40Z</time>
      </trkpt>
      <trkpt lat="40.1058" lon="-8.49038">
        <ele>121.74</ele>
        <time>2019-05-20T10:29:44Z</time>
      </trkpt>
      <trkpt lat="40.10591" lon="-8.49051">
        <ele>121.26</ele>
        <time>2019-05-20T10:29:56Z</time>
      </trkpt>
      <trkpt lat="40.10601" lon="-8.49062">
        <ele>120.78</ele>
        <time>2019-05-20T10:30:07Z</time>
      </trkpt>
      <trkpt lat="40.10605" lon="-8.49066">
        <ele>121.26</ele>
        <time>2019-05-20T10:30:11Z</time>
      </trkpt>
      <trkpt lat="40.10617" lon="-8.49078">
        <ele>120.3</ele>
        <time>2019-05-20T10:30:24Z</time>
      </trkpt>
      <trkpt lat="40.10618" lon="-8.4908">
        <ele>120.3</ele>
        <time>2019-05-20T10:30:26Z</time>
      </trkpt>
      <trkpt lat="40.10621" lon="-8.49084">
        <ele>120.3</ele>
        <time>2019-05-20T10:30:29Z</time>
      </trkpt>
      <trkpt lat="40.1063" lon="-8.49094">
        <ele>120.3</ele>
        <time>2019-05-20T10:30:39Z</time>
      </trkpt>
      <trkpt lat="40.1064" lon="-8.49104">
        <ele>120.3</ele>
        <time>2019-05-20T10:30:50Z</time>
      </trkpt>
      <trkpt lat="40.10649" lon="-8.49115">
        <ele>119.82</ele>
        <time>2019-05-20T10:31:00Z</time>
      </trkpt>
      <trkpt lat="40.10654" lon="-8.49119">
        <ele>120.3</ele>
        <time>2019-05-20T10:31:05Z</time>
      </trkpt>
      <trkpt lat="40.10656" lon="-8.4912">
        <ele>120.3</ele>
        <time>2019-05-20T10:31:07Z</time>
      </trkpt>
      <trkpt lat="40.10658" lon="-8.49123">
        <ele>119.34</ele>
        <time>2019-05-20T10:31:10Z</time>
      </trkpt>
      <trkpt lat="40.1066" lon="-8.49124">
        <ele>119.82</ele>
        <time>2019-05-20T10:31:11Z</time>
      </trkpt>
      <trkpt lat="40.10664" lon="-8.49129">
        <ele>119.34</ele>
        <time>2019-05-20T10:31:16Z</time>
      </trkpt>
      <trkpt lat="40.10665" lon="-8.49131">
        <ele>119.34</ele>
        <time>2019-05-20T10:31:17Z</time>
      </trkpt>
      <trkpt lat="40.10666" lon="-8.49132">
        <ele>120.3</ele>
        <time>2019-05-20T10:31:18Z</time>
      </trkpt>
      <trkpt lat="40.10676" lon="-8.49143">
        <ele>119.34</ele>
        <time>2019-05-20T10:31:28Z</time>
      </trkpt>
      <trkpt lat="40.10685" lon="-8.49153">
        <ele>119.34</ele>
        <time>2019-05-20T10:31:38Z</time>
      </trkpt>
      <trkpt lat="40.10687" lon="-8.49155">
        <ele>119.34</ele>
        <time>2019-05-20T10:31:39Z</time>
      </trkpt>
      <trkpt lat="40.10688" lon="-8.49156">
        <ele>119.34</ele>
        <time>2019-05-20T10:31:40Z</time>
      </trkpt>
      <trkpt lat="40.10689" lon="-8.49158">
        <ele>119.34</ele>
        <time>2019-05-20T10:31:41Z</time>
      </trkpt>
      <trkpt lat="40.10695" lon="-8.49167">
        <ele>118.86</ele>
        <time>2019-05-20T10:31:52Z</time>
      </trkpt>
      <trkpt lat="40.10697" lon="-8.49168">
        <ele>118.86</ele>
        <time>2019-05-20T10:31:58Z</time>
      </trkpt>
      <trkpt lat="40.10698" lon="-8.49169">
        <ele>118.86</ele>
        <time>2019-05-20T10:31:59Z</time>
      </trkpt>
      <trkpt lat="40.10707" lon="-8.49179">
        <ele>118.38</ele>
        <time>2019-05-20T10:32:09Z</time>
      </trkpt>
      <trkpt lat="40.10718" lon="-8.49191">
        <ele>117.9</ele>
        <time>2019-05-20T10:32:21Z</time>
      </trkpt>
      <trkpt lat="40.10726" lon="-8.492">
        <ele>117.42</ele>
        <time>2019-05-20T10:32:30Z</time>
      </trkpt>
      <trkpt lat="40.10727" lon="-8.49201">
        <ele>118.38</ele>
        <time>2019-05-20T10:32:31Z</time>
      </trkpt>
      <trkpt lat="40.10728" lon="-8.49202">
        <ele>117.9</ele>
        <time>2019-05-20T10:32:32Z</time>
      </trkpt>
      <trkpt lat="40.10733" lon="-8.49207">
        <ele>116.94</ele>
        <time>2019-05-20T10:32:37Z</time>
      </trkpt>
      <trkpt lat="40.10733" lon="-8.49208">
        <ele>118.38</ele>
        <time>2019-05-20T10:32:39Z</time>
      </trkpt>
      <trkpt lat="40.10735" lon="-8.49211">
        <ele>117.42</ele>
        <time>2019-05-20T10:32:45Z</time>
      </trkpt>
      <trkpt lat="40.10746" lon="-8.49223">
        <ele>116.94</ele>
        <time>2019-05-20T10:32:56Z</time>
      </trkpt>
      <trkpt lat="40.10758" lon="-8.49235">
        <ele>116.46</ele>
        <time>2019-05-20T10:33:08Z</time>
      </trkpt>
      <trkpt lat="40.10763" lon="-8.49241">
        <ele>116.46</ele>
        <time>2019-05-20T10:33:14Z</time>
      </trkpt>
      <trkpt lat="40.10766" lon="-8.49242">
        <ele>116.94</ele>
        <time>2019-05-20T10:33:29Z</time>
      </trkpt>
      <trkpt lat="40.10773" lon="-8.49251">
        <ele>116.94</ele>
        <time>2019-05-20T10:33:49Z</time>
      </trkpt>
      <trkpt lat="40.10777" lon="-8.49253">
        <ele>116.46</ele>
        <time>2019-05-20T10:34:06Z</time>
      </trkpt>
      <trkpt lat="40.10778" lon="-8.49253">
        <ele>116.46</ele>
        <time>2019-05-20T10:34:07Z</time>
      </trkpt>
      <trkpt lat="40.10782" lon="-8.49254">
        <ele>116.46</ele>
        <time>2019-05-20T10:34:11Z</time>
      </trkpt>
      <trkpt lat="40.10783" lon="-8.49256">
        <ele>116.46</ele>
        <time>2019-05-20T10:34:12Z</time>
      </trkpt>
      <trkpt lat="40.10785" lon="-8.49257">
        <ele>116.46</ele>
        <time>2019-05-20T10:34:13Z</time>
      </trkpt>
      <trkpt lat="40.10786" lon="-8.49258">
        <ele>115.98</ele>
        <time>2019-05-20T10:34:14Z</time>
      </trkpt>
      <trkpt lat="40.10788" lon="-8.49262">
        <ele>116.46</ele>
        <time>2019-05-20T10:34:17Z</time>
      </trkpt>
      <trkpt lat="40.1079" lon="-8.4927">
        <ele>115.98</ele>
        <time>2019-05-20T10:34:22Z</time>
      </trkpt>
      <trkpt lat="40.1079" lon="-8.49272">
        <ele>116.46</ele>
        <time>2019-05-20T10:34:23Z</time>
      </trkpt>
      <trkpt lat="40.1079" lon="-8.49273">
        <ele>116.46</ele>
        <time>2019-05-20T10:34:24Z</time>
      </trkpt>
      <trkpt lat="40.1079" lon="-8.4928">
        <ele>115.98</ele>
        <time>2019-05-20T10:34:28Z</time>
      </trkpt>
      <trkpt lat="40.10789" lon="-8.49297">
        <ele>116.46</ele>
        <time>2019-05-20T10:34:39Z</time>
      </trkpt>
      <trkpt lat="40.10789" lon="-8.49299">
        <ele>115.98</ele>
        <time>2019-05-20T10:34:40Z</time>
      </trkpt>
      <trkpt lat="40.10789" lon="-8.49302">
        <ele>115.5</ele>
        <time>2019-05-20T10:34:41Z</time>
      </trkpt>
      <trkpt lat="40.10793" lon="-8.49314">
        <ele>115.5</ele>
        <time>2019-05-20T10:34:50Z</time>
      </trkpt>
      <trkpt lat="40.10797" lon="-8.49321">
        <ele>115.01</ele>
        <time>2019-05-20T10:34:56Z</time>
      </trkpt>
      <trkpt lat="40.10798" lon="-8.49322">
        <ele>115.5</ele>
        <time>2019-05-20T10:34:57Z</time>
      </trkpt>
      <trkpt lat="40.10808" lon="-8.49328">
        <ele>115.5</ele>
        <time>2019-05-20T10:35:05Z</time>
      </trkpt>
      <trkpt lat="40.10816" lon="-8.49331">
        <ele>114.53</ele>
        <time>2019-05-20T10:35:11Z</time>
      </trkpt>
      <trkpt lat="40.10818" lon="-8.49332">
        <ele>114.05</ele>
        <time>2019-05-20T10:35:14Z</time>
      </trkpt>
      <trkpt lat="40.1083" lon="-8.49336">
        <ele>114.05</ele>
        <time>2019-05-20T10:35:23Z</time>
      </trkpt>
      <trkpt lat="40.10843" lon="-8.49343">
        <ele>113.09</ele>
        <time>2019-05-20T10:35:34Z</time>
      </trkpt>
      <trkpt lat="40.10858" lon="-8.49357">
        <ele>113.09</ele>
        <time>2019-05-20T10:35:50Z</time>
      </trkpt>
      <trkpt lat="40.10867" lon="-8.49364">
        <ele>112.13</ele>
        <time>2019-05-20T10:35:59Z</time>
      </trkpt>
      <trkpt lat="40.10868" lon="-8.49365">
        <ele>111.65</ele>
        <time>2019-05-20T10:36:00Z</time>
      </trkpt>
      <trkpt lat="40.10873" lon="-8.49372">
        <ele>111.17</ele>
        <time>2019-05-20T10:36:06Z</time>
      </trkpt>
      <trkpt lat="40.10874" lon="-8.49374">
        <ele>111.17</ele>
        <time>2019-05-20T10:36:07Z</time>
      </trkpt>
      <trkpt lat="40.10876" lon="-8.49376">
        <ele>111.65</ele>
        <time>2019-05-20T10:36:08Z</time>
      </trkpt>
      <trkpt lat="40.10884" lon="-8.49387">
        <ele>109.73</ele>
        <time>2019-05-20T10:36:19Z</time>
      </trkpt>
      <trkpt lat="40.10894" lon="-8.49399">
        <ele>109.73</ele>
        <time>2019-05-20T10:36:33Z</time>
      </trkpt>
      <trkpt lat="40.10898" lon="-8.49403">
        <ele>109.73</ele>
        <time>2019-05-20T10:36:38Z</time>
      </trkpt>
      <trkpt lat="40.109" lon="-8.49406">
        <ele>109.73</ele>
        <time>2019-05-20T10:36:41Z</time>
      </trkpt>
      <trkpt lat="40.10902" lon="-8.49407">
        <ele>109.73</ele>
        <time>2019-05-20T10:36:42Z</time>
      </trkpt>
      <trkpt lat="40.10903" lon="-8.49408">
        <ele>109.73</ele>
        <time>2019-05-20T10:36:43Z</time>
      </trkpt>
      <trkpt lat="40.10913" lon="-8.49422">
        <ele>110.21</ele>
        <time>2019-05-20T10:36:56Z</time>
      </trkpt>
      <trkpt lat="40.10914" lon="-8.49424">
        <ele>110.21</ele>
        <time>2019-05-20T10:36:57Z</time>
      </trkpt>
      <trkpt lat="40.10919" lon="-8.49435">
        <ele>109.73</ele>
        <time>2019-05-20T10:37:11Z</time>
      </trkpt>
      <trkpt lat="40.10921" lon="-8.49439">
        <ele>110.21</ele>
        <time>2019-05-20T10:37:32Z</time>
      </trkpt>
      <trkpt lat="40.10921" lon="-8.49439">
        <ele>109.73</ele>
        <time>2019-05-20T10:37:50Z</time>
      </trkpt>
      <trkpt lat="40.10922" lon="-8.49439">
        <ele>110.69</ele>
        <time>2019-05-20T10:38:14Z</time>
      </trkpt>
      <trkpt lat="40.10919" lon="-8.4944">
        <ele>110.21</ele>
        <time>2019-05-20T10:38:49Z</time>
      </trkpt>
      <trkpt lat="40.1092" lon="-8.4944">
        <ele>110.21</ele>
        <time>2019-05-20T10:39:22Z</time>
      </trkpt>
      <trkpt lat="40.10921" lon="-8.49435">
        <ele>110.21</ele>
        <time>2019-05-20T10:39:50Z</time>
      </trkpt>
      <trkpt lat="40.10921" lon="-8.49439">
        <ele>110.21</ele>
        <time>2019-05-20T10:40:13Z</time>
      </trkpt>
      <trkpt lat="40.10929" lon="-8.49455">
        <ele>109.73</ele>
        <time>2019-05-20T10:40:26Z</time>
      </trkpt>
      <trkpt lat="40.10937" lon="-8.49476">
        <ele>109.25</ele>
        <time>2019-05-20T10:40:40Z</time>
      </trkpt>
      <trkpt lat="40.10948" lon="-8.495">
        <ele>107.81</ele>
        <time>2019-05-20T10:40:57Z</time>
      </trkpt>
      <trkpt lat="40.10955" lon="-8.49522">
        <ele>106.84</ele>
        <time>2019-05-20T10:41:11Z</time>
      </trkpt>
      <trkpt lat="40.1096" lon="-8.49527">
        <ele>106.84</ele>
        <time>2019-05-20T10:41:15Z</time>
      </trkpt>
      <trkpt lat="40.10964" lon="-8.49535">
        <ele>105.88</ele>
        <time>2019-05-20T10:41:21Z</time>
      </trkpt>
      <trkpt lat="40.10972" lon="-8.49552">
        <ele>104.92</ele>
        <time>2019-05-20T10:41:34Z</time>
      </trkpt>
      <trkpt lat="40.10979" lon="-8.49562">
        <ele>104.44</ele>
        <time>2019-05-20T10:41:45Z</time>
      </trkpt>
      <trkpt lat="40.10991" lon="-8.49578">
        <ele>103.48</ele>
        <time>2019-05-20T10:41:59Z</time>
      </trkpt>
      <trkpt lat="40.10996" lon="-8.49584">
        <ele>103</ele>
        <time>2019-05-20T10:42:05Z</time>
      </trkpt>
      <trkpt lat="40.1101" lon="-8.49602">
        <ele>101.56</ele>
        <time>2019-05-20T10:42:21Z</time>
      </trkpt>
      <trkpt lat="40.11025" lon="-8.49621">
        <ele>100.6</ele>
        <time>2019-05-20T10:42:38Z</time>
      </trkpt>
      <trkpt lat="40.11036" lon="-8.49638">
        <ele>99.63</ele>
        <time>2019-05-20T10:42:51Z</time>
      </trkpt>
      <trkpt lat="40.11041" lon="-8.49645">
        <ele>98.67</ele>
        <time>2019-05-20T10:43:03Z</time>
      </trkpt>
      <trkpt lat="40.1105" lon="-8.49661">
        <ele>99.15</ele>
        <time>2019-05-20T10:43:17Z</time>
      </trkpt>
      <trkpt lat="40.11062" lon="-8.49672">
        <ele>98.67</ele>
        <time>2019-05-20T10:43:30Z</time>
      </trkpt>
      <trkpt lat="40.11077" lon="-8.4969">
        <ele>98.67</ele>
        <time>2019-05-20T10:43:46Z</time>
      </trkpt>
      <trkpt lat="40.1108" lon="-8.49694">
        <ele>98.19</ele>
        <time>2019-05-20T10:43:50Z</time>
      </trkpt>
      <trkpt lat="40.11081" lon="-8.49702">
        <ele>97.71</ele>
        <time>2019-05-20T10:43:57Z</time>
      </trkpt>
      <trkpt lat="40.11082" lon="-8.49704">
        <ele>98.19</ele>
        <time>2019-05-20T10:43:59Z</time>
      </trkpt>
      <trkpt lat="40.11092" lon="-8.49712">
        <ele>97.71</ele>
        <time>2019-05-20T10:44:11Z</time>
      </trkpt>
      <trkpt lat="40.11104" lon="-8.49727">
        <ele>98.19</ele>
        <time>2019-05-20T10:44:24Z</time>
      </trkpt>
      <trkpt lat="40.1111" lon="-8.49731">
        <ele>98.19</ele>
        <time>2019-05-20T10:44:27Z</time>
      </trkpt>
      <trkpt lat="40.11126" lon="-8.49748">
        <ele>98.19</ele>
        <time>2019-05-20T10:44:41Z</time>
      </trkpt>
      <trkpt lat="40.1113" lon="-8.49752">
        <ele>97.71</ele>
        <time>2019-05-20T10:44:45Z</time>
      </trkpt>
      <trkpt lat="40.11131" lon="-8.49752">
        <ele>97.71</ele>
        <time>2019-05-20T10:44:46Z</time>
      </trkpt>
      <trkpt lat="40.11139" lon="-8.49765">
        <ele>97.23</ele>
        <time>2019-05-20T10:44:57Z</time>
      </trkpt>
      <trkpt lat="40.11152" lon="-8.49777">
        <ele>95.79</ele>
        <time>2019-05-20T10:45:10Z</time>
      </trkpt>
      <trkpt lat="40.11164" lon="-8.49789">
        <ele>95.79</ele>
        <time>2019-05-20T10:45:23Z</time>
      </trkpt>
      <trkpt lat="40.11184" lon="-8.49802">
        <ele>94.35</ele>
        <time>2019-05-20T10:45:37Z</time>
      </trkpt>
      <trkpt lat="40.11195" lon="-8.49829">
        <ele>93.39</ele>
        <time>2019-05-20T10:45:51Z</time>
      </trkpt>
      <trkpt lat="40.112" lon="-8.49847">
        <ele>92.42</ele>
        <time>2019-05-20T10:46:05Z</time>
      </trkpt>
      <trkpt lat="40.11202" lon="-8.49851">
        <ele>92.42</ele>
        <time>2019-05-20T10:46:13Z</time>
      </trkpt>
      <trkpt lat="40.11201" lon="-8.49858">
        <ele>91.94</ele>
        <time>2019-05-20T10:46:18Z</time>
      </trkpt>
      <trkpt lat="40.11203" lon="-8.49877">
        <ele>90.98</ele>
        <time>2019-05-20T10:46:29Z</time>
      </trkpt>
      <trkpt lat="40.11206" lon="-8.49888">
        <ele>89.06</ele>
        <time>2019-05-20T10:46:39Z</time>
      </trkpt>
      <trkpt lat="40.11207" lon="-8.49889">
        <ele>89.54</ele>
        <time>2019-05-20T10:46:40Z</time>
      </trkpt>
      <trkpt lat="40.11217" lon="-8.49905">
        <ele>89.06</ele>
        <time>2019-05-20T10:46:54Z</time>
      </trkpt>
      <trkpt lat="40.11231" lon="-8.49905">
        <ele>87.62</ele>
        <time>2019-05-20T10:47:08Z</time>
      </trkpt>
      <trkpt lat="40.11245" lon="-8.49911">
        <ele>87.62</ele>
        <time>2019-05-20T10:47:18Z</time>
      </trkpt>
      <trkpt lat="40.11246" lon="-8.49914">
        <ele>87.62</ele>
        <time>2019-05-20T10:47:25Z</time>
      </trkpt>
      <trkpt lat="40.11254" lon="-8.49922">
        <ele>87.14</ele>
        <time>2019-05-20T10:47:36Z</time>
      </trkpt>
      <trkpt lat="40.11258" lon="-8.49921">
        <ele>86.66</ele>
        <time>2019-05-20T10:47:41Z</time>
      </trkpt>
      <trkpt lat="40.11263" lon="-8.49916">
        <ele>87.14</ele>
        <time>2019-05-20T10:47:50Z</time>
      </trkpt>
      <trkpt lat="40.11265" lon="-8.49915">
        <ele>87.62</ele>
        <time>2019-05-20T10:47:52Z</time>
      </trkpt>
      <trkpt lat="40.11282" lon="-8.49917">
        <ele>87.14</ele>
        <time>2019-05-20T10:48:07Z</time>
      </trkpt>
      <trkpt lat="40.11284" lon="-8.49918">
        <ele>87.14</ele>
        <time>2019-05-20T10:48:09Z</time>
      </trkpt>
      <trkpt lat="40.11289" lon="-8.49918">
        <ele>87.62</ele>
        <time>2019-05-20T10:48:13Z</time>
      </trkpt>
      <trkpt lat="40.11306" lon="-8.49919">
        <ele>88.1</ele>
        <time>2019-05-20T10:48:29Z</time>
      </trkpt>
      <trkpt lat="40.1131" lon="-8.49915">
        <ele>87.62</ele>
        <time>2019-05-20T10:48:32Z</time>
      </trkpt>
      <trkpt lat="40.11316" lon="-8.49908">
        <ele>88.1</ele>
        <time>2019-05-20T10:48:41Z</time>
      </trkpt>
      <trkpt lat="40.11333" lon="-8.49908">
        <ele>88.1</ele>
        <time>2019-05-20T10:48:56Z</time>
      </trkpt>
      <trkpt lat="40.11342" lon="-8.49905">
        <ele>89.06</ele>
        <time>2019-05-20T10:49:05Z</time>
      </trkpt>
      <trkpt lat="40.11346" lon="-8.49893">
        <ele>88.58</ele>
        <time>2019-05-20T10:49:16Z</time>
      </trkpt>
      <trkpt lat="40.11353" lon="-8.49883">
        <ele>90.98</ele>
        <time>2019-05-20T10:49:29Z</time>
      </trkpt>
      <trkpt lat="40.11354" lon="-8.49879">
        <ele>90.5</ele>
        <time>2019-05-20T10:49:32Z</time>
      </trkpt>
      <trkpt lat="40.1136" lon="-8.49874">
        <ele>90.5</ele>
        <time>2019-05-20T10:49:47Z</time>
      </trkpt>
      <trkpt lat="40.11363" lon="-8.49874">
        <ele>90.5</ele>
        <time>2019-05-20T10:50:00Z</time>
      </trkpt>
      <trkpt lat="40.11362" lon="-8.49865">
        <ele>90.5</ele>
        <time>2019-05-20T10:50:14Z</time>
      </trkpt>
      <trkpt lat="40.11359" lon="-8.49863">
        <ele>90.5</ele>
        <time>2019-05-20T10:50:29Z</time>
      </trkpt>
      <trkpt lat="40.11357" lon="-8.49878">
        <ele>90.02</ele>
        <time>2019-05-20T10:50:44Z</time>
      </trkpt>
      <trkpt lat="40.11351" lon="-8.49893">
        <ele>88.58</ele>
        <time>2019-05-20T10:50:57Z</time>
      </trkpt>
      <trkpt lat="40.11346" lon="-8.49907">
        <ele>88.1</ele>
        <time>2019-05-20T10:51:16Z</time>
      </trkpt>
      <trkpt lat="40.11339" lon="-8.49912">
        <ele>87.62</ele>
        <time>2019-05-20T10:51:25Z</time>
      </trkpt>
      <trkpt lat="40.11337" lon="-8.49913">
        <ele>87.62</ele>
        <time>2019-05-20T10:51:27Z</time>
      </trkpt>
      <trkpt lat="40.11327" lon="-8.49911">
        <ele>87.14</ele>
        <time>2019-05-20T10:51:39Z</time>
      </trkpt>
      <trkpt lat="40.11324" lon="-8.4989">
        <ele>88.58</ele>
        <time>2019-05-20T10:51:57Z</time>
      </trkpt>
      <trkpt lat="40.11322" lon="-8.49889">
        <ele>88.1</ele>
        <time>2019-05-20T10:51:59Z</time>
      </trkpt>
      <trkpt lat="40.11303" lon="-8.49889">
        <ele>87.62</ele>
        <time>2019-05-20T10:52:18Z</time>
      </trkpt>
      <trkpt lat="40.11284" lon="-8.49884">
        <ele>87.14</ele>
        <time>2019-05-20T10:52:34Z</time>
      </trkpt>
      <trkpt lat="40.11266" lon="-8.49887">
        <ele>88.1</ele>
        <time>2019-05-20T10:52:50Z</time>
      </trkpt>
      <trkpt lat="40.11265" lon="-8.49887">
        <ele>87.62</ele>
        <time>2019-05-20T10:52:51Z</time>
      </trkpt>
      <trkpt lat="40.11262" lon="-8.49895">
        <ele>87.62</ele>
        <time>2019-05-20T10:52:57Z</time>
      </trkpt>
      <trkpt lat="40.11261" lon="-8.49907">
        <ele>86.18</ele>
        <time>2019-05-20T10:53:11Z</time>
      </trkpt>
      <trkpt lat="40.11263" lon="-8.49908">
        <ele>86.18</ele>
        <time>2019-05-20T10:53:15Z</time>
      </trkpt>
      <trkpt lat="40.11269" lon="-8.49919">
        <ele>86.66</ele>
        <time>2019-05-20T10:53:27Z</time>
      </trkpt>
      <trkpt lat="40.11269" lon="-8.49919">
        <ele>86.18</ele>
        <time>2019-05-20T10:53:28Z</time>
      </trkpt>
      <trkpt lat="40.11274" lon="-8.4992">
        <ele>86.66</ele>
        <time>2019-05-20T10:53:44Z</time>
      </trkpt>
      <trkpt lat="40.11277" lon="-8.49918">
        <ele>86.66</ele>
        <time>2019-05-20T10:54:08Z</time>
      </trkpt>
      <trkpt lat="40.11285" lon="-8.49916">
        <ele>87.14</ele>
        <time>2019-05-20T10:54:20Z</time>
      </trkpt>
      <trkpt lat="40.11288" lon="-8.49916">
        <ele>86.18</ele>
        <time>2019-05-20T10:54:31Z</time>
      </trkpt>
      <trkpt lat="40.11289" lon="-8.49918">
        <ele>86.66</ele>
        <time>2019-05-20T10:54:46Z</time>
      </trkpt>
      <trkpt lat="40.11291" lon="-8.4992">
        <ele>86.66</ele>
        <time>2019-05-20T10:55:10Z</time>
      </trkpt>
      <trkpt lat="40.11293" lon="-8.49931">
        <ele>87.62</ele>
        <time>2019-05-20T10:55:31Z</time>
      </trkpt>
      <trkpt lat="40.11293" lon="-8.4993">
        <ele>87.14</ele>
        <time>2019-05-20T10:55:53Z</time>
      </trkpt>
      <trkpt lat="40.11291" lon="-8.49926">
        <ele>87.62</ele>
        <time>2019-05-20T10:56:16Z</time>
      </trkpt>
      <trkpt lat="40.11293" lon="-8.49926">
        <ele>88.1</ele>
        <time>2019-05-20T10:56:46Z</time>
      </trkpt>
      <trkpt lat="40.11292" lon="-8.49926">
        <ele>88.58</ele>
        <time>2019-05-20T10:57:17Z</time>
      </trkpt>
      <trkpt lat="40.11292" lon="-8.49926">
        <ele>89.06</ele>
        <time>2019-05-20T10:57:41Z</time>
      </trkpt>
      <trkpt lat="40.11294" lon="-8.49927">
        <ele>90.02</ele>
        <time>2019-05-20T10:58:02Z</time>
      </trkpt>
      <trkpt lat="40.11299" lon="-8.49929">
        <ele>90.02</ele>
        <time>2019-05-20T10:58:22Z</time>
      </trkpt>
      <trkpt lat="40.11313" lon="-8.49926">
        <ele>90.02</ele>
        <time>2019-05-20T10:58:36Z</time>
      </trkpt>
      <trkpt lat="40.1132" lon="-8.4991">
        <ele>90.5</ele>
        <time>2019-05-20T10:58:49Z</time>
      </trkpt>
      <trkpt lat="40.11323" lon="-8.49909">
        <ele>90.98</ele>
        <time>2019-05-20T10:58:53Z</time>
      </trkpt>
      <trkpt lat="40.11335" lon="-8.49908">
        <ele>91.46</ele>
        <time>2019-05-20T10:59:08Z</time>
      </trkpt>
      <trkpt lat="40.11336" lon="-8.49917">
        <ele>91.46</ele>
        <time>2019-05-20T10:59:24Z</time>
      </trkpt>
      <trkpt lat="40.11344" lon="-8.4991">
        <ele>91.46</ele>
        <time>2019-05-20T10:59:32Z</time>
      </trkpt>
      <trkpt lat="40.11347" lon="-8.49905">
        <ele>90.02</ele>
        <time>2019-05-20T10:59:35Z</time>
      </trkpt>
      <trkpt lat="40.11347" lon="-8.49892">
        <ele>92.42</ele>
        <time>2019-05-20T10:59:47Z</time>
      </trkpt>
      <trkpt lat="40.11345" lon="-8.4988">
        <ele>93.39</ele>
        <time>2019-05-20T10:59:57Z</time>
      </trkpt>
      <trkpt lat="40.11344" lon="-8.49877">
        <ele>93.87</ele>
        <time>2019-05-20T10:59:59Z</time>
      </trkpt>
      <trkpt lat="40.11342" lon="-8.49875">
        <ele>93.39</ele>
        <time>2019-05-20T11:00:02Z</time>
      </trkpt>
      <trkpt lat="40.1134" lon="-8.49874">
        <ele>93.39</ele>
        <time>2019-05-20T11:00:04Z</time>
      </trkpt>
      <trkpt lat="40.1133" lon="-8.49863">
        <ele>93.39</ele>
        <time>2019-05-20T11:00:16Z</time>
      </trkpt>
      <trkpt lat="40.11322" lon="-8.49856">
        <ele>93.39</ele>
        <time>2019-05-20T11:00:28Z</time>
      </trkpt>
      <trkpt lat="40.11322" lon="-8.49852">
        <ele>93.39</ele>
        <time>2019-05-20T11:00:39Z</time>
      </trkpt>
      <trkpt lat="40.11321" lon="-8.49846">
        <ele>92.9</ele>
        <time>2019-05-20T11:00:51Z</time>
      </trkpt>
      <trkpt lat="40.1132" lon="-8.49848">
        <ele>92.9</ele>
        <time>2019-05-20T11:01:01Z</time>
      </trkpt>
      <trkpt lat="40.11319" lon="-8.49849">
        <ele>92.42</ele>
        <time>2019-05-20T11:01:08Z</time>
      </trkpt>
      <trkpt lat="40.11321" lon="-8.49851">
        <ele>93.39</ele>
        <time>2019-05-20T11:01:17Z</time>
      </trkpt>
      <trkpt lat="40.11322" lon="-8.49851">
        <ele>93.39</ele>
        <time>2019-05-20T11:01:21Z</time>
      </trkpt>
      <trkpt lat="40.11322" lon="-8.49856">
        <ele>92.9</ele>
        <time>2019-05-20T11:01:25Z</time>
      </trkpt>
      <trkpt lat="40.11323" lon="-8.49854">
        <ele>92.9</ele>
        <time>2019-05-20T11:01:27Z</time>
      </trkpt>
      <trkpt lat="40.11318" lon="-8.4984">
        <ele>92.9</ele>
        <time>2019-05-20T11:01:50Z</time>
      </trkpt>
      <trkpt lat="40.11315" lon="-8.49801">
        <ele>92.42</ele>
        <time>2019-05-20T11:02:07Z</time>
      </trkpt>
      <trkpt lat="40.1132" lon="-8.49844">
        <ele>92.42</ele>
        <time>2019-05-20T11:02:30Z</time>
      </trkpt>
      <trkpt lat="40.11314" lon="-8.49841">
        <ele>92.9</ele>
        <time>2019-05-20T11:02:56Z</time>
      </trkpt>
      <trkpt lat="40.11312" lon="-8.4984">
        <ele>92.42</ele>
        <time>2019-05-20T11:03:22Z</time>
      </trkpt>
      <trkpt lat="40.11316" lon="-8.49856">
        <ele>91.46</ele>
        <time>2019-05-20T11:03:39Z</time>
      </trkpt>
      <trkpt lat="40.11317" lon="-8.49848">
        <ele>91.94</ele>
        <time>2019-05-20T11:03:58Z</time>
      </trkpt>
      <trkpt lat="40.11316" lon="-8.4986">
        <ele>91.94</ele>
        <time>2019-05-20T11:04:25Z</time>
      </trkpt>
      <trkpt lat="40.11325" lon="-8.4987">
        <ele>91.46</ele>
        <time>2019-05-20T11:04:48Z</time>
      </trkpt>
      <trkpt lat="40.1132" lon="-8.49868">
        <ele>91.94</ele>
        <time>2019-05-20T11:05:13Z</time>
      </trkpt>
      <trkpt lat="40.11318" lon="-8.49865">
        <ele>91.94</ele>
        <time>2019-05-20T11:05:37Z</time>
      </trkpt>
      <trkpt lat="40.11315" lon="-8.49873">
        <ele>91.94</ele>
        <time>2019-05-20T11:05:55Z</time>
      </trkpt>
      <trkpt lat="40.11312" lon="-8.49866">
        <ele>91.94</ele>
        <time>2019-05-20T11:06:17Z</time>
      </trkpt>
      <trkpt lat="40.11314" lon="-8.49864">
        <ele>91.94</ele>
        <time>2019-05-20T11:06:49Z</time>
      </trkpt>
      <trkpt lat="40.11324" lon="-8.49864">
        <ele>92.42</ele>
        <time>2019-05-20T11:07:13Z</time>
      </trkpt>
      <trkpt lat="40.11317" lon="-8.49863">
        <ele>92.42</ele>
        <time>2019-05-20T11:07:41Z</time>
      </trkpt>
      <trkpt lat="40.1132" lon="-8.49871">
        <ele>92.42</ele>
        <time>2019-05-20T11:08:04Z</time>
      </trkpt>
      <trkpt lat="40.11318" lon="-8.49869">
        <ele>92.42</ele>
        <time>2019-05-20T11:08:07Z</time>
      </trkpt>
      <trkpt lat="40.11293" lon="-8.49839">
        <ele>92.42</ele>
        <time>2019-05-20T11:08:22Z</time>
      </trkpt>
      <trkpt lat="40.11283" lon="-8.49786">
        <ele>92.42</ele>
        <time>2019-05-20T11:08:44Z</time>
      </trkpt>
      <trkpt lat="40.11313" lon="-8.498">
        <ele>92.9</ele>
        <time>2019-05-20T11:10:19Z</time>
      </trkpt>
      <trkpt lat="40.11322" lon="-8.49841">
        <ele>92.9</ele>
        <time>2019-05-20T11:10:50Z</time>
      </trkpt>
      <trkpt lat="40.11319" lon="-8.49839">
        <ele>92.9</ele>
        <time>2019-05-20T11:11:14Z</time>
      </trkpt>
      <trkpt lat="40.11319" lon="-8.49838">
        <ele>92.9</ele>
        <time>2019-05-20T11:11:17Z</time>
      </trkpt>
      <trkpt lat="40.11321" lon="-8.49844">
        <ele>92.9</ele>
        <time>2019-05-20T11:11:41Z</time>
      </trkpt>
      <trkpt lat="40.11327" lon="-8.49869">
        <ele>92.9</ele>
        <time>2019-05-20T11:12:05Z</time>
      </trkpt>
      <trkpt lat="40.11328" lon="-8.49875">
        <ele>92.9</ele>
        <time>2019-05-20T11:12:34Z</time>
      </trkpt>
      <trkpt lat="40.1132" lon="-8.49862">
        <ele>92.9</ele>
        <time>2019-05-20T11:12:59Z</time>
      </trkpt>
      <trkpt lat="40.11313" lon="-8.4986">
        <ele>92.9</ele>
        <time>2019-05-20T11:13:20Z</time>
      </trkpt>
      <trkpt lat="40.11321" lon="-8.49866">
        <ele>93.87</ele>
        <time>2019-05-20T11:13:48Z</time>
      </trkpt>
      <trkpt lat="40.11317" lon="-8.49864">
        <ele>93.39</ele>
        <time>2019-05-20T11:14:06Z</time>
      </trkpt>
      <trkpt lat="40.11295" lon="-8.49853">
        <ele>93.39</ele>
        <time>2019-05-20T11:14:43Z</time>
      </trkpt>
      <trkpt lat="40.11318" lon="-8.49861">
        <ele>93.39</ele>
        <time>2019-05-20T11:15:09Z</time>
      </trkpt>
      <trkpt lat="40.11329" lon="-8.49861">
        <ele>93.87</ele>
        <time>2019-05-20T11:15:34Z</time>
      </trkpt>
      <trkpt lat="40.11325" lon="-8.4987">
        <ele>93.87</ele>
        <time>2019-05-20T11:15:54Z</time>
      </trkpt>
      <trkpt lat="40.11321" lon="-8.49863">
        <ele>94.35</ele>
        <time>2019-05-20T11:16:18Z</time>
      </trkpt>
      <trkpt lat="40.11306" lon="-8.49824">
        <ele>94.35</ele>
        <time>2019-05-20T11:16:33Z</time>
      </trkpt>
      <trkpt lat="40.11316" lon="-8.49845">
        <ele>94.83</ele>
        <time>2019-05-20T11:16:51Z</time>
      </trkpt>
      <trkpt lat="40.11317" lon="-8.49858">
        <ele>94.35</ele>
        <time>2019-05-20T11:17:16Z</time>
      </trkpt>
      <trkpt lat="40.1132" lon="-8.49848">
        <ele>94.35</ele>
        <time>2019-05-20T11:17:44Z</time>
      </trkpt>
      <trkpt lat="40.11318" lon="-8.49845">
        <ele>94.83</ele>
        <time>2019-05-20T11:18:08Z</time>
      </trkpt>
      <trkpt lat="40.11314" lon="-8.49868">
        <ele>95.31</ele>
        <time>2019-05-20T11:18:34Z</time>
      </trkpt>
      <trkpt lat="40.11322" lon="-8.4987">
        <ele>95.31</ele>
        <time>2019-05-20T11:18:56Z</time>
      </trkpt>
      <trkpt lat="40.11323" lon="-8.49868">
        <ele>95.31</ele>
        <time>2019-05-20T11:19:15Z</time>
      </trkpt>
      <trkpt lat="40.11322" lon="-8.4987">
        <ele>95.79</ele>
        <time>2019-05-20T11:19:39Z</time>
      </trkpt>
      <trkpt lat="40.11324" lon="-8.49871">
        <ele>96.27</ele>
        <time>2019-05-20T11:19:56Z</time>
      </trkpt>
      <trkpt lat="40.11331" lon="-8.49865">
        <ele>96.27</ele>
        <time>2019-05-20T11:20:06Z</time>
      </trkpt>
      <trkpt lat="40.11338" lon="-8.49863">
        <ele>96.27</ele>
        <time>2019-05-20T11:20:20Z</time>
      </trkpt>
      <trkpt lat="40.11343" lon="-8.49868">
        <ele>95.31</ele>
        <time>2019-05-20T11:20:32Z</time>
      </trkpt>
      <trkpt lat="40.11344" lon="-8.49881">
        <ele>95.31</ele>
        <time>2019-05-20T11:20:45Z</time>
      </trkpt>
      <trkpt lat="40.11345" lon="-8.49886">
        <ele>94.35</ele>
        <time>2019-05-20T11:20:56Z</time>
      </trkpt>
      <trkpt lat="40.11349" lon="-8.499">
        <ele>93.87</ele>
        <time>2019-05-20T11:21:12Z</time>
      </trkpt>
      <trkpt lat="40.11353" lon="-8.49902">
        <ele>93.87</ele>
        <time>2019-05-20T11:21:28Z</time>
      </trkpt>
      <trkpt lat="40.11358" lon="-8.499">
        <ele>94.83</ele>
        <time>2019-05-20T11:21:41Z</time>
      </trkpt>
      <trkpt lat="40.11368" lon="-8.49892">
        <ele>95.31</ele>
        <time>2019-05-20T11:21:53Z</time>
      </trkpt>
      <trkpt lat="40.11375" lon="-8.49892">
        <ele>95.31</ele>
        <time>2019-05-20T11:22:03Z</time>
      </trkpt>
      <trkpt lat="40.11379" lon="-8.49895">
        <ele>95.31</ele>
        <time>2019-05-20T11:22:13Z</time>
      </trkpt>
      <trkpt lat="40.11378" lon="-8.49895">
        <ele>94.83</ele>
        <time>2019-05-20T11:22:34Z</time>
      </trkpt>
      <trkpt lat="40.1138" lon="-8.49889">
        <ele>94.35</ele>
        <time>2019-05-20T11:22:52Z</time>
      </trkpt>
      <trkpt lat="40.11382" lon="-8.49887">
        <ele>94.35</ele>
        <time>2019-05-20T11:23:01Z</time>
      </trkpt>
      <trkpt lat="40.11382" lon="-8.49884">
        <ele>94.35</ele>
        <time>2019-05-20T11:23:13Z</time>
      </trkpt>
      <trkpt lat="40.1138" lon="-8.49882">
        <ele>93.87</ele>
        <time>2019-05-20T11:23:33Z</time>
      </trkpt>
      <trkpt lat="40.11381" lon="-8.49881">
        <ele>93.87</ele>
        <time>2019-05-20T11:23:47Z</time>
      </trkpt>
      <trkpt lat="40.11382" lon="-8.49881">
        <ele>95.31</ele>
        <time>2019-05-20T11:24:09Z</time>
      </trkpt>
      <trkpt lat="40.11382" lon="-8.49882">
        <ele>95.31</ele>
        <time>2019-05-20T11:24:26Z</time>
      </trkpt>
      <trkpt lat="40.11377" lon="-8.49877">
        <ele>95.31</ele>
        <time>2019-05-20T11:24:37Z</time>
      </trkpt>
      <trkpt lat="40.11373" lon="-8.49869">
        <ele>95.79</ele>
        <time>2019-05-20T11:24:41Z</time>
      </trkpt>
      <trkpt lat="40.11372" lon="-8.49866">
        <ele>96.75</ele>
        <time>2019-05-20T11:24:42Z</time>
      </trkpt>
      <trkpt lat="40.11332" lon="-8.49763">
        <ele>96.27</ele>
        <time>2019-05-20T11:25:19Z</time>
      </trkpt>
    </trkseg>
  </trk>
</gpx>